| Place | Name | Time | Raw score | Score |
|---|---|---|---|---|
| 1 | Brionac | 1:02.79 | 1,000 | 401 |
| 2 | ZEnryco | 1:04.04 | 900 | 361 |
| 3 | Ferreus | 1:05.05 | 859 | 345 |
| 4 | Woody | 1:09.09 | 827 | 332 |
| 5 | JnvSor | 1:09.94 | 800 | 321 |
| 6 | Wourder | 1:11.21 | 777 | 312 |
| 7 | Host | 1:11.56 | 756 | 303 |
| 8 | Haunted Pleb | 1:12.60 | 736 | 295 |
| 9 | Bile | 1:12.81 | 718 | 288 |
| 10 | ^ | 1:22.96 | 700 | 281 |
| 11 | Terrapin | 1:23.49 | 684 | 274 |
| 12 | XiQu3sT | 1:23.53 | 669 | 268 |
| 13 | Kinix | 1:23.68 | 654 | 262 |
| 14 | Californ1a | 1:23.88 | 640 | 257 |
| 15 | i0nTempest | 1:24.67 | 626 | 251 |
| 16 | Jay2a | 1:24.76 | 613 | 246 |
| 16 | Bridge | 1:24.76 | 613 | 246 |
| 18 | Dimitri | 1:24.88 | 588 | 236 |
| 19 | jason | 1:25.01 | 576 | 231 |
| 20 | pigpenguin | 1:25.17 | 565 | 227 |
| 21 | Backgrounds' | 1:25.67 | 553 | 222 |
| 22 | [deleted] | 1:25.68 | 542 | 217 |
| 23 | Erik | 1:25.70 | 531 | 213 |
| 24 | Formidable | 1:25.77 | 521 | 209 |
| 25 | Woren | 1:25.94 | 511 | 205 |
| 26 | Charlotte | 1:25.95 | 500 | 201 |
| 27 | Hotride | 1:26.16 | 491 | 197 |
| 28 | Tribow | 1:26.79 | 481 | 193 |
| 29 | < blank > | 1:26.85 | 471 | 189 |
| 30 | Sidewinder Fang | 1:26.95 | 462 | 185 |
| 31 | Zany | 1:27.70 | 453 | 182 |
| 32 | Void Concept | 1:27.93 | 444 | 178 |
| 33 | Kenaz | 1:27.94 | 435 | 175 |
| 34 | Bears On Fire | 1:27.95 | 426 | 171 |
| 35 | Luminous | 1:28.10 | 417 | 167 |
| 36 | Corecii | 1:28.28 | 409 | 164 |
| 36 | Nico | 1:28.28 | 409 | 164 |
| 38 | Pepino | 1:28.33 | 392 | 157 |
| 39 | Luxora | 1:28.38 | 384 | 154 |
| 40 | IIRMPII | 1:28.63 | 376 | 151 |
| 41 | Idle Asides | 1:28.75 | 368 | 148 |
| 42 | Satrpx | 1:28.78 | 360 | 144 |
| 43 | Iris | 1:28.81 | 352 | 141 |
| 44 | coolpizza99 | 1:29.11 | 345 | 138 |
| 45 | dreifachpunkt. | 1:29.12 | 337 | 135 |
| 46 | IllKIllU | 1:29.13 | 330 | 132 |
| 47 | Wrath of Man | 1:29.17 | 322 | 129 |
| 48 | SpeedDemon64 | 1:29.18 | 315 | 126 |
| 49 | concil | 1:29.70 | 308 | 124 |
| 50 | RaiderZulu | 1:29.87 | 300 | 120 |
| 51 | Freud | 1:30.36 | 293 | 118 |
| 52 | i3ym | 1:30.40 | 286 | 115 |
| 53 | xanthousphoenix | 1:30.46 | 279 | 112 |
| 54 | Thermos | 1:30.49 | 272 | 109 |
| 55 | slug ʕ●.●ʔ | 1:30.53 | 266 | 107 |
| 56 | Tiyenti | 1:30.87 | 259 | 104 |
| 57 | cerberus❤ | 1:30.88 | 252 | 101 |
| 58 | Overlord | 1:30.98 | 246 | 99 |
| 59 | MCrekna1 | 1:31.13 | 239 | 96 |
| 60 | KnightBane | 1:31.42 | 232 | 93 |
| 61 | SlowScan | 1:31.45 | 226 | 91 |
| 62 | FluffyTheZombii | 1:31.51 | 219 | 88 |
| 63 | Nerf | 1:31.77 | 213 | 85 |
| 64 | notguts | 1:31.84 | 207 | 83 |
| 65 | Chipboard | 1:31.86 | 200 | 80 |
| 65 | MeiBunny | 1:31.86 | 200 | 80 |
| 67 | Waonder | 1:31.92 | 188 | 75 |
| 68 | Elan | 1:31.98 | 182 | 73 |
| 69 | Latapi | 1:32.07 | 176 | 71 |
| 70 | levinv270 | 1:32.08 | 170 | 68 |
| 71 | khrisround2 | 1:32.09 | 164 | 66 |
| 72 | Roboraser | 1:32.15 | 158 | 63 |
| 73 | CodedCrow | 1:32.22 | 152 | 61 |
| 74 | Winter's Crescendo | 1:32.37 | 146 | 59 |
| 75 | Flaminglump | 1:32.46 | 140 | 56 |
| 76 | PPTREXFFT | 1:32.47 | 134 | 54 |
| 77 | Dreigo | 1:32.48 | 129 | 52 |
| 78 | ahtnos | 1:32.62 | 123 | 49 |
| 79 | Siddey10 | 1:32.66 | 117 | 47 |
| 80 | ant | 1:32.69 | 112 | 45 |
| 81 | Grungus | 1:32.71 | 106 | 43 |
| 82 | Nirom | 1:32.77 | 100 | 40 |
| 83 | Slacks | 1:32.81 | 95 | 38 |
| 84 | PuppySky | 1:32.82 | 89 | 36 |
| 85 | Epsilon_Knight | 1:32.83 | 84 | 34 |
| 86 | Elsynia | 1:32.89 | 79 | 32 |
| 86 | dannyburke03 | 1:32.89 | 79 | 32 |
| 86 | Azure Zakura | 1:32.89 | 79 | 32 |
| 89 | Jarek718 | 1:33.00 | 62 | 25 |
| 89 | G_M | 1:33.00 | 62 | 25 |
| 91 | PathToV1ctory | 1:33.02 | 52 | 21 |
| 91 | Other XIX | 1:33.02 | 52 | 21 |
| 93 | The K-man | 1:33.03 | 41 | 16 |
| 94 | Mei Rummy-chan | 1:33.11 | 36 | 14 |
| 95 | r4pt0r | 1:33.17 | 31 | 12 |
| 96 | TheEPROM9 LaTeX | 1:33.21 | 26 | 10 |
| 97 | SunRed | 1:33.22 | 21 | 8 |
| 98 | DasGerippe | 1:33.30 | 16 | 6 |
| 99 | BurritoDragon99 | 1:33.33 | 11 | 4 |
| 100 | PinesOfChaos | 1:33.34 | 6 | 2 |
| 101 | Awesomedan | 1:33.35 | 0 | 0 |
| 102 | Weird Pumpkin | 1:33.42 | 0 | 0 |
| 103 | Ottoseth | 1:33.51 | 0 | 0 |
| 103 | Siyzerix | 1:33.51 | 0 | 0 |
| 105 | Puma D. Ace | 1:33.54 | 0 | 0 |
| 106 | SEVEN | 1:33.57 | 0 | 0 |
| 107 | Maxter Max | 1:33.60 | 0 | 0 |
| 108 | Super_Shadow57 | 1:33.64 | 0 | 0 |
| 109 | Blu3 | 1:33.67 | 0 | 0 |
| 110 | ★ ADDON ★ | 1:33.69 | 0 | 0 |
| 111 | OMANEYE | 1:33.71 | 0 | 0 |
| 112 | Kaliphear | 1:33.72 | 0 | 0 |
| 112 | Predatory_Balloon | 1:33.72 | 0 | 0 |
| 114 | The Mighty Condor | 1:33.74 | 0 | 0 |
| 115 | Zineth101 | 1:33.77 | 0 | 0 |
| 115 | A.K.S. | 1:33.77 | 0 | 0 |
| 117 | Hijacker02 | 1:33.83 | 0 | 0 |
| 118 | Paparazzi | 1:33.84 | 0 | 0 |
| 119 | neesh | 1:33.85 | 0 | 0 |
| 120 | Seinah | 1:33.87 | 0 | 0 |
| 121 | krizithy | 1:33.89 | 0 | 0 |
| 122 | Lethologica7 | 1:33.90 | 0 | 0 |
| 123 | Joti | 1:33.91 | 0 | 0 |
| 124 | xIDxIpunky261 | 1:33.92 | 0 | 0 |
| 125 | HyperNova | 1:33.93 | 0 | 0 |
| 126 | barking | 1:33.95 | 0 | 0 |
| 127 | lift your tail for me | 1:33.99 | 0 | 0 |
| 128 | Domino | 1:34.00 | 0 | 0 |
| 129 | McFolt | 1:34.01 | 0 | 0 |
| 130 | Ruslan145 | 1:34.02 | 0 | 0 |
| 131 | burger | 1:34.03 | 0 | 0 |
| 132 | Go Fish | 1:34.05 | 0 | 0 |
| 133 | Swash | 1:34.06 | 0 | 0 |
| 134 | Mossy Shush | 1:34.07 | 0 | 0 |
| 135 | Buck | 1:34.09 | 0 | 0 |
| 136 | Meda | 1:34.10 | 0 | 0 |
| 137 | toasT | 1:34.12 | 0 | 0 |
| 138 | Jacsn | 1:34.13 | 0 | 0 |
| 139 | Corvus and Crater | 1:34.14 | 0 | 0 |
| 140 | Jarminx | 1:34.18 | 0 | 0 |
| 140 | Wolf Black | 1:34.18 | 0 | 0 |
| 142 | DefenderOfHyrule | 1:34.20 | 0 | 0 |
| 143 | supersmily5 | 1:34.21 | 0 | 0 |
| 143 | Pelerin | 1:34.21 | 0 | 0 |
| 145 | NeonChaosAwoo | 1:34.23 | 0 | 0 |
| 146 | Spaceburger | 1:34.24 | 0 | 0 |
| 146 | Mathias | 1:34.24 | 0 | 0 |
| 148 | ^1WᴀʀᴘWɪʀᴇ | 1:34.25 | 0 | 0 |
| 148 | Aiko | 1:34.25 | 0 | 0 |
| 150 | gustofon-line | 1:34.28 | 0 | 0 |
| 150 | DPftw | 1:34.28 | 0 | 0 |
| 152 | Torqman | 1:34.29 | 0 | 0 |
| 153 | Alopex | 1:34.31 | 0 | 0 |
| 154 | codythecoder | 1:34.32 | 0 | 0 |
| 155 | bundestrojaner | 1:34.34 | 0 | 0 |
| 156 | G9 | 1:34.39 | 0 | 0 |
| 156 | XMeatPounder99X | 1:34.39 | 0 | 0 |
| 156 | ViryGo19 | 1:34.39 | 0 | 0 |
| 159 | Jappen | 1:34.40 | 0 | 0 |
| 160 | ReallyDumbFox | 1:34.41 | 0 | 0 |
| 161 | Camel | 1:34.42 | 0 | 0 |
| 161 | Shodan | 1:34.42 | 0 | 0 |
| 161 | Sayrix | 1:34.42 | 0 | 0 |
| 161 | Ebeta2 | 1:34.42 | 0 | 0 |
| 165 | Draygone | 1:34.43 | 0 | 0 |
| 166 | L4v4 | 1:34.44 | 0 | 0 |
| 167 | The Blue Fox | 1:34.46 | 0 | 0 |
| 167 | Something really stupid | 1:34.46 | 0 | 0 |
| 167 | Mambo | 1:34.46 | 0 | 0 |
| 167 | MasterJedi2014 | 1:34.46 | 0 | 0 |
| 171 | lefor0416 | 1:34.47 | 0 | 0 |
| 171 | Gyodesis | 1:34.47 | 0 | 0 |
| 173 | Blahaj Blast | 1:34.49 | 0 | 0 |
| 173 | [deleted] | 1:34.49 | 0 | 0 |
| 175 | Edragon13 | 1:34.53 | 0 | 0 |
| 175 | Dosilox | 1:34.53 | 0 | 0 |
| 177 | TinFoilMkIV | 1:34.55 | 0 | 0 |
| 178 | onyxglow | 1:34.56 | 0 | 0 |
| 179 | Phimeek | 1:34.58 | 0 | 0 |
| 180 | nobfaic | 1:34.61 | 0 | 0 |
| 181 | DisQorded | 1:34.62 | 0 | 0 |
| 181 | Rayne Hellfire | 1:34.62 | 0 | 0 |
| 183 | Joan6694 | 1:34.63 | 0 | 0 |
| 184 | Iron_Angmar | 1:34.66 | 0 | 0 |
| 184 | gingerette95 | 1:34.66 | 0 | 0 |
| 186 | sizifov | 1:34.67 | 0 | 0 |
| 187 | toniqe53 | 1:34.68 | 0 | 0 |
| 188 | Skipperdee | 1:34.71 | 0 | 0 |
| 188 | NyctoGT | 1:34.71 | 0 | 0 |
| 190 | VinLAURiA | 1:34.72 | 0 | 0 |
| 190 | Rhys Ó Teimhneáin | 1:34.72 | 0 | 0 |
| 190 | Rusty | 1:34.72 | 0 | 0 |
| 190 | Turtelus_Grande | 1:34.72 | 0 | 0 |
| 194 | Szczurek | 1:34.73 | 0 | 0 |
| 194 | HunterPlayz | 1:34.73 | 0 | 0 |
| 196 | kriz_chan | 1:34.74 | 0 | 0 |
| 196 | Fwiffo | 1:34.74 | 0 | 0 |
| 196 | Shaka | 1:34.74 | 0 | 0 |
| 196 | MoonLight | 1:34.74 | 0 | 0 |
| 200 | NoraBytes | 1:34.75 | 0 | 0 |
| 201 | Irradiated Irridium | 1:34.76 | 0 | 0 |
| 201 | DrSexyMD | 1:34.76 | 0 | 0 |
| 201 | Ashton_bro | 1:34.76 | 0 | 0 |
| 204 | Asinay | 1:34.78 | 0 | 0 |
| 204 | DecentM | 1:34.78 | 0 | 0 |
| 204 | DSmiitty | 1:34.78 | 0 | 0 |
| 204 | StripedOwl | 1:34.78 | 0 | 0 |
| 204 | Chase | 1:34.78 | 0 | 0 |
| 209 | snugglebottom | 1:34.79 | 0 | 0 |
| 209 | AAAAA | 1:34.79 | 0 | 0 |
| 211 | R. | 1:34.80 | 0 | 0 |
| 211 | CeruleanAzura | 1:34.80 | 0 | 0 |
| 213 | ImNotFine | 1:34.82 | 0 | 0 |
| 213 | Agent-Cryspy | 1:34.82 | 0 | 0 |
| 215 | Pete | 1:34.84 | 0 | 0 |
| 216 | JaimmyShine | 1:34.85 | 0 | 0 |
| 217 | Skuzzles | 1:34.86 | 0 | 0 |
| 217 | Nick | 1:34.86 | 0 | 0 |
| 217 | Crysest | 1:34.86 | 0 | 0 |
| 220 | Minecraft-pro | 1:34.87 | 0 | 0 |
| 220 | Timbotenbo | 1:34.87 | 0 | 0 |
| 222 | Andrew :D | 1:34.88 | 0 | 0 |
| 223 | Songbird | 1:34.90 | 0 | 0 |
| 223 | gamefire | 1:34.90 | 0 | 0 |
| 223 | SHAaD_Sicod | 1:34.90 | 0 | 0 |
| 226 | sour | 1:34.91 | 0 | 0 |
| 226 | Hiki | 1:34.91 | 0 | 0 |
| 226 | Cobaltfox41 | 1:34.91 | 0 | 0 |
| 229 | Hayaweh | 1:34.92 | 0 | 0 |
| 229 | WUG | 1:34.92 | 0 | 0 |
| 229 | Bob Ross | 1:34.92 | 0 | 0 |
| 229 | Light-Pulsing | 1:34.92 | 0 | 0 |
| 233 | enyx | 1:34.93 | 0 | 0 |
| 233 | Beastmaster 64 | 1:34.93 | 0 | 0 |
| 233 | Serrucho | 1:34.93 | 0 | 0 |
| 236 | Jelleh95 | 1:34.94 | 0 | 0 |
| 236 | Shady Inktail | 1:34.94 | 0 | 0 |
| 236 | SirDan | 1:34.94 | 0 | 0 |
| 236 | RetaliationGuy YT | 1:34.94 | 0 | 0 |
| 236 | dragonade | 1:34.94 | 0 | 0 |
| 236 | FredFellow | 1:34.94 | 0 | 0 |
| 242 | Purple Bomber | 1:34.95 | 0 | 0 |
| 242 | SX64 | 1:34.95 | 0 | 0 |
| 242 | athena | 1:34.95 | 0 | 0 |
| 242 | BigThiccYeet | 1:34.95 | 0 | 0 |
| 242 | Ren-Ren | 1:34.95 | 0 | 0 |
| 247 | JacquetheRipper | 1:34.96 | 0 | 0 |
| 247 | GabrielLivesHere | 1:34.96 | 0 | 0 |
| 247 | Sébastien Lecornu II | 1:34.96 | 0 | 0 |
| 250 | xvlv | 1:34.97 | 0 | 0 |
| 250 | Walter | 1:34.97 | 0 | 0 |
| 250 | Todd Bonzalez | 1:34.97 | 0 | 0 |
| 253 | PowerMeep | 1:34.98 | 0 | 0 |
| 253 | Zusendo | 1:34.98 | 0 | 0 |
| 255 | 2Infinity&Evil | 1:34.99 | 0 | 0 |
| 255 | Гвоздь | 1:34.99 | 0 | 0 |
| 255 | DoctorExavolt | 1:34.99 | 0 | 0 |
| 255 | timawesomeness | 1:34.99 | 0 | 0 |
| 255 | Inspector Gadget | 1:34.99 | 0 | 0 |
| 255 | VI_fizz | 1:34.99 | 0 | 0 |
| 255 | Pixel_ | 1:34.99 | 0 | 0 |
| 255 | PineFreshGuy | 1:34.99 | 0 | 0 |
| 263 | EnderKill98 | 1:35.00 | 0 | 0 |
| 264 | CZarlos97_PL | 1:35.01 | 0 | 0 |
| 264 | Phenix85 | 1:35.01 | 0 | 0 |
| 264 | Dante | 1:35.01 | 0 | 0 |
| 267 | Revan5678 | 1:35.02 | 0 | 0 |
| 267 | Crease | 1:35.02 | 0 | 0 |
| 267 | Muggestutz | 1:35.02 | 0 | 0 |
| 270 | CactusJack | 1:35.03 | 0 | 0 |
| 270 | Jesster | 1:35.03 | 0 | 0 |
| 270 | GLUBBA | 1:35.03 | 0 | 0 |
| 273 | CloudBirb | 1:35.04 | 0 | 0 |
| 273 | [OWL] Error404 | 1:35.04 | 0 | 0 |
| 275 | ALWAYSWANNADIE | 1:35.05 | 0 | 0 |
| 275 | K9 | 1:35.05 | 0 | 0 |
| 275 | Zanna | 1:35.05 | 0 | 0 |
| 275 | Kypar | 1:35.05 | 0 | 0 |
| 279 | Dracheron | 1:35.06 | 0 | 0 |
| 279 | PlatinumAstra | 1:35.06 | 0 | 0 |
| 279 | McLovin | 1:35.06 | 0 | 0 |
| 279 | sounder129 | 1:35.06 | 0 | 0 |
| 283 | baakstaff | 1:35.07 | 0 | 0 |
| 283 | Taro | 1:35.07 | 0 | 0 |
| 283 | Iggulden | 1:35.07 | 0 | 0 |
| 283 | Melliya/芽璃夜 | 1:35.07 | 0 | 0 |
| 283 | LeFluffySquirrel | 1:35.07 | 0 | 0 |
| 288 | Gregg the Grim Reaper | 1:35.08 | 0 | 0 |
| 288 | Myogi Night | 1:35.08 | 0 | 0 |
| 288 | JDthe3rd | 1:35.08 | 0 | 0 |
| 288 | 猫かわいい | 1:35.08 | 0 | 0 |
| 292 | Vixen | 1:35.09 | 0 | 0 |
| 292 | Neoblastz | 1:35.09 | 0 | 0 |
| 292 | MyurrDurr | 1:35.09 | 0 | 0 |
| 292 | Nickel | 1:35.09 | 0 | 0 |
| 296 | Nainji | 1:35.10 | 0 | 0 |
| 296 | 321longshot | 1:35.10 | 0 | 0 |
| 296 | Sample Text | 1:35.10 | 0 | 0 |
| 296 | Lazunk | 1:35.10 | 0 | 0 |
| 296 | Indecisive | 1:35.10 | 0 | 0 |
| 296 | kivito | 1:35.10 | 0 | 0 |
| 302 | Portal Blinx | 1:35.11 | 0 | 0 |
| 302 | herr_p | 1:35.11 | 0 | 0 |
| 302 | Snowglider | 1:35.11 | 0 | 0 |
| 302 | CHAINSAW MONKEY! | 1:35.11 | 0 | 0 |
| 302 | Monark10 | 1:35.11 | 0 | 0 |
| 307 | Keemu | 1:35.12 | 0 | 0 |
| 307 | gusforester | 1:35.12 | 0 | 0 |
| 307 | Player145 | 1:35.12 | 0 | 0 |
| 310 | Kincaid | 1:35.13 | 0 | 0 |
| 310 | ATOM | 1:35.13 | 0 | 0 |
| 310 | Shivoo | 1:35.13 | 0 | 0 |
| 310 | JohnCorby | 1:35.13 | 0 | 0 |
| 310 | Highway 35 | 1:35.13 | 0 | 0 |
| 315 | trigger_segfault | 1:35.14 | 0 | 0 |
| 315 | Grafitter | 1:35.14 | 0 | 0 |
| 315 | Flit. | 1:35.14 | 0 | 0 |
| 315 | zombieassaultman | 1:35.14 | 0 | 0 |
| 315 | Sensokaku | 1:35.14 | 0 | 0 |
| 320 | Curious Fish | 1:35.15 | 0 | 0 |
| 320 | Phayne | 1:35.15 | 0 | 0 |
| 320 | SQUEEZU | 1:35.15 | 0 | 0 |
| 320 | VectorBot | 1:35.15 | 0 | 0 |
| 320 | Cathy | 1:35.15 | 0 | 0 |
| 320 | A̶͓̓z̷͓̍ũ̴̩r̷͔͐e̴ | 1:35.15 | 0 | 0 |
| 320 | Robert Pingle | 1:35.15 | 0 | 0 |
| 320 | Franny | 1:35.15 | 0 | 0 |
| 328 | Kerusos | 1:35.16 | 0 | 0 |
| 329 | Silver~ | 1:35.17 | 0 | 0 |
| 329 | LlamaOP | 1:35.17 | 0 | 0 |
| 329 | Lob u long time long time | 1:35.17 | 0 | 0 |
| 329 | Teh№ [AMP] | 1:35.17 | 0 | 0 |
| 333 | delfiler | 1:35.18 | 0 | 0 |
| 333 | Bullet Paincakes | 1:35.18 | 0 | 0 |
| 333 | Najred | 1:35.18 | 0 | 0 |
| 333 | JTer | 1:35.18 | 0 | 0 |
| 333 | macouille74 | 1:35.18 | 0 | 0 |
| 338 | EleventyB | 1:35.19 | 0 | 0 |
| 338 | Quirked-up White Boy | 1:35.19 | 0 | 0 |
| 338 | Sun | 1:35.19 | 0 | 0 |
| 341 | 문경왕개미 | 1:35.20 | 0 | 0 |
| 341 | NoBody | 1:35.20 | 0 | 0 |
| 341 | Ara | 1:35.20 | 0 | 0 |
| 341 | abseth | 1:35.20 | 0 | 0 |
| 341 | Zenoguard | 1:35.20 | 0 | 0 |
| 346 | aro3o6 | 1:35.21 | 0 | 0 |
| 346 | Hunter | 1:35.21 | 0 | 0 |
| 346 | JackJack | 1:35.21 | 0 | 0 |
| 346 | JustSolLotus | 1:35.21 | 0 | 0 |
| 346 | Aranv | 1:35.21 | 0 | 0 |
| 351 | TheDukeOfTaco | 1:35.22 | 0 | 0 |
| 351 | Boomii | 1:35.22 | 0 | 0 |
| 351 | Plasmaraider | 1:35.22 | 0 | 0 |
| 351 | Neko14789 | 1:35.22 | 0 | 0 |
| 351 | MachiVT | TTV | 1:35.22 | 0 | 0 |
| 351 | NikoDaNeko | 1:35.22 | 0 | 0 |
| 351 | PurpleSuede | 1:35.22 | 0 | 0 |
| 358 | Yingor | 1:35.23 | 0 | 0 |
| 358 | Ktee | 1:35.23 | 0 | 0 |
| 360 | loopysausage | 1:35.24 | 0 | 0 |
| 360 | BattleDad | 1:35.24 | 0 | 0 |
| 360 | Qioury | 1:35.24 | 0 | 0 |
| 360 | cuba | 1:35.24 | 0 | 0 |
| 360 | Ozymandias | 1:35.24 | 0 | 0 |
| 365 | Swizy | 1:35.25 | 0 | 0 |
| 365 | xdacc | 1:35.25 | 0 | 0 |
| 365 | Ogamiss | 1:35.25 | 0 | 0 |
| 365 | Arryx | 1:35.25 | 0 | 0 |
| 365 | mARTIN | 1:35.25 | 0 | 0 |
| 365 | fxskill | 1:35.25 | 0 | 0 |
| 365 | TheJewelThief | 1:35.25 | 0 | 0 |
| 365 | That One Panda | 1:35.25 | 0 | 0 |
| 373 | DvN | 1:35.26 | 0 | 0 |
| 373 | XLgeneral | 1:35.26 | 0 | 0 |
| 373 | ForlornStag | 1:35.26 | 0 | 0 |
| 373 | Lutermama | 1:35.26 | 0 | 0 |
| 377 | Trishphyre Paradox Developer | 1:35.27 | 0 | 0 |
| 377 | Pompous Whale | 1:35.27 | 0 | 0 |
| 377 | megadingus | 1:35.27 | 0 | 0 |
| 377 | VORCHAX | 1:35.27 | 0 | 0 |
| 377 | Ral | 1:35.27 | 0 | 0 |
| 382 | DanionVibit | 1:35.28 | 0 | 0 |
| 382 | Knight of Boletaria | 1:35.28 | 0 | 0 |
| 382 | Cptnbean | 1:35.28 | 0 | 0 |
| 382 | FINN RANK#1 (New Mousepad,hands) | 1:35.28 | 0 | 0 |
| 386 | Cyxxus | 1:35.29 | 0 | 0 |
| 387 | LOLO FAK | 1:35.30 | 0 | 0 |
| 387 | Zinsk130 [M4H] | 1:35.30 | 0 | 0 |
| 387 | Nixill | 1:35.30 | 0 | 0 |
| 387 | Ion | 1:35.30 | 0 | 0 |
| 387 | LP_NinLory | 1:35.30 | 0 | 0 |
| 392 | SMUG KITTY | 1:35.31 | 0 | 0 |
| 392 | Topaz95 | 1:35.31 | 0 | 0 |
| 392 | WorkingChickenMH | 1:35.31 | 0 | 0 |
| 392 | tylercreamer | 1:35.31 | 0 | 0 |
| 392 | Joakim230199 | 1:35.31 | 0 | 0 |
| 397 | SneakyBombsuit | 1:35.32 | 0 | 0 |
| 397 | Pacific RimJob | 1:35.32 | 0 | 0 |
| 397 | Tacecaps | 1:35.32 | 0 | 0 |
| 397 | Gnarrang | 1:35.32 | 0 | 0 |
| 397 | Manatee | 1:35.32 | 0 | 0 |
| 397 | York | 1:35.32 | 0 | 0 |
| 397 | Sunnydan | 1:35.32 | 0 | 0 |
| 397 | Sonja, Skitarii Alpha | 1:35.32 | 0 | 0 |
| 397 | Orchid Crescent | 1:35.32 | 0 | 0 |
| 397 | mastern | 1:35.32 | 0 | 0 |
| 397 | UnFefeSauvage | 1:35.32 | 0 | 0 |
| 408 | Pink Naruto | 1:35.33 | 0 | 0 |
| 408 | CuddleStrike | 1:35.33 | 0 | 0 |
| 408 | Eskora | 1:35.33 | 0 | 0 |
| 408 | Umbrasbane | 1:35.33 | 0 | 0 |
| 408 | dinkleb3rg | 1:35.33 | 0 | 0 |
| 408 | DF4 | 1:35.33 | 0 | 0 |
| 408 | Spoon | 1:35.33 | 0 | 0 |
| 408 | BoreasTheIceGod | 1:35.33 | 0 | 0 |
| 408 | Tzav | 1:35.33 | 0 | 0 |
| 408 | Hirochi | 1:35.33 | 0 | 0 |
| 408 | Fary_Fenny | 1:35.33 | 0 | 0 |
| 419 | Mazerswift | 1:35.34 | 0 | 0 |
| 419 | Zilby | 1:35.34 | 0 | 0 |
| 421 | Kepslok | 1:35.35 | 0 | 0 |
| 421 | _Fog | 1:35.35 | 0 | 0 |
| 421 | Doomsee | 1:35.35 | 0 | 0 |
| 421 | replikaeyes | 1:35.35 | 0 | 0 |
| 421 | C4tch | 1:35.35 | 0 | 0 |
| 421 | Cancer Liquid | 1:35.35 | 0 | 0 |
| 421 | 1:35.35 | 0 | 0 | |
| 428 | Mud | 1:35.36 | 0 | 0 |
| 428 | Scrubaroo | 1:35.36 | 0 | 0 |
| 428 | moj | 1:35.36 | 0 | 0 |
| 428 | Sunrider Lightbringer | 1:35.36 | 0 | 0 |
| 428 | Crawlode | 1:35.36 | 0 | 0 |
| 428 | troysmith14 | 1:35.36 | 0 | 0 |
| 428 | TheEvilMidnightBomber | 1:35.36 | 0 | 0 |
| 428 | Mush_r00mboy | 1:35.36 | 0 | 0 |
| 436 | Mr. Doggy | 1:35.37 | 0 | 0 |
| 436 | // Vaffe | 1:35.37 | 0 | 0 |
| 436 | CampingCarl | 1:35.37 | 0 | 0 |
| 436 | Ironside451 | 1:35.37 | 0 | 0 |
| 436 | Inzarin | 1:35.37 | 0 | 0 |
| 436 | Wollkopf | 1:35.37 | 0 | 0 |
| 436 | Numerousluke | 1:35.37 | 0 | 0 |
| 436 | Lanvon | 1:35.37 | 0 | 0 |
| 436 | Samoyed | 1:35.37 | 0 | 0 |
| 445 | Can of Toast | 1:35.38 | 0 | 0 |
| 445 | Skippy Peanut Butter | 1:35.38 | 0 | 0 |
| 445 | Spiffy | 1:35.38 | 0 | 0 |
| 445 | Aureliayk | 1:35.38 | 0 | 0 |
| 445 | BuzzM4H | 1:35.38 | 0 | 0 |
| 445 | Saberik | 1:35.38 | 0 | 0 |
| 445 | kevinlakecity5 | 1:35.38 | 0 | 0 |
| 445 | ItzSpectrum_ | 1:35.38 | 0 | 0 |
| 453 | Bumblebee Gamer | 1:35.39 | 0 | 0 |
| 453 | Ivoryshovel | 1:35.39 | 0 | 0 |
| 453 | rbrules | 1:35.39 | 0 | 0 |
| 453 | Stellarynn | 1:35.39 | 0 | 0 |
| 453 | Arphey01 | 1:35.39 | 0 | 0 |
| 453 | EchoTrash ♀ (Alt) | 1:35.39 | 0 | 0 |
| 453 | Jun | 1:35.39 | 0 | 0 |
| 460 | BussBizz | 1:35.40 | 0 | 0 |
| 460 | bacon | 1:35.40 | 0 | 0 |
| 460 | Racoonboi | 1:35.40 | 0 | 0 |
| 460 | Darth Sand | 1:35.40 | 0 | 0 |
| 460 | Rybot | 1:35.40 | 0 | 0 |
| 460 | Scamp | 1:35.40 | 0 | 0 |
| 466 | Governor Tekagi | 1:35.41 | 0 | 0 |
| 466 | Garvado | 1:35.41 | 0 | 0 |
| 466 | Tell ur Cat I said pspsps | 1:35.41 | 0 | 0 |
| 466 | ShadowWolf | 1:35.41 | 0 | 0 |
| 466 | gustserve | 1:35.41 | 0 | 0 |
| 466 | Man Ray | 1:35.41 | 0 | 0 |
| 466 | Leviticus Blue | 1:35.41 | 0 | 0 |
| 466 | Agent Starlight | 1:35.41 | 0 | 0 |
| 474 | Lywelyn | 1:35.42 | 0 | 0 |
| 474 | Archelon | 1:35.42 | 0 | 0 |
| 474 | OopsieBeans | 1:35.42 | 0 | 0 |
| 474 | Baby Girl Peter Parker | 1:35.42 | 0 | 0 |
| 474 | FSK 0 | 1:35.42 | 0 | 0 |
| 474 | TartanKitty773 | 1:35.42 | 0 | 0 |
| 474 | Saujii2 | 1:35.42 | 0 | 0 |
| 481 | Eternal | 1:35.43 | 0 | 0 |
| 481 | SenseofCLouD | 1:35.43 | 0 | 0 |
| 481 | Seraph | 1:35.43 | 0 | 0 |
| 481 | Fujitive | 1:35.43 | 0 | 0 |
| 481 | [NR] Miyu012 | 1:35.43 | 0 | 0 |
| 481 | Retromancer | 1:35.43 | 0 | 0 |
| 481 | Tech | 1:35.43 | 0 | 0 |
| 488 | ソーダが好き | 1:35.44 | 0 | 0 |
| 488 | Rodd Raxter | 1:35.44 | 0 | 0 |
| 488 | Abnormal Cybran | 1:35.44 | 0 | 0 |
| 488 | Hars | 1:35.44 | 0 | 0 |
| 492 | The Unusual Suspect | 1:35.45 | 0 | 0 |
| 492 | imxRaven | 1:35.45 | 0 | 0 |
| 492 | Purple Drake | 1:35.45 | 0 | 0 |
| 492 | Ukkie2k | 1:35.45 | 0 | 0 |
| 492 | Viking_king | 1:35.45 | 0 | 0 |
| 492 | Scoopta | 1:35.45 | 0 | 0 |
| 492 | Fleabag | 1:35.45 | 0 | 0 |
| 492 | Char The Rampart | 1:35.45 | 0 | 0 |
| 492 | DarthNvadeHer | 1:35.45 | 0 | 0 |
| 492 | playedmin16 | 1:35.45 | 0 | 0 |
| 502 | spires | 1:35.46 | 0 | 0 |
| 502 | Nyumich | 1:35.46 | 0 | 0 |
| 502 | Aquila | 1:35.46 | 0 | 0 |
| 502 | Krios | 1:35.46 | 0 | 0 |
| 502 | Espeoni | 1:35.46 | 0 | 0 |
| 502 | lav. | 1:35.46 | 0 | 0 |
| 502 | Pinn27 | 1:35.46 | 0 | 0 |
| 502 | FlyeByNight | 1:35.46 | 0 | 0 |
| 502 | isaac42lime | 1:35.46 | 0 | 0 |
| 511 | Don Krieg | 1:35.47 | 0 | 0 |
| 511 | Undead | 1:35.47 | 0 | 0 |
| 511 | Sunaryt | 1:35.47 | 0 | 0 |
| 511 | Toastmaster | 1:35.47 | 0 | 0 |
| 511 | Muusdude | 1:35.47 | 0 | 0 |
| 511 | The Good Gaming Dragon | 1:35.47 | 0 | 0 |
| 517 | pcl219 | 1:35.48 | 0 | 0 |
| 517 | Seschbee | 1:35.48 | 0 | 0 |
| 517 | danny1234331 | 1:35.48 | 0 | 0 |
| 517 | [RC] | 1:35.48 | 0 | 0 |
| 517 | adamnoot2008 | 1:35.48 | 0 | 0 |
| 522 | EdgeMiles | 1:35.49 | 0 | 0 |
| 522 | DomNation | 1:35.49 | 0 | 0 |
| 522 | DJ ♠PhatSanta♠ | 1:35.49 | 0 | 0 |
| 522 | NIRV007 | 1:35.49 | 0 | 0 |
| 522 | CrazyPass | 1:35.49 | 0 | 0 |
| 522 | Mysterion | 1:35.49 | 0 | 0 |
| 522 | Jam0344 | 1:35.49 | 0 | 0 |
| 522 | shendi | 1:35.49 | 0 | 0 |
| 522 | nightclubpositive | 1:35.49 | 0 | 0 |
| 522 | itzAndre | 1:35.49 | 0 | 0 |
| 532 | Aespher | 1:35.50 | 0 | 0 |
| 532 | lucascool12 | 1:35.50 | 0 | 0 |
| 532 | Shroom | 1:35.50 | 0 | 0 |
| 532 | Gooby plis | 1:35.50 | 0 | 0 |
| 532 | Mr Chip | 1:35.50 | 0 | 0 |
| 532 | Mr SEVEN | 1:35.50 | 0 | 0 |
| 538 | Weskil | 1:35.51 | 0 | 0 |
| 538 | [BIT]IroncladWarbear | 1:35.51 | 0 | 0 |
| 538 | Blushy Wushy | 1:35.51 | 0 | 0 |
| 538 | Gemini | 1:35.51 | 0 | 0 |
| 538 | Viridus | 1:35.51 | 0 | 0 |
| 538 | Stryx | 1:35.51 | 0 | 0 |
| 538 | Derezium | 1:35.51 | 0 | 0 |
| 538 | Lena The Snom Mom | 1:35.51 | 0 | 0 |
| 538 | Pristine | 1:35.51 | 0 | 0 |
| 547 | PapaTuffman | 1:35.52 | 0 | 0 |
| 547 | humperdink | 1:35.52 | 0 | 0 |
| 547 | TidestManager1 | 1:35.52 | 0 | 0 |
| 550 | BluntButters | 1:35.53 | 0 | 0 |
| 550 | Little_Jack | 1:35.53 | 0 | 0 |
| 550 | Squidamouche | 1:35.53 | 0 | 0 |
| 550 | CORRUPTOR 2037 | 1:35.53 | 0 | 0 |
| 550 | giga piss | 1:35.53 | 0 | 0 |
| 550 | ℰλᎶℒℰ | 1:35.53 | 0 | 0 |
| 550 | Holo | 1:35.53 | 0 | 0 |
| 550 | andyLerda | 1:35.53 | 0 | 0 |
| 558 | RenZõÓ | 1:35.54 | 0 | 0 |
| 558 | Jonny | 1:35.54 | 0 | 0 |
| 558 | Dimanchella | 1:35.54 | 0 | 0 |
| 558 | Hayden | 1:35.54 | 0 | 0 |
| 562 | FraZer | 1:35.55 | 0 | 0 |
| 562 | Jacket | 1:35.55 | 0 | 0 |
| 562 | Wolfy Neah | 1:35.55 | 0 | 0 |
| 562 | M E L L O W | 1:35.55 | 0 | 0 |
| 562 | Racheecha | 1:35.55 | 0 | 0 |
| 562 | a&b | 1:35.55 | 0 | 0 |
| 562 | Helios | 1:35.55 | 0 | 0 |
| 562 | Battle Banana Chris Handsom | 1:35.55 | 0 | 0 |
| 562 | SolSkyline | 1:35.55 | 0 | 0 |
| 562 | Sgt_Snowcone | 1:35.55 | 0 | 0 |
| 562 | bloodorangesunrise | 1:35.55 | 0 | 0 |
| 562 | HJQLF | 1:35.55 | 0 | 0 |
| 562 | Mar_Veloz | 1:35.55 | 0 | 0 |
| 575 | Jester Thomas | 1:35.56 | 0 | 0 |
| 575 | CableBox64 | 1:35.56 | 0 | 0 |
| 575 | MarsDevastater | 1:35.56 | 0 | 0 |
| 575 | No | 1:35.56 | 0 | 0 |
| 575 | TheMelonGod | 1:35.56 | 0 | 0 |
| 575 | KWP | 1:35.56 | 0 | 0 |
| 575 | DieselFace | 1:35.56 | 0 | 0 |
| 582 | Draktok | 1:35.57 | 0 | 0 |
| 582 | Entropy can't catch me. | 1:35.57 | 0 | 0 |
| 582 | Heisenbagel | 1:35.57 | 0 | 0 |
| 585 | Vivid Empress | 1:35.58 | 0 | 0 |
| 585 | The Megalophyte | 1:35.58 | 0 | 0 |
| 585 | Duke Swampy | 1:35.58 | 0 | 0 |
| 585 | Xeno146 | 1:35.58 | 0 | 0 |
| 585 | Zuko | 1:35.58 | 0 | 0 |
| 585 | Pointed Mammal29 | 1:35.58 | 0 | 0 |
| 585 | cheif22 | 1:35.58 | 0 | 0 |
| 585 | StevenSite | 1:35.58 | 0 | 0 |
| 585 | generally incompetent | 1:35.58 | 0 | 0 |
| 585 | Moonie | 1:35.58 | 0 | 0 |
| 595 | Kashuzu | 1:35.59 | 0 | 0 |
| 595 | LachenJager | 1:35.59 | 0 | 0 |
| 595 | MystykZ | 1:35.59 | 0 | 0 |
| 595 | Recall280 | 1:35.59 | 0 | 0 |
| 595 | MAT D.R.⎛⎝≥⏝⏝≤⎠⎞ | 1:35.59 | 0 | 0 |
| 595 | Calvinball8 | 1:35.59 | 0 | 0 |
| 595 | Iwa Lima | 1:35.59 | 0 | 0 |
| 595 | MokkaBot Ch. モカお茶 | 1:35.59 | 0 | 0 |
| 595 | AnonyBunny | 1:35.59 | 0 | 0 |
| 595 | XIII | 1:35.59 | 0 | 0 |
| 595 | felipe.f.a | 1:35.59 | 0 | 0 |
| 606 | SukairenTTV | 1:35.60 | 0 | 0 |
| 606 | Finch | 1:35.60 | 0 | 0 |
| 606 | dryco | 1:35.60 | 0 | 0 |
| 606 | Clunt Yeastwood | 1:35.60 | 0 | 0 |
| 606 | Queritz | 1:35.60 | 0 | 0 |
| 606 | Pryzee7 | 1:35.60 | 0 | 0 |
| 606 | LordCarCrash | 1:35.60 | 0 | 0 |
| 606 | Shlock | 1:35.60 | 0 | 0 |
| 606 | EzraW118 | 1:35.60 | 0 | 0 |
| 606 | Round Gaming | 1:35.60 | 0 | 0 |
| 616 | Numberkool | 1:35.61 | 0 | 0 |
| 616 | Readek | 1:35.61 | 0 | 0 |
| 616 | Booben | 1:35.61 | 0 | 0 |
| 616 | KittenettiK | 1:35.61 | 0 | 0 |
| 616 | russ117 | 1:35.61 | 0 | 0 |
| 616 | .Silver | 1:35.61 | 0 | 0 |
| 616 | Max Tennyson | 1:35.61 | 0 | 0 |
| 616 | FreakingAwesomeWooper | 1:35.61 | 0 | 0 |
| 624 | Bony Bastard | 1:35.62 | 0 | 0 |
| 624 | Solinac | 1:35.62 | 0 | 0 |
| 624 | Valankor | 1:35.62 | 0 | 0 |
| 624 | Verdor | 1:35.62 | 0 | 0 |
| 624 | Livie | 1:35.62 | 0 | 0 |
| 629 | skuzzzy | 1:35.63 | 0 | 0 |
| 629 | Yak-Yo! | 1:35.63 | 0 | 0 |
| 629 | Sniggles | 1:35.63 | 0 | 0 |
| 629 | DROCHEPOLK | 1:35.63 | 0 | 0 |
| 629 | Dijkstra | 1:35.63 | 0 | 0 |
| 629 | A Live Studio Audience | 1:35.63 | 0 | 0 |
| 629 | #NoSkillSwagger | 1:35.63 | 0 | 0 |
| 629 | Gixxerblue | 1:35.63 | 0 | 0 |
| 629 | Müllabholer | 1:35.63 | 0 | 0 |
| 629 | ᒐᎯᎩᒐᎯ | 1:35.63 | 0 | 0 |
| 629 | IgoRexa | 1:35.63 | 0 | 0 |
| 640 | Yarimi | 1:35.64 | 0 | 0 |
| 640 | Zyon | 1:35.64 | 0 | 0 |
| 640 | Chompa | 1:35.64 | 0 | 0 |
| 640 | DethHoun | 1:35.64 | 0 | 0 |
| 644 | [T-PP] PhiniksPlays | 1:35.65 | 0 | 0 |
| 644 | CyberNova | 1:35.65 | 0 | 0 |
| 644 | Paranoia | 1:35.65 | 0 | 0 |
| 644 | Ayre | 1:35.65 | 0 | 0 |
| 644 | ♿ | 1:35.65 | 0 | 0 |
| 644 | Blade | 1:35.65 | 0 | 0 |
| 644 | Onneyon | 1:35.65 | 0 | 0 |
| 644 | Cherry | 1:35.65 | 0 | 0 |
| 644 | <edgyname> | 1:35.65 | 0 | 0 |
| 644 | kNoopers | 1:35.65 | 0 | 0 |
| 654 | S.Kappelmann | 1:35.66 | 0 | 0 |
| 654 | Razgriez | 1:35.66 | 0 | 0 |
| 654 | Embylles | 1:35.66 | 0 | 0 |
| 654 | Sunzara | 1:35.66 | 0 | 0 |
| 654 | MFHxTiptoe | 1:35.66 | 0 | 0 |
| 654 | Tilin | 1:35.66 | 0 | 0 |
| 660 | Ⓝ | 1:35.67 | 0 | 0 |
| 660 | fischpferd | 1:35.67 | 0 | 0 |
| 660 | FabioTheTurtle | 1:35.67 | 0 | 0 |
| 660 | Raynland McNuggets | 1:35.67 | 0 | 0 |
| 660 | Emerald_Pick | 1:35.67 | 0 | 0 |
| 665 | Michelangelo | 1:35.68 | 0 | 0 |
| 665 | MailboxHead | 1:35.68 | 0 | 0 |
| 665 | lxemergency | 1:35.68 | 0 | 0 |
| 665 | MP X10L | 1:35.68 | 0 | 0 |
| 665 | Серена Грац | 1:35.68 | 0 | 0 |
| 665 | Cerberus DCXVI | 1:35.68 | 0 | 0 |
| 665 | Eagl3 | 1:35.68 | 0 | 0 |
| 665 | Crubo | 1:35.68 | 0 | 0 |
| 665 | JayBoneJay | 1:35.68 | 0 | 0 |
| 665 | Eikunai | 1:35.68 | 0 | 0 |
| 665 | BEERUS | 1:35.68 | 0 | 0 |
| 676 | Virus Dragovar | 1:35.69 | 0 | 0 |
| 676 | Stracciatella | 1:35.69 | 0 | 0 |
| 676 | Hornsking | 1:35.69 | 0 | 0 |
| 676 | Ieuan Maiden | 1:35.69 | 0 | 0 |
| 676 | BluHyena | 1:35.69 | 0 | 0 |
| 676 | [deleted] | 1:35.69 | 0 | 0 |
| 676 | tersaii | 1:35.69 | 0 | 0 |
| 676 | KoTbKa | 1:35.69 | 0 | 0 |
| 676 | Lin | 1:35.69 | 0 | 0 |
| 685 | Haven | 1:35.70 | 0 | 0 |
| 685 | Zelkie | 1:35.70 | 0 | 0 |
| 685 | McLarenTim | 1:35.70 | 0 | 0 |
| 685 | Fromage | 1:35.70 | 0 | 0 |
| 685 | Piiec | 1:35.70 | 0 | 0 |
| 685 | TheRegalKing | 1:35.70 | 0 | 0 |
| 685 | Dumau_144 | 1:35.70 | 0 | 0 |
| 692 | Wamba | 1:35.71 | 0 | 0 |
| 692 | kraspu | 1:35.71 | 0 | 0 |
| 692 | Enso | 1:35.71 | 0 | 0 |
| 692 | DeedleFake | 1:35.71 | 0 | 0 |
| 692 | Sleepy boi | 1:35.71 | 0 | 0 |
| 692 | Rhetorical Question | 1:35.71 | 0 | 0 |
| 692 | Western Ice Noodle | 1:35.71 | 0 | 0 |
| 699 | Savage Tuna | 1:35.72 | 0 | 0 |
| 699 | Skye! | 1:35.72 | 0 | 0 |
| 699 | Vinnie Scumbolli | 1:35.72 | 0 | 0 |
| 699 | Komneni | 1:35.72 | 0 | 0 |
| 699 | Teshi | 1:35.72 | 0 | 0 |
| 699 | Delhjiko | 1:35.72 | 0 | 0 |
| 699 | Echor | 1:35.72 | 0 | 0 |
| 699 | Cooler Mensch | 1:35.72 | 0 | 0 |
| 699 | Breezy™ | 1:35.72 | 0 | 0 |
| 708 | Benji | 1:35.73 | 0 | 0 |
| 708 | Dislin | 1:35.73 | 0 | 0 |
| 708 | Azure | 1:35.73 | 0 | 0 |
| 708 | Bean | 1:35.73 | 0 | 0 |
| 708 | GaiaGaiyus | 1:35.73 | 0 | 0 |
| 708 | samson13 | 1:35.73 | 0 | 0 |
| 708 | Ramiel | 1:35.73 | 0 | 0 |
| 708 | Mephistopheles | 1:35.73 | 0 | 0 |
| 708 | Bismuth | 1:35.73 | 0 | 0 |
| 708 | SC000TER | 1:35.73 | 0 | 0 |
| 708 | Drix | 1:35.73 | 0 | 0 |
| 708 | ELX Nepper | 1:35.73 | 0 | 0 |
| 720 | Darman | 1:35.74 | 0 | 0 |
| 720 | Beets by Farmer Dre | 1:35.74 | 0 | 0 |
| 720 | Donkey | 1:35.74 | 0 | 0 |
| 720 | FifteenBread | 1:35.74 | 0 | 0 |
| 720 | SodarCZ | 1:35.74 | 0 | 0 |
| 720 | PandaMommy | 1:35.74 | 0 | 0 |
| 720 | Fushiggy | 1:35.74 | 0 | 0 |
| 720 | KaMozo25 | 1:35.74 | 0 | 0 |
| 720 | Ghost_510 | 1:35.74 | 0 | 0 |
| 729 | Lliane | 1:35.75 | 0 | 0 |
| 729 | MachoDip [sd] | 1:35.75 | 0 | 0 |
| 729 | Bobby | 1:35.75 | 0 | 0 |
| 729 | ZSlash | 1:35.75 | 0 | 0 |
| 733 | Recapes | 1:35.76 | 0 | 0 |
| 733 | Binko Bonko | 1:35.76 | 0 | 0 |
| 733 | shady3000 | 1:35.76 | 0 | 0 |
| 733 | amdiranifani | 1:35.76 | 0 | 0 |
| 733 | TheGamingAnt55 | 1:35.76 | 0 | 0 |
| 733 | InfectedHau | 1:35.76 | 0 | 0 |
| 733 | RadLad25X | 1:35.76 | 0 | 0 |
| 733 | Looks To The Moon | 1:35.76 | 0 | 0 |
| 741 | Monsi | 1:35.77 | 0 | 0 |
| 741 | cartherium | 1:35.77 | 0 | 0 |
| 741 | ASnarkyOwl2 | 1:35.77 | 0 | 0 |
| 741 | lexlimo | 1:35.77 | 0 | 0 |
| 741 | Ichigo | 1:35.77 | 0 | 0 |
| 741 | the prube | 1:35.77 | 0 | 0 |
| 741 | NicholasKB19 | 1:35.77 | 0 | 0 |
| 748 | Deni | 1:35.78 | 0 | 0 |
| 748 | Mr. Bird | 1:35.78 | 0 | 0 |
| 748 | Langola | 1:35.78 | 0 | 0 |
| 748 | NK - Néko | 1:35.78 | 0 | 0 |
| 748 | Ivan Knotty | 1:35.78 | 0 | 0 |
| 748 | Pingu | 1:35.78 | 0 | 0 |
| 748 | Trixshark | 1:35.78 | 0 | 0 |
| 755 | IncandescentSun☀ | 1:35.79 | 0 | 0 |
| 755 | Ultor | 1:35.79 | 0 | 0 |
| 755 | Booler | 1:35.79 | 0 | 0 |
| 755 | Mr. Doon | 1:35.79 | 0 | 0 |
| 755 | YasMaster141 | 1:35.79 | 0 | 0 |
| 755 | markschuurman1990 | 1:35.79 | 0 | 0 |
| 755 | CrossHawk | 1:35.79 | 0 | 0 |
| 762 | Mired | 1:35.80 | 0 | 0 |
| 762 | Raiden925 | 1:35.80 | 0 | 0 |
| 762 | mrmarcelluswallace | 1:35.80 | 0 | 0 |
| 762 | The Usual Suspect | 1:35.80 | 0 | 0 |
| 762 | 16aroth6 | 1:35.80 | 0 | 0 |
| 762 | Hugo | 1:35.80 | 0 | 0 |
| 762 | TheWanderer05 | 1:35.80 | 0 | 0 |
| 762 | TS_Mind_Swept | 1:35.80 | 0 | 0 |
| 762 | Luis Glacius | 1:35.80 | 0 | 0 |
| 762 | Rombommind | 1:35.80 | 0 | 0 |
| 762 | Joker | 1:35.80 | 0 | 0 |
| 762 | Alrunes | 1:35.80 | 0 | 0 |
| 762 | Sinner | 1:35.80 | 0 | 0 |
| 775 | The Blue Milk Group | 1:35.81 | 0 | 0 |
| 775 | BestJamie | 1:35.81 | 0 | 0 |
| 775 | stealthmonky11 | 1:35.81 | 0 | 0 |
| 775 | unsthuthn | 1:35.81 | 0 | 0 |
| 775 | Greywolfe | 1:35.81 | 0 | 0 |
| 775 | 《DeWintra》 | 1:35.81 | 0 | 0 |
| 775 | kzh5783000 | 1:35.81 | 0 | 0 |
| 782 | Frizzybman11 | 1:35.82 | 0 | 0 |
| 782 | mischiefmage | 1:35.82 | 0 | 0 |
| 782 | Shai | 1:35.82 | 0 | 0 |
| 782 | BlackOnyx262 | 1:35.82 | 0 | 0 |
| 782 | PlΣXi | 1:35.82 | 0 | 0 |
| 787 | Chaks | 1:35.83 | 0 | 0 |
| 787 | Gendrome | 1:35.83 | 0 | 0 |
| 787 | Teuntjuhh | 1:35.83 | 0 | 0 |
| 787 | Zeucleio | 1:35.83 | 0 | 0 |
| 787 | Shjohn | 1:35.83 | 0 | 0 |
| 787 | iamelementalsword | 1:35.83 | 0 | 0 |
| 787 | Amarae | 1:35.83 | 0 | 0 |
| 787 | Puff | 1:35.83 | 0 | 0 |
| 787 | MusicPilot n.5 | 1:35.83 | 0 | 0 |
| 796 | Simon Evo | 1:35.84 | 0 | 0 |
| 796 | Bram | 1:35.84 | 0 | 0 |
| 796 | Naikel [FR] | 1:35.84 | 0 | 0 |
| 796 | Storm the Snep | 1:35.84 | 0 | 0 |
| 796 | Klaneoa | 1:35.84 | 0 | 0 |
| 801 | The Ol' Razzle Dazzle | 1:35.85 | 0 | 0 |
| 801 | Xx_Daddy420_xX | 1:35.85 | 0 | 0 |
| 801 | CrazyMaurice120 | 1:35.85 | 0 | 0 |
| 801 | olivia | 1:35.85 | 0 | 0 |
| 801 | Sbev | 1:35.85 | 0 | 0 |
| 801 | agus | 1:35.85 | 0 | 0 |
| 807 | Saint Pierre | 1:35.86 | 0 | 0 |
| 807 | Lud | Forest | 1:35.86 | 0 | 0 |
| 807 | Bigbidoof | 1:35.86 | 0 | 0 |
| 807 | NyaNekoEngine | 1:35.86 | 0 | 0 |
| 807 | LobaDK | 1:35.86 | 0 | 0 |
| 807 | torsv | 1:35.86 | 0 | 0 |
| 813 | Thoughtless | 1:35.87 | 0 | 0 |
| 813 | KevKirby | 1:35.87 | 0 | 0 |
| 813 | Sikelio | 1:35.87 | 0 | 0 |
| 813 | Berndbob | 1:35.87 | 0 | 0 |
| 817 | Kosvid | 1:35.88 | 0 | 0 |
| 817 | Lag1ttaja | 1:35.88 | 0 | 0 |
| 817 | Tem | 1:35.88 | 0 | 0 |
| 817 | [RIOT]ThePlatinTiger | 1:35.88 | 0 | 0 |
| 817 | Sir Johan | 1:35.88 | 0 | 0 |
| 817 | Ikfish | 1:35.88 | 0 | 0 |
| 817 | Thomas The Thug Train | 1:35.88 | 0 | 0 |
| 824 | Toojes | 1:35.89 | 0 | 0 |
| 824 | A Very Angy Opossum | 1:35.89 | 0 | 0 |
| 824 | Droconean | 1:35.89 | 0 | 0 |
| 824 | Bilko367 | 1:35.89 | 0 | 0 |
| 824 | Canopus | 1:35.89 | 0 | 0 |
| 824 | 25 минут кайфа | 1:35.89 | 0 | 0 |
| 830 | CarMcF | 1:35.90 | 0 | 0 |
| 830 | Seshiruseth | 1:35.90 | 0 | 0 |
| 830 | ThatOneFastGuy | 1:35.90 | 0 | 0 |
| 830 | arkhayem | 1:35.90 | 0 | 0 |
| 830 | Pi-3_141592 | 1:35.90 | 0 | 0 |
| 830 | Naix | 1:35.90 | 0 | 0 |
| 836 | Strainer20[GER] | 1:35.91 | 0 | 0 |
| 836 | Jamro | 1:35.91 | 0 | 0 |
| 836 | Lady Yupiel | 1:35.91 | 0 | 0 |
| 836 | Velocitas | 1:35.91 | 0 | 0 |
| 836 | Shyylock | 1:35.91 | 0 | 0 |
| 836 | salconsopa | 1:35.91 | 0 | 0 |
| 842 | Sky Captain | 1:35.92 | 0 | 0 |
| 842 | Apocalyptic Bunny | 1:35.92 | 0 | 0 |
| 842 | LkProd | 1:35.92 | 0 | 0 |
| 842 | ossizorg | 1:35.92 | 0 | 0 |
| 842 | K-NiGHT | 1:35.92 | 0 | 0 |
| 842 | s00 | 1:35.92 | 0 | 0 |
| 848 | Placoo | 1:35.93 | 0 | 0 |
| 848 | Blacky Stranger | 1:35.93 | 0 | 0 |
| 848 | Rázzer | 1:35.93 | 0 | 0 |
| 848 | Highly | 1:35.93 | 0 | 0 |
| 848 | phfphefph | 1:35.93 | 0 | 0 |
| 848 | Ramalis | 1:35.93 | 0 | 0 |
| 848 | Leix | 1:35.93 | 0 | 0 |
| 848 | Potat | 1:35.93 | 0 | 0 |
| 856 | Therio | 1:35.94 | 0 | 0 |
| 856 | Broonsbane | 1:35.94 | 0 | 0 |
| 856 | Limola | 1:35.94 | 0 | 0 |
| 856 | RobloxUwU | 1:35.94 | 0 | 0 |
| 856 | BlacKat | 1:35.94 | 0 | 0 |
| 856 | Loune Fire | 1:35.94 | 0 | 0 |
| 856 | MR.Tyde | 1:35.94 | 0 | 0 |
| 856 | Cozy Annan | 1:35.94 | 0 | 0 |
| 864 | Poly The Green Polypus | 1:35.95 | 0 | 0 |
| 864 | krakentoa | 1:35.95 | 0 | 0 |
| 864 | Willy Con Carne | 1:35.95 | 0 | 0 |
| 864 | Stracker | 1:35.95 | 0 | 0 |
| 864 | Shinrararara | 1:35.95 | 0 | 0 |
| 864 | Blanket Man | 1:35.95 | 0 | 0 |
| 864 | Destrudo | 1:35.95 | 0 | 0 |
| 864 | Hovex the Spider | 1:35.95 | 0 | 0 |
| 864 | femptocrisis | 1:35.95 | 0 | 0 |
| 864 | EndOfNights | 1:35.95 | 0 | 0 |
| 864 | capp_kap | 1:35.95 | 0 | 0 |
| 864 | siafa | 1:35.95 | 0 | 0 |
| 864 | HaxTheCharizard | 1:35.95 | 0 | 0 |
| 864 | Samurai BR | 1:35.95 | 0 | 0 |
| 878 | Reinforce Virta | 1:35.96 | 0 | 0 |
| 878 | FRX | 1:35.96 | 0 | 0 |
| 878 | rlulinho | 1:35.96 | 0 | 0 |
| 878 | Nanohm The Protogen | 1:35.96 | 0 | 0 |
| 878 | Crusader | 1:35.96 | 0 | 0 |
| 883 | Locura | 1:35.97 | 0 | 0 |
| 883 | Lorethys | 1:35.97 | 0 | 0 |
| 883 | A | 1:35.97 | 0 | 0 |
| 883 | Kiwi | 1:35.97 | 0 | 0 |
| 887 | Guidsmaster | 1:35.98 | 0 | 0 |
| 887 | canem | Phantasmagoria | 1:35.98 | 0 | 0 |
| 887 | do it the philZstyle | 1:35.98 | 0 | 0 |
| 887 | CrispyCow | 1:35.98 | 0 | 0 |
| 887 | THE_ORONCO | 1:35.98 | 0 | 0 |
| 892 | Wipeout! | 1:35.99 | 0 | 0 |
| 892 | Mokiflip | 1:35.99 | 0 | 0 |
| 894 | Vikhrevoy | 1:36.00 | 0 | 0 |
| 894 | CCninja86 | 1:36.00 | 0 | 0 |
| 896 | rhm | 1:36.01 | 0 | 0 |
| 896 | GekoKid | 1:36.01 | 0 | 0 |
| 896 | PalmTopDuck | 1:36.01 | 0 | 0 |
| 896 | hellpigz | 1:36.01 | 0 | 0 |
| 896 | Zeta | 1:36.01 | 0 | 0 |
| 896 | endergecko1218 | 1:36.01 | 0 | 0 |
| 896 | chinakomba | 1:36.01 | 0 | 0 |
| 896 | SirEldricht | 1:36.01 | 0 | 0 |
| 896 | Sal safado molestador | 1:36.01 | 0 | 0 |
| 905 | GMHanzo | 1:36.02 | 0 | 0 |
| 905 | EonShark | 1:36.02 | 0 | 0 |
| 905 | Numbskull | 1:36.02 | 0 | 0 |
| 905 | Grey | 1:36.02 | 0 | 0 |
| 905 | RE-L | 1:36.02 | 0 | 0 |
| 905 | Rabbids Enjoyer | 1:36.02 | 0 | 0 |
| 911 | ElHombre86 | 1:36.03 | 0 | 0 |
| 911 | Horcrux | 1:36.03 | 0 | 0 |
| 911 | Ravanaga | 1:36.03 | 0 | 0 |
| 911 | AL9 | 1:36.03 | 0 | 0 |
| 911 | Add1son2013 | 1:36.03 | 0 | 0 |
| 911 | O' The Iron E | 1:36.03 | 0 | 0 |
| 911 | Crespojazzman | 1:36.03 | 0 | 0 |
| 911 | [iNk] Primus | 1:36.03 | 0 | 0 |
| 911 | Diabetis4life | 1:36.03 | 0 | 0 |
| 911 | Sunchipp Games | 1:36.03 | 0 | 0 |
| 911 | bogassado | 1:36.03 | 0 | 0 |
| 922 | Cakey | 1:36.04 | 0 | 0 |
| 922 | Vegetable Broth | 1:36.04 | 0 | 0 |
| 922 | Long Gone | 1:36.04 | 0 | 0 |
| 922 | Pixelbo | 1:36.04 | 0 | 0 |
| 922 | zertupod | 1:36.04 | 0 | 0 |
| 922 | shade | 1:36.04 | 0 | 0 |
| 928 | Conrad the Magnificent | 1:36.05 | 0 | 0 |
| 928 | NePurple | 1:36.05 | 0 | 0 |
| 930 | Darklight | 1:36.06 | 0 | 0 |
| 930 | Professional Creed Enjoyer | 1:36.06 | 0 | 0 |
| 930 | Bruce | 1:36.06 | 0 | 0 |
| 930 | Joselu25 | 1:36.06 | 0 | 0 |
| 930 | BrandonK-TN | 1:36.06 | 0 | 0 |
| 930 | SlenderBonnie | 1:36.06 | 0 | 0 |
| 930 | Warriot | 1:36.06 | 0 | 0 |
| 937 | YoloMoth | 1:36.07 | 0 | 0 |
| 937 | SunlessSoph | 1:36.07 | 0 | 0 |
| 937 | elbrodini | 1:36.07 | 0 | 0 |
| 937 | Onrustige Knijper | 1:36.07 | 0 | 0 |
| 937 | Moodeng | 1:36.07 | 0 | 0 |
| 937 | thom6777 | 1:36.07 | 0 | 0 |
| 943 | Fluffle Puff | 1:36.08 | 0 | 0 |
| 943 | Orien S. | 1:36.08 | 0 | 0 |
| 943 | ONLY STRAIGHT IS NORMAL, FREAKS! | 1:36.08 | 0 | 0 |
| 946 | wang tulong | 1:36.09 | 0 | 0 |
| 946 | jetknife | 1:36.09 | 0 | 0 |
| 946 | Pyromage | 1:36.09 | 0 | 0 |
| 946 | Amniotus | 1:36.09 | 0 | 0 |
| 946 | Kalimbato | 1:36.09 | 0 | 0 |
| 951 | Shadiest | 1:36.10 | 0 | 0 |
| 951 | Angstrom Hughes | 1:36.10 | 0 | 0 |
| 951 | Magnowser | 1:36.10 | 0 | 0 |
| 951 | Razor_ZXM | 1:36.10 | 0 | 0 |
| 951 | The_Paradoxon99 | 1:36.10 | 0 | 0 |
| 951 | Drac7584 | 1:36.10 | 0 | 0 |
| 957 | --TuttiFrutti-- | 1:36.11 | 0 | 0 |
| 957 | Sagara | 1:36.11 | 0 | 0 |
| 957 | Mythic | 1:36.11 | 0 | 0 |
| 957 | O_O | 1:36.11 | 0 | 0 |
| 957 | Elfiann | 1:36.11 | 0 | 0 |
| 957 | FrittenFriseurLPs | 1:36.11 | 0 | 0 |
| 957 | itsNinety_ | 1:36.11 | 0 | 0 |
| 957 | Lil O.D. | 1:36.11 | 0 | 0 |
| 965 | Phil | 1:36.12 | 0 | 0 |
| 965 | B'neppe | 1:36.12 | 0 | 0 |
| 965 | BudaChow | 1:36.12 | 0 | 0 |
| 965 | Apollo | 1:36.12 | 0 | 0 |
| 969 | Vorpal Soul | 1:36.13 | 0 | 0 |
| 969 | Little Arturo | 1:36.13 | 0 | 0 |
| 969 | rezzonating | 1:36.13 | 0 | 0 |
| 969 | marius_redandblue | 1:36.13 | 0 | 0 |
| 969 | KingSizeKid | 1:36.13 | 0 | 0 |
| 969 | S P A T H ☆ | 1:36.13 | 0 | 0 |
| 969 | Fads81 | 1:36.13 | 0 | 0 |
| 969 | Spearmint | 1:36.13 | 0 | 0 |
| 969 | Slobbercat | 1:36.13 | 0 | 0 |
| 978 | Cashoo | 1:36.14 | 0 | 0 |
| 978 | SkullOh25 | 1:36.14 | 0 | 0 |
| 978 | Dorphan | 1:36.14 | 0 | 0 |
| 978 | KamikazeKitaze | 1:36.14 | 0 | 0 |
| 982 | Cygnus | 1:36.15 | 0 | 0 |
| 982 | Dick Warlock | 1:36.15 | 0 | 0 |
| 982 | Mivhs | 1:36.15 | 0 | 0 |
| 982 | Cynder925 | 1:36.15 | 0 | 0 |
| 986 | Julius_Geezer | 1:36.16 | 0 | 0 |
| 986 | Bobeye | 1:36.16 | 0 | 0 |
| 986 | Xandre66 | 1:36.16 | 0 | 0 |
| 986 | Getty Image Egg Supreme | 1:36.16 | 0 | 0 |
| 990 | Amored Dragon | 1:36.17 | 0 | 0 |
| 990 | Pyro | 1:36.17 | 0 | 0 |
| 990 | CS | 1:36.17 | 0 | 0 |
| 990 | The Box | 1:36.17 | 0 | 0 |
| 994 | Cerberus14 | 1:36.18 | 0 | 0 |
| 994 | Cpl. Minty Tits | 1:36.18 | 0 | 0 |
| 994 | Unwared | 1:36.18 | 0 | 0 |
| 994 | RagingPoet | 1:36.18 | 0 | 0 |
| 994 | Rektifyed | 1:36.18 | 0 | 0 |
| 994 | Tkach | 1:36.18 | 0 | 0 |
| 994 | JeffTheBruh | 1:36.18 | 0 | 0 |
| 1,001 | Sev | 1:36.19 | 0 | 0 |
| 1,001 | Dodgin Cox | 1:36.19 | 0 | 0 |
| 1,001 | Neko Senpai | 1:36.19 | 0 | 0 |
| 1,001 | Arael ♔ | 1:36.19 | 0 | 0 |
| 1,001 | Zodiac | 1:36.19 | 0 | 0 |
| 1,001 | ALEX | 1:36.19 | 0 | 0 |
| 1,001 | Cat_Walten | 1:36.19 | 0 | 0 |
| 1,001 | Zero_Antlax | 1:36.19 | 0 | 0 |
| 1,009 | TheBob | 1:36.20 | 0 | 0 |
| 1,010 | Cocktail Sausage | 1:36.21 | 0 | 0 |
| 1,010 | QcRail | 1:36.21 | 0 | 0 |
| 1,010 | Wildclaw | 1:36.21 | 0 | 0 |
| 1,010 | Winters | 1:36.21 | 0 | 0 |
| 1,010 | Screws | 1:36.21 | 0 | 0 |
| 1,010 | ʎɯɯɐS | 1:36.21 | 0 | 0 |
| 1,016 | Mud | 1:36.22 | 0 | 0 |
| 1,016 | Ae1oURed | 1:36.22 | 0 | 0 |
| 1,016 | MOCOCHINCHOL | 1:36.22 | 0 | 0 |
| 1,019 | RunningMountain | 1:36.23 | 0 | 0 |
| 1,019 | edc | 1:36.23 | 0 | 0 |
| 1,019 | Combat Corpse | 1:36.23 | 0 | 0 |
| 1,019 | Kizo~ | 1:36.23 | 0 | 0 |
| 1,023 | Jehuty | 1:36.24 | 0 | 0 |
| 1,023 | Matthew Losion | 1:36.24 | 0 | 0 |
| 1,023 | tipek360 | 1:36.24 | 0 | 0 |
| 1,023 | Solar Field | 1:36.24 | 0 | 0 |
| 1,023 | ℛ𝓊𝓃𝑒 | 1:36.24 | 0 | 0 |
| 1,023 | Kobe | 1:36.24 | 0 | 0 |
| 1,029 | BuzZoiD | 1:36.25 | 0 | 0 |
| 1,029 | Krogoth | 1:36.25 | 0 | 0 |
| 1,029 | Splat | 1:36.25 | 0 | 0 |
| 1,029 | cocob4 | 1:36.25 | 0 | 0 |
| 1,029 | BARTIXPL | 1:36.25 | 0 | 0 |
| 1,034 | BesRezen | 1:36.26 | 0 | 0 |
| 1,034 | Bacon | 1:36.26 | 0 | 0 |
| 1,034 | LT_Schmiddy | 1:36.26 | 0 | 0 |
| 1,037 | Benji | 1:36.27 | 0 | 0 |
| 1,037 | Phillipus | 1:36.27 | 0 | 0 |
| 1,037 | Derpahkiin | 1:36.27 | 0 | 0 |
| 1,037 | Dorey348 | 1:36.27 | 0 | 0 |
| 1,041 | SkyCaptain502 | 1:36.28 | 0 | 0 |
| 1,041 | MeekiBriks | 1:36.28 | 0 | 0 |
| 1,041 | Prof. Pinwheel | 1:36.28 | 0 | 0 |
| 1,041 | Tuli | 1:36.28 | 0 | 0 |
| 1,041 | Repollo | 1:36.28 | 0 | 0 |
| 1,041 | Dragonsbane1270 | 1:36.28 | 0 | 0 |
| 1,047 | DJJax | 1:36.29 | 0 | 0 |
| 1,047 | Xela | 1:36.29 | 0 | 0 |
| 1,047 | Boomer McGeezer | 1:36.29 | 0 | 0 |
| 1,047 | Yuuki Asuna | 1:36.29 | 0 | 0 |
| 1,051 | Tybalt the First | 1:36.30 | 0 | 0 |
| 1,052 | [BKH]no-please | 1:36.31 | 0 | 0 |
| 1,052 | Andy95 | 1:36.31 | 0 | 0 |
| 1,052 | NaterrTheBull | 1:36.31 | 0 | 0 |
| 1,052 | bloaty | 1:36.31 | 0 | 0 |
| 1,052 | chaotic | 1:36.31 | 0 | 0 |
| 1,052 | HoneyBea48 | 1:36.31 | 0 | 0 |
| 1,052 | Conbron ^-^ | 1:36.31 | 0 | 0 |
| 1,052 | James "Papa Het" Hetfield | 1:36.31 | 0 | 0 |
| 1,052 | Pomel ⛟ | 1:36.31 | 0 | 0 |
| 1,061 | Hungolomghononoloughongous | 1:36.32 | 0 | 0 |
| 1,061 | Sturmwut | 1:36.32 | 0 | 0 |
| 1,061 | fire219 | 1:36.32 | 0 | 0 |
| 1,061 | Zerhlio | 1:36.32 | 0 | 0 |
| 1,061 | Artum | 1:36.32 | 0 | 0 |
| 1,061 | 76561198375186173 | 1:36.32 | 0 | 0 |
| 1,067 | canman | 1:36.33 | 0 | 0 |
| 1,067 | [Lard] Kriltch | 1:36.33 | 0 | 0 |
| 1,067 | Gaz | 1:36.33 | 0 | 0 |
| 1,067 | Miller | 1:36.33 | 0 | 0 |
| 1,067 | LemonIsland | 1:36.33 | 0 | 0 |
| 1,067 | fooffie | 1:36.33 | 0 | 0 |
| 1,067 | LittleKittyArtemis | 1:36.33 | 0 | 0 |
| 1,067 | LARGUIRUCHO | 1:36.33 | 0 | 0 |
| 1,075 | Knot | 1:36.34 | 0 | 0 |
| 1,076 | Max_Power | 1:36.35 | 0 | 0 |
| 1,076 | Alkathoy | 1:36.35 | 0 | 0 |
| 1,076 | GeneralMisterMe | 1:36.35 | 0 | 0 |
| 1,076 | Salvage | 1:36.35 | 0 | 0 |
| 1,076 | Red Sun | 1:36.35 | 0 | 0 |
| 1,076 | Bat Country | 1:36.35 | 0 | 0 |
| 1,082 | Kowsky | 1:36.36 | 0 | 0 |
| 1,082 | dame.najdov | 1:36.36 | 0 | 0 |
| 1,082 | makima-san | 1:36.36 | 0 | 0 |
| 1,085 | Kreka | 1:36.38 | 0 | 0 |
| 1,085 | lun4tic | 1:36.38 | 0 | 0 |
| 1,085 | Dyltra | 1:36.38 | 0 | 0 |
| 1,085 | Lore maker | 1:36.38 | 0 | 0 |
| 1,089 | ✨TOASTER✨ | 1:36.39 | 0 | 0 |
| 1,089 | Luc. | 1:36.39 | 0 | 0 |
| 1,089 | Taidgar | 1:36.39 | 0 | 0 |
| 1,089 | Onur | 1:36.39 | 0 | 0 |
| 1,089 | SNACKS✔ | 1:36.39 | 0 | 0 |
| 1,089 | Aastran | 1:36.39 | 0 | 0 |
| 1,089 | Indy1984 | 1:36.39 | 0 | 0 |
| 1,089 | Felizius | 1:36.39 | 0 | 0 |
| 1,089 | [] | 1:36.39 | 0 | 0 |
| 1,089 | Чаечек ☂ | 1:36.39 | 0 | 0 |
| 1,099 | kasoban | 1:36.40 | 0 | 0 |
| 1,099 | 204863 | 1:36.40 | 0 | 0 |
| 1,099 | [deleted] | 1:36.40 | 0 | 0 |
| 1,099 | vulnerable plate of spaghetti | 1:36.40 | 0 | 0 |
| 1,103 | avenx | 1:36.41 | 0 | 0 |
| 1,103 | =M|F= VictorB | 1:36.41 | 0 | 0 |
| 1,103 | SentientAntColony | 1:36.41 | 0 | 0 |
| 1,103 | Traetors | 1:36.41 | 0 | 0 |
| 1,107 | CreamyK | 1:36.42 | 0 | 0 |
| 1,107 | Scarlet | 1:36.42 | 0 | 0 |
| 1,107 | Misaki <3 | 1:36.42 | 0 | 0 |
| 1,107 | - T - | 1:36.42 | 0 | 0 |
| 1,107 | Vallzi | 1:36.42 | 0 | 0 |
| 1,107 | Totally101 | 1:36.42 | 0 | 0 |
| 1,113 | potion | 1:36.43 | 0 | 0 |
| 1,113 | Mukai | 1:36.43 | 0 | 0 |
| 1,113 | Darklight96 | 1:36.43 | 0 | 0 |
| 1,113 | Slaerd | 1:36.43 | 0 | 0 |
| 1,113 | Vanilla ✿ | 1:36.43 | 0 | 0 |
| 1,113 | rocmanx654 | 1:36.43 | 0 | 0 |
| 1,113 | A1exandro | 1:36.43 | 0 | 0 |
| 1,113 | fragman | 1:36.43 | 0 | 0 |
| 1,121 | Asuto | 1:36.44 | 0 | 0 |
| 1,121 | NUKA | 1:36.44 | 0 | 0 |
| 1,121 | Negaprion | 1:36.44 | 0 | 0 |
| 1,121 | Raiyson Terrorwing | 1:36.44 | 0 | 0 |
| 1,125 | Opliz jejetriton | 1:36.45 | 0 | 0 |
| 1,125 | blackmaester | 1:36.45 | 0 | 0 |
| 1,125 | NeonGI | 1:36.45 | 0 | 0 |
| 1,128 | Frayboy15 | 1:36.46 | 0 | 0 |
| 1,128 | Cornholio | 1:36.46 | 0 | 0 |
| 1,130 | pandu | 1:36.47 | 0 | 0 |
| 1,130 | Kotz | 1:36.47 | 0 | 0 |
| 1,130 | lucas88 | 1:36.47 | 0 | 0 |
| 1,130 | redeclipse21 | 1:36.47 | 0 | 0 |
| 1,130 | king.bai64 | 1:36.47 | 0 | 0 |
| 1,135 | Redx | 1:36.48 | 0 | 0 |
| 1,135 | VioletChan311 | 1:36.48 | 0 | 0 |
| 1,135 | Voltaic | 1:36.48 | 0 | 0 |
| 1,138 | Lukyprod⭐ | 1:36.49 | 0 | 0 |
| 1,138 | I SMASH ROCKS | 1:36.49 | 0 | 0 |
| 1,138 | Torkoal | 1:36.49 | 0 | 0 |
| 1,138 | FaynVonFloof | 1:36.49 | 0 | 0 |
| 1,142 | Seere | 1:36.50 | 0 | 0 |
| 1,142 | Hazylina | 1:36.50 | 0 | 0 |
| 1,144 | max.lidstrom | 1:36.51 | 0 | 0 |
| 1,144 | Rodum | 1:36.51 | 0 | 0 |
| 1,146 | Mystic Fool | 1:36.52 | 0 | 0 |
| 1,146 | Cisco 2900 Series ISR | 1:36.52 | 0 | 0 |
| 1,146 | IsmaZheCat | 1:36.52 | 0 | 0 |
| 1,146 | sWilder9 | 1:36.52 | 0 | 0 |
| 1,150 | Serothel | 1:36.53 | 0 | 0 |
| 1,150 | Figs | 1:36.53 | 0 | 0 |
| 1,150 | Madbank6 | 1:36.53 | 0 | 0 |
| 1,150 | Nefarious_Noob_666 | 1:36.53 | 0 | 0 |
| 1,150 | Bohemius | 1:36.53 | 0 | 0 |
| 1,155 | Pippa Pipkin | 1:36.54 | 0 | 0 |
| 1,155 | Suspect | 1:36.54 | 0 | 0 |
| 1,155 | Waymint | 1:36.54 | 0 | 0 |
| 1,158 | Deadlift | 1:36.55 | 0 | 0 |
| 1,158 | Cynic | 1:36.55 | 0 | 0 |
| 1,160 | Mimmic | 1:36.56 | 0 | 0 |
| 1,161 | sad soft goth | 1:36.57 | 0 | 0 |
| 1,161 | Phenos Sodazel | 1:36.57 | 0 | 0 |
| 1,163 | BaggyFool | 1:36.58 | 0 | 0 |
| 1,163 | NostalgicRage | 1:36.58 | 0 | 0 |
| 1,165 | SnackLover | 1:36.59 | 0 | 0 |
| 1,165 | Umbrandawn | 1:36.59 | 0 | 0 |
| 1,165 | desc | 1:36.59 | 0 | 0 |
| 1,165 | Username | 1:36.59 | 0 | 0 |
| 1,169 | Krash | 1:36.60 | 0 | 0 |
| 1,170 | Vinre | 1:36.62 | 0 | 0 |
| 1,170 | Lampshaede | 1:36.62 | 0 | 0 |
| 1,170 | [Shin0bu] | 1:36.62 | 0 | 0 |
| 1,170 | Nimo | 1:36.62 | 0 | 0 |
| 1,170 | ThatGuyBrit | 1:36.62 | 0 | 0 |
| 1,170 | RejectedEcho | 1:36.62 | 0 | 0 |
| 1,176 | DrownedToSleep | 1:36.63 | 0 | 0 |
| 1,176 | ruu | 1:36.63 | 0 | 0 |
| 1,176 | Grabuge | 1:36.63 | 0 | 0 |
| 1,176 | Hannah | 1:36.63 | 0 | 0 |
| 1,176 | Seal_Otter | 1:36.63 | 0 | 0 |
| 1,176 | Disconnected | 1:36.63 | 0 | 0 |
| 1,176 | Sayukki | 1:36.63 | 0 | 0 |
| 1,176 | Lasagna | 1:36.63 | 0 | 0 |
| 1,184 | GhekkoO | 1:36.64 | 0 | 0 |
| 1,184 | Karakanov | 1:36.64 | 0 | 0 |
| 1,184 | Nekrogen57 | 1:36.64 | 0 | 0 |
| 1,184 | -zaz23- | 1:36.64 | 0 | 0 |
| 1,188 | ENDO | 1:36.65 | 0 | 0 |
| 1,188 | Tibbs | 1:36.65 | 0 | 0 |
| 1,188 | ワシねこ | 1:36.65 | 0 | 0 |
| 1,188 | Mendreud | 1:36.65 | 0 | 0 |
| 1,192 | whyblet | 1:36.66 | 0 | 0 |
| 1,192 | Ntorean | 1:36.66 | 0 | 0 |
| 1,194 | Rustal | 1:36.67 | 0 | 0 |
| 1,194 | tawnted | 1:36.67 | 0 | 0 |
| 1,196 | joltz | 1:36.68 | 0 | 0 |
| 1,196 | Wddysr | 1:36.68 | 0 | 0 |
| 1,196 | NekoNachi | 1:36.68 | 0 | 0 |
| 1,199 | Samn | 1:36.69 | 0 | 0 |
| 1,199 | Lazarus | 1:36.69 | 0 | 0 |
| 1,201 | PΙCΛPΙCΔ | 1:36.70 | 0 | 0 |
| 1,201 | Canomi | 1:36.70 | 0 | 0 |
| 1,203 | Welli's | 1:36.71 | 0 | 0 |
| 1,204 | Frozen Dino | 1:36.72 | 0 | 0 |
| 1,204 | Meldiron | 1:36.72 | 0 | 0 |
| 1,204 | Archi | 1:36.72 | 0 | 0 |
| 1,204 | Vitiosa | 1:36.72 | 0 | 0 |
| 1,208 | The Biggest [REDACTED] Ogre | 1:36.73 | 0 | 0 |
| 1,208 | SG | 1:36.73 | 0 | 0 |
| 1,208 | Wolf | 1:36.73 | 0 | 0 |
| 1,211 | moth | 1:36.74 | 0 | 0 |
| 1,212 | Velimor | 1:36.75 | 0 | 0 |
| 1,212 | Islwyn | 1:36.75 | 0 | 0 |
| 1,212 | Renown | 1:36.75 | 0 | 0 |
| 1,215 | Silverstop | 1:36.76 | 0 | 0 |
| 1,215 | UmKeith | 1:36.76 | 0 | 0 |
| 1,215 | Lesae Ephu | 1:36.76 | 0 | 0 |
| 1,215 | Rush | 1:36.76 | 0 | 0 |
| 1,215 | BulletRain23 | 1:36.76 | 0 | 0 |
| 1,220 | Mr. Beefy | 1:36.78 | 0 | 0 |
| 1,220 | Juispch | 1:36.78 | 0 | 0 |
| 1,222 | ExcoRage | 1:36.79 | 0 | 0 |
| 1,222 | Gloþ | 1:36.79 | 0 | 0 |
| 1,224 | NetherCraft | 1:36.80 | 0 | 0 |
| 1,224 | Breno_SO | 1:36.80 | 0 | 0 |
| 1,226 | Jace | 1:36.81 | 0 | 0 |
| 1,226 | BroomKnight | 1:36.81 | 0 | 0 |
| 1,226 | Aero | 1:36.81 | 0 | 0 |
| 1,229 | Herkamer | 1:36.82 | 0 | 0 |
| 1,229 | Comrade St. Nikolai | 1:36.82 | 0 | 0 |
| 1,229 | Carrott | 1:36.82 | 0 | 0 |
| 1,232 | Eleven27 | 1:36.83 | 0 | 0 |
| 1,232 | Pclone501 | 1:36.83 | 0 | 0 |
| 1,232 | Thundering Cloud | 1:36.83 | 0 | 0 |
| 1,235 | EatChikinMor | 1:36.84 | 0 | 0 |
| 1,235 | Cheetah | 1:36.84 | 0 | 0 |
| 1,235 | Jack | 1:36.84 | 0 | 0 |
| 1,238 | Somehow, the Chicken | 1:36.85 | 0 | 0 |
| 1,238 | BroomBroom72 | 1:36.85 | 0 | 0 |
| 1,238 | AstroGlaze | 1:36.85 | 0 | 0 |
| 1,241 | Brady | 1:36.87 | 0 | 0 |
| 1,242 | timanza | 1:36.88 | 0 | 0 |
| 1,242 | Duck | 1:36.88 | 0 | 0 |
| 1,242 | Vortexesz | 1:36.88 | 0 | 0 |
| 1,242 | MistaHorse | 1:36.88 | 0 | 0 |
| 1,246 | Supra2 | 1:36.89 | 0 | 0 |
| 1,246 | x | 1:36.89 | 0 | 0 |
| 1,246 | Lionkingview | 1:36.89 | 0 | 0 |
| 1,249 | ✂👌☜✌☼✂ | 1:36.90 | 0 | 0 |
| 1,249 | Ashen Marx | 1:36.90 | 0 | 0 |
| 1,251 | Prinz Lunas Noroi | 1:36.91 | 0 | 0 |
| 1,251 | TheBoringMan | 1:36.91 | 0 | 0 |
| 1,251 | ilo Niki | 1:36.91 | 0 | 0 |
| 1,251 | Neon_Shift | 1:36.91 | 0 | 0 |
| 1,251 | Eternal Eclipse | 1:36.91 | 0 | 0 |
| 1,256 | solae | 1:36.92 | 0 | 0 |
| 1,256 | Mithrarim | 1:36.92 | 0 | 0 |
| 1,256 | SuperTechDragon | 1:36.92 | 0 | 0 |
| 1,256 | Leito317 | 1:36.92 | 0 | 0 |
| 1,256 | GTNeon | 1:36.92 | 0 | 0 |
| 1,261 | >>KIO<< | 1:36.93 | 0 | 0 |
| 1,261 | Slenderem | 1:36.93 | 0 | 0 |
| 1,263 | Laneykins | 1:36.94 | 0 | 0 |
| 1,263 | FedeedeF | 1:36.94 | 0 | 0 |
| 1,265 | gavin144 | 1:36.95 | 0 | 0 |
| 1,265 | Billy Bat | 1:36.95 | 0 | 0 |
| 1,267 | crimes.against.art | 1:36.97 | 0 | 0 |
| 1,268 | [] | 1:36.98 | 0 | 0 |
| 1,269 | A Powerful Seal | 1:36.99 | 0 | 0 |
| 1,270 | GX | 1:37.00 | 0 | 0 |
| 1,270 | kurosu | 1:37.00 | 0 | 0 |
| 1,272 | Zakdayev | 1:37.01 | 0 | 0 |
| 1,272 | Tundra | 1:37.01 | 0 | 0 |
| 1,272 | perspective. | 1:37.01 | 0 | 0 |
| 1,272 | Bun Bun | 1:37.01 | 0 | 0 |
| 1,276 | Lofthouse | 1:37.02 | 0 | 0 |
| 1,276 | BAD INTERNET CONNECTION | 1:37.02 | 0 | 0 |
| 1,278 | Ala <3 Tom | 1:37.05 | 0 | 0 |
| 1,278 | Kilo | 1:37.05 | 0 | 0 |
| 1,280 | btyrellb125 | 1:37.06 | 0 | 0 |
| 1,280 | Cookie Dealer | 1:37.06 | 0 | 0 |
| 1,280 | glitchdx | 1:37.06 | 0 | 0 |
| 1,280 | l e m a s u y u k i 我爱她 | 1:37.06 | 0 | 0 |
| 1,280 | Adrián | 1:37.06 | 0 | 0 |
| 1,285 | Aetser | 1:37.09 | 0 | 0 |
| 1,286 | Chated | 1:37.10 | 0 | 0 |
| 1,286 | Krazy8s | 1:37.10 | 0 | 0 |
| 1,286 | Leviathos | 1:37.10 | 0 | 0 |
| 1,289 | Chase Me | 1:37.11 | 0 | 0 |
| 1,290 | Herringstrand | 1:37.12 | 0 | 0 |
| 1,290 | SirWanksalot | 1:37.12 | 0 | 0 |
| 1,290 | cloner | 1:37.12 | 0 | 0 |
| 1,290 | Vulkan | 1:37.12 | 0 | 0 |
| 1,290 | 장기마스터 | 1:37.12 | 0 | 0 |
| 1,290 | Uranos | 1:37.12 | 0 | 0 |
| 1,290 | javier48.tov | 1:37.12 | 0 | 0 |
| 1,297 | rz zombie | 1:37.15 | 0 | 0 |
| 1,297 | Gomorrha | 1:37.15 | 0 | 0 |
| 1,297 | Aladin | 1:37.15 | 0 | 0 |
| 1,297 | frod | 1:37.15 | 0 | 0 |
| 1,301 | Vekisis | 1:37.16 | 0 | 0 |
| 1,301 | Voxr | 1:37.16 | 0 | 0 |
| 1,301 | Ethan Oyster | 1:37.16 | 0 | 0 |
| 1,304 | le0n | 1:37.18 | 0 | 0 |
| 1,304 | Asajimi (Orages) | 1:37.18 | 0 | 0 |
| 1,304 | FyreWall | 1:37.18 | 0 | 0 |
| 1,304 | Questy | 1:37.18 | 0 | 0 |
| 1,304 | dantuno1ඞ | 1:37.18 | 0 | 0 |
| 1,309 | Donut Girl | 1:37.19 | 0 | 0 |
| 1,309 | phillies27 | 1:37.19 | 0 | 0 |
| 1,309 | Shyverin | 1:37.19 | 0 | 0 |
| 1,309 | [BAD] | 1:37.19 | 0 | 0 |
| 1,313 | Derrick1188 | 1:37.20 | 0 | 0 |
| 1,313 | Apple | 1:37.20 | 0 | 0 |
| 1,313 | 风又音理 | 1:37.20 | 0 | 0 |
| 1,316 | Schranzinator | 1:37.21 | 0 | 0 |
| 1,317 | BerriesAndCream | 1:37.23 | 0 | 0 |
| 1,317 | SimplyBenjamen | 1:37.23 | 0 | 0 |
| 1,317 | Storm Blade | 1:37.23 | 0 | 0 |
| 1,320 | Sweet F.A. | 1:37.24 | 0 | 0 |
| 1,320 | CaptainLouie | 1:37.24 | 0 | 0 |
| 1,320 | Xandrak | 1:37.24 | 0 | 0 |
| 1,323 | Drackzgull | 1:37.25 | 0 | 0 |
| 1,323 | Chaos Titan | 1:37.25 | 0 | 0 |
| 1,323 | Distance306 | 1:37.25 | 0 | 0 |
| 1,326 | SKUZZIE | 1:37.27 | 0 | 0 |
| 1,326 | Sterbin | 1:37.27 | 0 | 0 |
| 1,328 | Toxicologixal | 1:37.29 | 0 | 0 |
| 1,329 | Siriondil | 1:37.30 | 0 | 0 |
| 1,329 | Zaz | 1:37.30 | 0 | 0 |
| 1,329 | ImJeffafa | 1:37.30 | 0 | 0 |
| 1,332 | FENT FIEND | 1:37.31 | 0 | 0 |
| 1,332 | EmeraldSlash | 1:37.31 | 0 | 0 |
| 1,332 | DarkEnforcer | 1:37.31 | 0 | 0 |
| 1,335 | Mellow Manta | 1:37.32 | 0 | 0 |
| 1,336 | Ninechop | 1:37.33 | 0 | 0 |
| 1,337 | THE FINAL LOSER | 1:37.34 | 0 | 0 |
| 1,337 | Squib | 1:37.34 | 0 | 0 |
| 1,337 | Kretfix | 1:37.34 | 0 | 0 |
| 1,337 | Enzyme Machine | 1:37.34 | 0 | 0 |
| 1,337 | A Moldy Orange | 1:37.34 | 0 | 0 |
| 1,342 | Grev "The Editor" | 1:37.36 | 0 | 0 |
| 1,343 | Harue Kuma | 1:37.37 | 0 | 0 |
| 1,344 | The Forest Green Goober | 1:37.39 | 0 | 0 |
| 1,344 | Steuben | 1:37.39 | 0 | 0 |
| 1,344 | Ding | 1:37.39 | 0 | 0 |
| 1,347 | Dubu | 1:37.40 | 0 | 0 |
| 1,347 | JasterPax | 1:37.40 | 0 | 0 |
| 1,349 | V_ninedude | 1:37.41 | 0 | 0 |
| 1,349 | 🐉 VynnyDerg 🐉 | 1:37.41 | 0 | 0 |
| 1,349 | Bakageyama | 1:37.41 | 0 | 0 |
| 1,349 | Schneidog | 1:37.41 | 0 | 0 |
| 1,353 | Light Stubble | 1:37.42 | 0 | 0 |
| 1,353 | Jsync | 1:37.42 | 0 | 0 |
| 1,355 | Z O E | 1:37.43 | 0 | 0 |
| 1,355 | Sea Raider | 1:37.43 | 0 | 0 |
| 1,357 | Mr. Grizz | 1:37.44 | 0 | 0 |
| 1,358 | Keiyo | 1:37.45 | 0 | 0 |
| 1,358 | Gidan | 1:37.45 | 0 | 0 |
| 1,358 | Mugen | 1:37.45 | 0 | 0 |
| 1,358 | SmittenPuppet | 1:37.45 | 0 | 0 |
| 1,362 | JAIRO | 1:37.46 | 0 | 0 |
| 1,363 | RobinMcDuff | 1:37.47 | 0 | 0 |
| 1,363 | ^jnz | 1:37.47 | 0 | 0 |
| 1,365 | Bubwubster | 1:37.48 | 0 | 0 |
| 1,366 | Kaiji is moe | 1:37.49 | 0 | 0 |
| 1,366 | µ | 1:37.49 | 0 | 0 |
| 1,366 | cskpirate | 1:37.49 | 0 | 0 |
| 1,369 | The Law | 1:37.50 | 0 | 0 |
| 1,370 | BennLivid | 1:37.51 | 0 | 0 |
| 1,371 | rinzu | 1:37.52 | 0 | 0 |
| 1,371 | AMOLED | 1:37.52 | 0 | 0 |
| 1,373 | SmokedScreen | 1:37.53 | 0 | 0 |
| 1,373 | SharoffKot | 1:37.53 | 0 | 0 |
| 1,375 | Brando Multin | 1:37.54 | 0 | 0 |
| 1,375 | NeonPyromancy | 1:37.54 | 0 | 0 |
| 1,375 | ThanksForNothing | 1:37.54 | 0 | 0 |
| 1,378 | Zeo | 1:37.55 | 0 | 0 |
| 1,379 | Geograde | 1:37.56 | 0 | 0 |
| 1,379 | Teaskittles | 1:37.56 | 0 | 0 |
| 1,379 | Pkaradactyl | 1:37.56 | 0 | 0 |
| 1,379 | lambcode | 1:37.56 | 0 | 0 |
| 1,383 | [TSA] Siggi | 1:37.57 | 0 | 0 |
| 1,384 | Jason | 1:37.58 | 0 | 0 |
| 1,384 | Gecko95 | 1:37.58 | 0 | 0 |
| 1,384 | Frost Bite~ | 1:37.58 | 0 | 0 |
| 1,387 | narcrab | 1:37.59 | 0 | 0 |
| 1,387 | raiidem | 1:37.59 | 0 | 0 |
| 1,389 | Chips'Ahoy | 1:37.60 | 0 | 0 |
| 1,390 | Its_me_Yoshi | 1:37.61 | 0 | 0 |
| 1,391 | Atamii | 1:37.62 | 0 | 0 |
| 1,391 | TG300 | 1:37.62 | 0 | 0 |
| 1,393 | Krumpus | 1:37.64 | 0 | 0 |
| 1,393 | HardRoar|Lionhead | 1:37.64 | 0 | 0 |
| 1,395 | niamu | 1:37.65 | 0 | 0 |
| 1,395 | Lebigboiii | 1:37.65 | 0 | 0 |
| 1,395 | distanceserver | 1:37.65 | 0 | 0 |
| 1,398 | Jam Over | 1:37.67 | 0 | 0 |
| 1,399 | Nonoreo | 1:37.69 | 0 | 0 |
| 1,400 | Manimal | 1:37.70 | 0 | 0 |
| 1,401 | SP** | 1:37.71 | 0 | 0 |
| 1,401 | Setun-70 | 1:37.71 | 0 | 0 |
| 1,403 | StriX | 1:37.72 | 0 | 0 |
| 1,404 | incodrago | 1:37.74 | 0 | 0 |
| 1,405 | Max | 1:37.75 | 0 | 0 |
| 1,406 | Drakir | 1:37.76 | 0 | 0 |
| 1,406 | yu-red-fish | 1:37.76 | 0 | 0 |
| 1,408 | Geist | 1:37.77 | 0 | 0 |
| 1,408 | ShotgunSalad | 1:37.77 | 0 | 0 |
| 1,410 | Airgeadlamh | 1:37.78 | 0 | 0 |
| 1,411 | KALLOSSIS | 1:37.79 | 0 | 0 |
| 1,411 | Algol | 1:37.79 | 0 | 0 |
| 1,411 | Technoboss28 | 1:37.79 | 0 | 0 |
| 1,411 | Yukie | 1:37.79 | 0 | 0 |
| 1,415 | xylr | 1:37.81 | 0 | 0 |
| 1,415 | 黒 Crow | 1:37.81 | 0 | 0 |
| 1,415 | 000ASAYT000 | 1:37.81 | 0 | 0 |
| 1,415 | jmdajm7 | 1:37.81 | 0 | 0 |
| 1,419 | Cairan347 | 1:37.82 | 0 | 0 |
| 1,420 | Ruqle | 1:37.83 | 0 | 0 |
| 1,420 | Sacred | 1:37.83 | 0 | 0 |
| 1,422 | maddison135 | 1:37.85 | 0 | 0 |
| 1,423 | psychoblizzard | 1:37.88 | 0 | 0 |
| 1,424 | Fly | 1:37.89 | 0 | 0 |
| 1,425 | Wazmuth Gliefenstein | 1:37.90 | 0 | 0 |
| 1,425 | Tehfire | 1:37.90 | 0 | 0 |
| 1,425 | TitanSpider70 | 1:37.90 | 0 | 0 |
| 1,428 | shsnuzzle | 1:37.91 | 0 | 0 |
| 1,429 | Aonee | 1:37.92 | 0 | 0 |
| 1,429 | matheus paiva | 1:37.92 | 0 | 0 |
| 1,429 | SPEEDYSPEEDBOI | 1:37.92 | 0 | 0 |
| 1,432 | Frostyrobar | 1:37.93 | 0 | 0 |
| 1,433 | Valencia | 1:37.94 | 0 | 0 |
| 1,433 | -Ω- | 1:37.94 | 0 | 0 |
| 1,435 | Frankly | 1:37.95 | 0 | 0 |
| 1,436 | RST_Fox | 1:37.97 | 0 | 0 |
| 1,436 | tsitski | 1:37.97 | 0 | 0 |
| 1,438 | GyrokFalconer | 1:37.98 | 0 | 0 |
| 1,438 | Bread | 1:37.98 | 0 | 0 |
| 1,438 | Drift.exe | 1:37.98 | 0 | 0 |
| 1,441 | Jhojhoido | 1:37.99 | 0 | 0 |
| 1,442 | MERC | 1:38.00 | 0 | 0 |
| 1,442 | Gammeta | 1:38.00 | 0 | 0 |
| 1,444 | TheEdIsNotAmused | 1:38.02 | 0 | 0 |
| 1,444 | Fucking Salad | 1:38.02 | 0 | 0 |
| 1,446 | Dr. Bob Kelso | 1:38.05 | 0 | 0 |
| 1,446 | Swiftus_Lazarus | 1:38.05 | 0 | 0 |
| 1,446 | V | 1:38.05 | 0 | 0 |
| 1,449 | Zodijackyl Light | 1:38.06 | 0 | 0 |
| 1,449 | Calluna | 1:38.06 | 0 | 0 |
| 1,449 | justpeace.jp | 1:38.06 | 0 | 0 |
| 1,452 | Araku | 1:38.08 | 0 | 0 |
| 1,452 | endlesstabby | 1:38.08 | 0 | 0 |
| 1,454 | Biscuit ビスケット | 1:38.11 | 0 | 0 |
| 1,454 | badjackjack | 1:38.11 | 0 | 0 |
| 1,454 | Zezyn | 1:38.11 | 0 | 0 |
| 1,457 | Walker | 1:38.12 | 0 | 0 |
| 1,457 | Shooter | 1:38.12 | 0 | 0 |
| 1,459 | WiteNite | 1:38.13 | 0 | 0 |
| 1,460 | kaasworst | 1:38.15 | 0 | 0 |
| 1,460 | Periosa | 1:38.15 | 0 | 0 |
| 1,462 | GOOSE SATAN! | 1:38.16 | 0 | 0 |
| 1,463 | That Guy | 1:38.17 | 0 | 0 |
| 1,463 | shamshel | 1:38.17 | 0 | 0 |
| 1,463 | Its_Just_Dave | 1:38.17 | 0 | 0 |
| 1,466 | Azgeda | 1:38.18 | 0 | 0 |
| 1,466 | 4onen | 1:38.18 | 0 | 0 |
| 1,466 | Icicle | 1:38.18 | 0 | 0 |
| 1,466 | Casmo | 1:38.18 | 0 | 0 |
| 1,466 | Roggee | 1:38.18 | 0 | 0 |
| 1,471 | Raisinbran | 1:38.19 | 0 | 0 |
| 1,472 | Hazy on the details | 1:38.20 | 0 | 0 |
| 1,473 | Kramatus | 1:38.22 | 0 | 0 |
| 1,474 | bread | 1:38.25 | 0 | 0 |
| 1,475 | eyezzrini ॐ | 1:38.26 | 0 | 0 |
| 1,475 | MortenZenn | 1:38.26 | 0 | 0 |
| 1,477 | Yipp | 1:38.27 | 0 | 0 |
| 1,478 | Lankovich | 1:38.28 | 0 | 0 |
| 1,478 | JustB4DW0LF | 1:38.28 | 0 | 0 |
| 1,478 | starshift | 1:38.28 | 0 | 0 |
| 1,481 | L3g3nd | 1:38.38 | 0 | 0 |
| 1,481 | Wulg | 1:38.38 | 0 | 0 |
| 1,483 | fentanyl lover <3 | 1:38.39 | 0 | 0 |
| 1,484 | SaltyOvenSenpai | 1:38.40 | 0 | 0 |
| 1,484 | Aldebaran | 1:38.40 | 0 | 0 |
| 1,486 | Johnnino | 1:38.41 | 0 | 0 |
| 1,487 | Otomatac | 1:38.42 | 0 | 0 |
| 1,488 | Buttlet | 1:38.43 | 0 | 0 |
| 1,489 | Sturgathon | 1:38.44 | 0 | 0 |
| 1,490 | Rekshot | 1:38.49 | 0 | 0 |
| 1,491 | SmolSucc | 1:38.50 | 0 | 0 |
| 1,491 | Foxy 狐の夏 | 1:38.50 | 0 | 0 |
| 1,493 | BumbleFunkMcGee | 1:38.54 | 0 | 0 |
| 1,494 | Birb | 1:38.55 | 0 | 0 |
| 1,494 | hAwG | 1:38.55 | 0 | 0 |
| 1,496 | CymrakDD | 1:38.62 | 0 | 0 |
| 1,497 | Sunkaaaaaaaaan | 1:38.64 | 0 | 0 |
| 1,498 | passe_riviere | 1:38.68 | 0 | 0 |
| 1,498 | Jupiter One | 1:38.68 | 0 | 0 |
| 1,500 | Dacove | 1:38.70 | 0 | 0 |
| 1,501 | Wind Fae Maiden | 1:38.71 | 0 | 0 |
| 1,502 | Depschy | 1:38.72 | 0 | 0 |
| 1,503 | DarthTaco | 1:38.74 | 0 | 0 |
| 1,504 | Nadsat | 1:38.75 | 0 | 0 |
| 1,505 | Sage | 1:38.76 | 0 | 0 |
| 1,506 | gossamer | 1:38.77 | 0 | 0 |
| 1,506 | Redcost | 1:38.77 | 0 | 0 |
| 1,508 | siko | 1:38.79 | 0 | 0 |
| 1,509 | Greenfire DX | 1:38.82 | 0 | 0 |
| 1,509 | Шоколадка:) | 1:38.82 | 0 | 0 |
| 1,511 | Moon | 1:38.83 | 0 | 0 |
| 1,511 | Bafbaf | 1:38.83 | 0 | 0 |
| 1,513 | Draligøn | 1:38.84 | 0 | 0 |
| 1,514 | Onur_123 | 1:38.86 | 0 | 0 |
| 1,514 | Nesso | 1:38.86 | 0 | 0 |
| 1,516 | [REDACTED] | 1:38.88 | 0 | 0 |
| 1,516 | Reqke | 1:38.88 | 0 | 0 |
| 1,518 | ALT 2.0 | 1:38.89 | 0 | 0 |
| 1,519 | errant | 1:38.90 | 0 | 0 |
| 1,520 | Brutus228 | 1:38.94 | 0 | 0 |
| 1,521 | Art Vandelay | 1:38.98 | 0 | 0 |
| 1,521 | MatteCrystal | 1:38.98 | 0 | 0 |
| 1,521 | SaxyBoi | 1:38.98 | 0 | 0 |
| 1,524 | Sominin | 1:38.99 | 0 | 0 |
| 1,524 | Blexyde | 1:38.99 | 0 | 0 |
| 1,526 | menkaru | 1:39.00 | 0 | 0 |
| 1,527 | [NBD] PizzaHutDoxen | 1:39.06 | 0 | 0 |
| 1,528 | HockeyHero7 | 1:39.10 | 0 | 0 |
| 1,529 | [BIT] Iroden | 1:39.12 | 0 | 0 |
| 1,529 | usluvr | 1:39.12 | 0 | 0 |
| 1,531 | niiiiigatron | 1:39.15 | 0 | 0 |
| 1,532 | Goshanchik1337 | 1:39.17 | 0 | 0 |
| 1,533 | Uldergoff | 1:39.18 | 0 | 0 |
| 1,534 | N.M.E. | 1:39.20 | 0 | 0 |
| 1,535 | Legoyoda | 1:39.21 | 0 | 0 |
| 1,536 | Bugbeard | 1:39.22 | 0 | 0 |
| 1,537 | SIGSTACKFAULT | 1:39.27 | 0 | 0 |
| 1,538 | Ice Dragonhawk | 1:39.31 | 0 | 0 |
| 1,539 | Pan Nikt | 1:39.35 | 0 | 0 |
| 1,540 | matt ☯ | 1:39.43 | 0 | 0 |
| 1,541 | Bijan | 1:39.44 | 0 | 0 |
| 1,542 | aleda | 1:39.48 | 0 | 0 |
| 1,543 | T8Destroyer | 1:39.52 | 0 | 0 |
| 1,543 | Aastaroth | 1:39.52 | 0 | 0 |
| 1,545 | Malum Umbra | 1:39.58 | 0 | 0 |
| 1,546 | cfr34k | 1:39.60 | 0 | 0 |
| 1,547 | sendthefish | 1:39.62 | 0 | 0 |
| 1,548 | Vyneci | 1:39.67 | 0 | 0 |
| 1,549 | Oblivious | 1:39.68 | 0 | 0 |
| 1,550 | Jerico Pepino | 1:39.70 | 0 | 0 |
| 1,551 | Ryowulf768 | 1:39.84 | 0 | 0 |
| 1,551 | Dvvaine | 1:39.84 | 0 | 0 |
| 1,553 | Kibōchen | 1:39.85 | 0 | 0 |
| 1,554 | Luckylock | 1:39.89 | 0 | 0 |
| 1,555 | starhorder | 1:39.93 | 0 | 0 |
| 1,556 | _BrightDarkness_ | 1:39.96 | 0 | 0 |
| 1,557 | enejūto | 1:39.97 | 0 | 0 |
| 1,558 | Ditzy_Set | 1:40.08 | 0 | 0 |
| 1,559 | Jarne | 1:40.13 | 0 | 0 |
| 1,560 | De_etz | 1:40.16 | 0 | 0 |
| 1,561 | Opprop | 1:40.17 | 0 | 0 |
| 1,562 | Stuhli | 1:40.19 | 0 | 0 |
| 1,563 | ÆSTHETIC | 1:40.22 | 0 | 0 |
| 1,564 | GaMiiX46 | 1:40.25 | 0 | 0 |
| 1,565 | hip crusher | 1:40.29 | 0 | 0 |
| 1,566 | SquirrelSama | 1:40.34 | 0 | 0 |
| 1,567 | Dante | 1:40.35 | 0 | 0 |
| 1,568 | brovails | 1:40.40 | 0 | 0 |
| 1,569 | Arx | 1:40.43 | 0 | 0 |
| 1,570 | kinP inilletroT | 1:40.45 | 0 | 0 |
| 1,570 | djbdrummer | 1:40.45 | 0 | 0 |
| 1,572 | Detective Man | 1:40.49 | 0 | 0 |
| 1,572 | Garstine | 1:40.49 | 0 | 0 |
| 1,574 | Arvorian | 1:40.51 | 0 | 0 |
| 1,575 | Mikokko | 1:40.57 | 0 | 0 |
| 1,576 | Saphira Kai | 1:40.60 | 0 | 0 |
| 1,577 | Reaster | 1:40.61 | 0 | 0 |
| 1,578 | PINGU | 1:40.67 | 0 | 0 |
| 1,579 | VroomNDoom | 1:40.69 | 0 | 0 |
| 1,580 | ✱ Ale | 1:40.72 | 0 | 0 |
| 1,581 | Grimmy | 1:40.73 | 0 | 0 |
| 1,582 | lesbiancannibalism399396 | 1:40.84 | 0 | 0 |
| 1,583 | OneCent_HD | 1:40.85 | 0 | 0 |
| 1,584 | TTV.WordWord_ | 1:40.98 | 0 | 0 |
| 1,585 | Uganda Knuckles | 1:41.10 | 0 | 0 |
| 1,586 | Günther Fox | 1:41.11 | 0 | 0 |
| 1,587 | Shakawah | 1:41.12 | 0 | 0 |
| 1,588 | Amgel | 1:41.18 | 0 | 0 |
| 1,589 | Edelgard von Hresvelg | 1:41.25 | 0 | 0 |
| 1,590 | Confetti | 1:41.26 | 0 | 0 |
| 1,591 | raulpua | 1:41.28 | 0 | 0 |
| 1,592 | Xqzt Nemesis | 1:41.30 | 0 | 0 |
| 1,593 | Noace | 1:41.37 | 0 | 0 |
| 1,594 | berenji012 | 1:41.47 | 0 | 0 |
| 1,595 | ★ Star ★ | 1:41.55 | 0 | 0 |
| 1,596 | [deleted] | 1:41.56 | 0 | 0 |
| 1,597 | xy01 | 1:41.58 | 0 | 0 |
| 1,598 | MPR03a | 1:41.59 | 0 | 0 |
| 1,599 | Ms. ValeHopScale | 1:41.61 | 0 | 0 |
| 1,600 | Swayo | 1:41.63 | 0 | 0 |
| 1,601 | froge | 1:41.65 | 0 | 0 |
| 1,602 | Creepersrock24Gaming | 1:41.71 | 0 | 0 |
| 1,603 | Beef | 1:41.72 | 0 | 0 |
| 1,604 | King Cactus | 1:41.74 | 0 | 0 |
| 1,605 | TheGlitchedGuy | 1:41.77 | 0 | 0 |
| 1,606 | Infinity | 1:41.82 | 0 | 0 |
| 1,607 | But we're both girls! | 1:41.88 | 0 | 0 |
| 1,608 | jjsamachama | 1:41.89 | 0 | 0 |
| 1,609 | Garcia | 1:41.95 | 0 | 0 |
| 1,610 | lungfish | 1:41.96 | 0 | 0 |
| 1,611 | Kobayen | 1:41.98 | 0 | 0 |
| 1,612 | TheDoomslayer | 1:42.05 | 0 | 0 |
| 1,613 | MIAT | 1:42.08 | 0 | 0 |
| 1,614 | Tav | 1:42.10 | 0 | 0 |
| 1,615 | #KallorDidNothingWrong | 1:42.11 | 0 | 0 |
| 1,615 | snowstate | 1:42.11 | 0 | 0 |
| 1,617 | IfritDMC | 1:42.18 | 0 | 0 |
| 1,618 | 2-eeillustrationTTV | 1:42.24 | 0 | 0 |
| 1,619 | Hellburst | 1:42.27 | 0 | 0 |
| 1,620 | HeavyPress | 1:42.31 | 0 | 0 |
| 1,621 | Sondren1288 | 1:42.32 | 0 | 0 |
| 1,622 | cryptek_ | 1:42.35 | 0 | 0 |
| 1,623 | O QUEEEEEEEEEEEEEEEEE??? | 1:42.36 | 0 | 0 |
| 1,624 | awesomegopher | 1:42.37 | 0 | 0 |
| 1,624 | Heletilla | 1:42.37 | 0 | 0 |
| 1,626 | SparraNova | 1:42.43 | 0 | 0 |
| 1,627 | niarBaD | 1:42.46 | 0 | 0 |
| 1,627 | kriss | 1:42.46 | 0 | 0 |
| 1,629 | Pipsibean | 1:42.49 | 0 | 0 |
| 1,630 | Maru | 1:42.61 | 0 | 0 |
| 1,630 | SHUPINKLES | 1:42.61 | 0 | 0 |
| 1,630 | Engineer Gaming | 1:42.61 | 0 | 0 |
| 1,633 | Torja! | 1:42.65 | 0 | 0 |
| 1,634 | Nexus | 1:42.70 | 0 | 0 |
| 1,635 | huettner94 | 1:42.73 | 0 | 0 |
| 1,636 | クレイジー | 1:42.76 | 0 | 0 |
| 1,637 | Microkiller | 1:42.78 | 0 | 0 |
| 1,637 | lift ur pooltoy tail for me | 1:42.78 | 0 | 0 |
| 1,639 | ´H U E V O S' | 1:42.84 | 0 | 0 |
| 1,640 | UnlimitedDucks | 1:42.86 | 0 | 0 |
| 1,641 | Jepplez | 1:42.88 | 0 | 0 |
| 1,641 | SuperCrunch | 1:42.88 | 0 | 0 |
| 1,641 | Kerm | 1:42.88 | 0 | 0 |
| 1,644 | Brütal | 1:42.91 | 0 | 0 |
| 1,644 | Pal | 1:42.91 | 0 | 0 |
| 1,646 | Zebra | 1:42.98 | 0 | 0 |
| 1,647 | ToonFan2106 | 1:42.99 | 0 | 0 |
| 1,648 | Tschicky | 1:43.00 | 0 | 0 |
| 1,649 | FRΛCTURΞD SOUL | 1:43.05 | 0 | 0 |
| 1,650 | LunaPwny | 1:43.09 | 0 | 0 |
| 1,651 | Thr | 1:43.10 | 0 | 0 |
| 1,652 | GenericTrash™ | 1:43.24 | 0 | 0 |
| 1,653 | meep94 | 1:43.27 | 0 | 0 |
| 1,654 | hcg106 | 1:43.29 | 0 | 0 |
| 1,655 | Señor Bob | 1:43.33 | 0 | 0 |
| 1,656 | Daniel Penha | 1:43.36 | 0 | 0 |
| 1,657 | AFRQDED | 1:43.40 | 0 | 0 |
| 1,658 | GhostlyCryptid | 1:43.46 | 0 | 0 |
| 1,659 | Rolfforever | 1:43.49 | 0 | 0 |
| 1,659 | キング Raff 様 | 1:43.49 | 0 | 0 |
| 1,661 | Asasin_Lazer | 1:43.51 | 0 | 0 |
| 1,662 | Dango | 1:43.55 | 0 | 0 |
| 1,663 | Ael Khan [ BioShmock ] | 1:43.63 | 0 | 0 |
| 1,664 | Benzor | 1:43.65 | 0 | 0 |
| 1,665 | XD swish | 1:43.67 | 0 | 0 |
| 1,666 | Not a Clever Pony | 1:43.71 | 0 | 0 |
| 1,667 | Guy in Gold | 1:43.72 | 0 | 0 |
| 1,668 | KingSpammerNerd | 1:43.74 | 0 | 0 |
| 1,669 | SillyKitty | 1:43.76 | 0 | 0 |
| 1,670 | Funk 122 | 1:43.84 | 0 | 0 |
| 1,671 | Fig Newton | 1:43.87 | 0 | 0 |
| 1,672 | Sliding_hunter426 | 1:44.00 | 0 | 0 |
| 1,672 | RecursiveAssemblage | 1:44.00 | 0 | 0 |
| 1,674 | Nephuxs | 1:44.07 | 0 | 0 |
| 1,675 | e⁻ | 1:44.10 | 0 | 0 |
| 1,676 | mathewthekid | 1:44.18 | 0 | 0 |
| 1,677 | SeeinLag | 1:44.20 | 0 | 0 |
| 1,678 | Haui | 1:44.22 | 0 | 0 |
| 1,679 | Siwy | 1:44.27 | 0 | 0 |
| 1,680 | Alistair504 | 1:44.31 | 0 | 0 |
| 1,681 | leverposteifantomet | 1:44.35 | 0 | 0 |
| 1,682 | Vehin | 1:44.37 | 0 | 0 |
| 1,683 | Big Bootiecoot | 1:44.38 | 0 | 0 |
| 1,684 | Hightree | 1:44.51 | 0 | 0 |
| 1,685 | Aniv | 1:44.53 | 0 | 0 |
| 1,685 | DealingWithGaming | 1:44.53 | 0 | 0 |
| 1,687 | Blxckpanthaa | 1:44.61 | 0 | 0 |
| 1,688 | Gary Smith | 1:44.65 | 0 | 0 |
| 1,689 | frogman51 | 1:44.66 | 0 | 0 |
| 1,690 | Twiloore | 1:44.74 | 0 | 0 |
| 1,691 | Sgt. Giclette | 1:44.79 | 0 | 0 |
| 1,691 | Jeff The NERD | 1:44.79 | 0 | 0 |
| 1,693 | oatmealcookie | 1:44.81 | 0 | 0 |
| 1,694 | Cya | 1:44.83 | 0 | 0 |
| 1,695 | polybius99 | 1:44.84 | 0 | 0 |
| 1,696 | pox | 1:44.89 | 0 | 0 |
| 1,697 | Spotfire | 1:44.96 | 0 | 0 |
| 1,698 | stewthepoo | 1:44.97 | 0 | 0 |
| 1,699 | astralFitz | 1:44.98 | 0 | 0 |
| 1,700 | jumako | 1:45.03 | 0 | 0 |
| 1,701 | WindFish | 1:45.09 | 0 | 0 |
| 1,702 | Tokyo. | 1:45.13 | 0 | 0 |
| 1,703 | KZY | 1:45.14 | 0 | 0 |
| 1,704 | AnonSchlingel | 1:45.18 | 0 | 0 |
| 1,705 | draytonlyden | 1:45.24 | 0 | 0 |
| 1,706 | masterhenky | 1:45.29 | 0 | 0 |
| 1,707 | Misuri | 1:45.32 | 0 | 0 |
| 1,708 | Reid | 1:45.41 | 0 | 0 |
| 1,709 | D-Z-U-E-T | 1:45.47 | 0 | 0 |
| 1,710 | C4 connoisseur | 1:45.51 | 0 | 0 |
| 1,711 | Cylex | 1:45.58 | 0 | 0 |
| 1,712 | Lena_thePilot | 1:45.59 | 0 | 0 |
| 1,713 | erwtret | 1:45.61 | 0 | 0 |
| 1,714 | GryphShot | 1:45.63 | 0 | 0 |
| 1,715 | Dekkosun™ | 1:45.71 | 0 | 0 |
| 1,716 | Weird Autumn | 1:45.74 | 0 | 0 |
| 1,717 | a beaver | 1:45.75 | 0 | 0 |
| 1,718 | Penous | 1:45.86 | 0 | 0 |
| 1,719 | Ploogus | 1:45.95 | 0 | 0 |
| 1,720 | Welkin | 1:45.96 | 0 | 0 |
| 1,721 | Kadaen | 1:46.00 | 0 | 0 |
| 1,722 | Titimilk123 | 1:46.01 | 0 | 0 |
| 1,723 | Slater | 1:46.02 | 0 | 0 |
| 1,723 | Kivvi | 1:46.02 | 0 | 0 |
| 1,725 | Frostnetz | 1:46.11 | 0 | 0 |
| 1,726 | TastyBatSoup | 1:46.12 | 0 | 0 |
| 1,727 | Slip | 1:46.14 | 0 | 0 |
| 1,728 | Flex | 1:46.16 | 0 | 0 |
| 1,729 | Fangs1011 | 1:46.22 | 0 | 0 |
| 1,730 | nyanfish | 1:46.28 | 0 | 0 |
| 1,730 | Humphry | 1:46.28 | 0 | 0 |
| 1,732 | Hamster | 1:46.35 | 0 | 0 |
| 1,732 | Skyler Fox | 1:46.35 | 0 | 0 |
| 1,734 | malevilend | 1:46.38 | 0 | 0 |
| 1,735 | mrg.dem | 1:46.43 | 0 | 0 |
| 1,736 | AesirMouse | 1:46.62 | 0 | 0 |
| 1,736 | AWACS Pixy | 1:46.62 | 0 | 0 |
| 1,738 | notAlex | 1:46.66 | 0 | 0 |
| 1,738 | VAL | Giogio | 1:46.66 | 0 | 0 |
| 1,740 | [LSD] Cryptex | 1:46.74 | 0 | 0 |
| 1,741 | McFrydo | 1:46.82 | 0 | 0 |
| 1,741 | TG | 1:46.82 | 0 | 0 |
| 1,743 | Scientology Drip | 1:46.96 | 0 | 0 |
| 1,744 | Keadrin | 1:47.03 | 0 | 0 |
| 1,745 | Tute710 | 1:47.05 | 0 | 0 |
| 1,746 | DriveOffTheCliff | 1:47.07 | 0 | 0 |
| 1,747 | Gurgy | 1:47.21 | 0 | 0 |
| 1,748 | Traxun | 1:47.22 | 0 | 0 |
| 1,749 | TheHimta | 1:47.31 | 0 | 0 |
| 1,750 | l2uStefka | 1:47.35 | 0 | 0 |
| 1,750 | Bing Chilling | 1:47.35 | 0 | 0 |
| 1,752 | Oonsay | 1:47.36 | 0 | 0 |
| 1,753 | PhantomKnightly | 1:47.44 | 0 | 0 |
| 1,754 | CygnusAutomata | 1:47.49 | 0 | 0 |
| 1,755 | STUDZ | 1:47.61 | 0 | 0 |
| 1,756 | Delta | 1:47.64 | 0 | 0 |
| 1,757 | XCVIBUR | 1:47.66 | 0 | 0 |
| 1,757 | Arresson | 1:47.66 | 0 | 0 |
| 1,759 | Koussevitzky | 1:47.67 | 0 | 0 |
| 1,760 | Monsieur doc | 1:47.69 | 0 | 0 |
| 1,761 | Alex | 1:47.72 | 0 | 0 |
| 1,762 | Synchronize | 1:47.75 | 0 | 0 |
| 1,763 | Hold my Hand | 1:47.77 | 0 | 0 |
| 1,764 | Samuel9248 | 1:47.80 | 0 | 0 |
| 1,765 | Divides-By-Null | 1:47.87 | 0 | 0 |
| 1,766 | OTBD | 1:47.88 | 0 | 0 |
| 1,767 | WolfGamesHD | 1:47.94 | 0 | 0 |
| 1,768 | Clockaru | 1:47.97 | 0 | 0 |
| 1,769 | G5TNo2486 | 1:48.01 | 0 | 0 |
| 1,770 | delicious Croutons | 1:48.10 | 0 | 0 |
| 1,771 | A Very Scary Skelly | 1:48.13 | 0 | 0 |
| 1,772 | Then000bster | 1:48.15 | 0 | 0 |
| 1,772 | Zenixic | 1:48.15 | 0 | 0 |
| 1,774 | Shinchi Shiroi | 1:48.18 | 0 | 0 |
| 1,775 | Pegone | 1:48.21 | 0 | 0 |
| 1,776 | Simon | 1:48.25 | 0 | 0 |
| 1,777 | marrowick | 1:48.33 | 0 | 0 |
| 1,778 | Machine Entity | 1:48.34 | 0 | 0 |
| 1,779 | Naikō | 1:48.35 | 0 | 0 |
| 1,780 | !HPN!*1*P.NOEL | 1:48.36 | 0 | 0 |
| 1,781 | thisguyLuis | 1:48.37 | 0 | 0 |
| 1,782 | Spuge | 1:48.39 | 0 | 0 |
| 1,783 | Arca | 1:48.40 | 0 | 0 |
| 1,784 | Melty | 1:48.41 | 0 | 0 |
| 1,785 | JSomber | 1:48.42 | 0 | 0 |
| 1,786 | Лолисичка | 1:48.44 | 0 | 0 |
| 1,786 | Buster | 1:48.44 | 0 | 0 |
| 1,788 | Weaponized Ligma | 1:48.49 | 0 | 0 |
| 1,789 | Monte Python | 1:48.52 | 0 | 0 |
| 1,790 | [T-PP] Kenichiros | 1:48.53 | 0 | 0 |
| 1,791 | Rikuru_3217 | 1:48.55 | 0 | 0 |
| 1,792 | Norz-Öril'Kern | 1:48.68 | 0 | 0 |
| 1,793 | Mati | 1:48.69 | 0 | 0 |
| 1,794 | shaw | 1:48.72 | 0 | 0 |
| 1,795 | DotN | 1:48.75 | 0 | 0 |
| 1,796 | Soap | 1:48.77 | 0 | 0 |
| 1,797 | SirDeyong | 1:48.78 | 0 | 0 |
| 1,797 | Jaymber | 1:48.78 | 0 | 0 |
| 1,799 | Сосёна | 1:48.82 | 0 | 0 |
| 1,800 | epicRedHot | 1:48.86 | 0 | 0 |
| 1,801 | ThadeusBK | 1:48.88 | 0 | 0 |
| 1,802 | Helpeg | 1:49.06 | 0 | 0 |
| 1,803 | Avenjja | 1:49.09 | 0 | 0 |
| 1,804 | Grimjar | 1:49.14 | 0 | 0 |
| 1,805 | singingsteel | 1:49.19 | 0 | 0 |
| 1,806 | Dakenon | 1:49.23 | 0 | 0 |
| 1,806 | dcawthon41 | 1:49.23 | 0 | 0 |
| 1,808 | Saucemonger | 1:49.29 | 0 | 0 |
| 1,809 | Liningcorn9 | 1:49.31 | 0 | 0 |
| 1,809 | iolyt | 1:49.31 | 0 | 0 |
| 1,811 | Magister Ludi | 1:49.39 | 0 | 0 |
| 1,812 | Mr. Owl | 1:49.45 | 0 | 0 |
| 1,813 | rilelyscastle | 1:49.46 | 0 | 0 |
| 1,814 | CatMeme | 1:49.52 | 0 | 0 |
| 1,815 | Melon | 1:49.57 | 0 | 0 |
| 1,815 | kal3cy | 1:49.57 | 0 | 0 |
| 1,815 | Petitmouton... | 1:49.57 | 0 | 0 |
| 1,818 | Dave | 1:49.59 | 0 | 0 |
| 1,819 | Dick Station Gas Pills | 1:49.63 | 0 | 0 |
| 1,820 | PsycheGlitch | 1:49.66 | 0 | 0 |
| 1,821 | Wyattwashere | 1:49.69 | 0 | 0 |
| 1,822 | Katesa | 1:49.70 | 0 | 0 |
| 1,823 | Xenobyte | 1:49.75 | 0 | 0 |
| 1,824 | Methler | 1:49.79 | 0 | 0 |
| 1,825 | Zeezadoobee | 1:49.85 | 0 | 0 |
| 1,826 | Fuffmydog | 1:49.86 | 0 | 0 |
| 1,827 | Ian | 1:49.90 | 0 | 0 |
| 1,828 | gizzard | 1:49.91 | 0 | 0 |
| 1,828 | Melon | 1:49.91 | 0 | 0 |
| 1,830 | joshrod | 1:49.92 | 0 | 0 |
| 1,831 | robomike27 | 1:49.93 | 0 | 0 |
| 1,832 | Bronzeclaw | 1:49.98 | 0 | 0 |
| 1,833 | Maja | 1:49.99 | 0 | 0 |
| 1,834 | 8SIX | 1:50.01 | 0 | 0 |
| 1,835 | Deep Seed | 1:50.03 | 0 | 0 |
| 1,836 | Duffwuff | 1:50.04 | 0 | 0 |
| 1,837 | Glory | 1:50.05 | 0 | 0 |
| 1,838 | Exoman | 1:50.09 | 0 | 0 |
| 1,838 | Shay | 1:50.09 | 0 | 0 |
| 1,840 | CapleGuion | 1:50.14 | 0 | 0 |
| 1,840 | TripleG58 | 1:50.14 | 0 | 0 |
| 1,842 | Mr. Toasty | 1:50.18 | 0 | 0 |
| 1,843 | The Soviet | 1:50.21 | 0 | 0 |
| 1,844 | Internet Felon | 1:50.24 | 0 | 0 |
| 1,845 | ♡ | 1:50.28 | 0 | 0 |
| 1,846 | crozak | 1:50.35 | 0 | 0 |
| 1,847 | Bob | 1:50.36 | 0 | 0 |
| 1,848 | redtpx | 1:50.48 | 0 | 0 |
| 1,849 | Sateez | 1:50.52 | 0 | 0 |
| 1,850 | LiquidShark | 1:50.54 | 0 | 0 |
| 1,851 | MK | 1:50.56 | 0 | 0 |
| 1,852 | StoicSirius | 1:50.58 | 0 | 0 |
| 1,853 | AVeryTastyCactus | 1:50.59 | 0 | 0 |
| 1,854 | Alastrion | 1:50.66 | 0 | 0 |
| 1,855 | Zenedar | 1:50.72 | 0 | 0 |
| 1,856 | Bombadilla | 1:50.73 | 0 | 0 |
| 1,857 | Bandit | 1:50.78 | 0 | 0 |
| 1,858 | The 2000 Minnesota Vikings | 1:50.81 | 0 | 0 |
| 1,859 | Weegee | 1:50.83 | 0 | 0 |
| 1,860 | AngelDust | 1:50.84 | 0 | 0 |
| 1,861 | Vithor14 | 1:50.86 | 0 | 0 |
| 1,862 | ΔΓΨΧ | 1:50.88 | 0 | 0 |
| 1,863 | prodbyhuff | 1:50.90 | 0 | 0 |
| 1,864 | KORG | 1:50.94 | 0 | 0 |
| 1,865 | GlowDoggo | 1:51.06 | 0 | 0 |
| 1,865 | Alexander | 1:51.06 | 0 | 0 |
| 1,867 | jlg12dna | 1:51.08 | 0 | 0 |
| 1,868 | neurofox | 1:51.13 | 0 | 0 |
| 1,869 | Yort | 1:51.18 | 0 | 0 |
| 1,870 | Samuel | 1:51.20 | 0 | 0 |
| 1,871 | J1F2HD | 1:51.21 | 0 | 0 |
| 1,872 | youtube vembress | 1:51.34 | 0 | 0 |
| 1,873 | MarlonH8 | 1:51.39 | 0 | 0 |
| 1,874 | Kaytxasres | 1:51.43 | 0 | 0 |
| 1,875 | キタ一一(゚∀゚)一一!! | 1:51.46 | 0 | 0 |
| 1,876 | Ben | 1:51.49 | 0 | 0 |
| 1,876 | Minefreak6633 | 1:51.49 | 0 | 0 |
| 1,878 | Xanday | 1:51.53 | 0 | 0 |
| 1,879 | Tommy Wiseau | 1:51.59 | 0 | 0 |
| 1,880 | Yanko | 1:51.65 | 0 | 0 |
| 1,881 | xander | 1:51.69 | 0 | 0 |
| 1,882 | BLACKFIDDY | 1:51.71 | 0 | 0 |
| 1,883 | Silverfeelin | 1:51.72 | 0 | 0 |
| 1,884 | Qbetex | 1:51.75 | 0 | 0 |
| 1,885 | Eggs Dee | 1:51.82 | 0 | 0 |
| 1,886 | Livonius | 1:51.90 | 0 | 0 |
| 1,887 | DimitriOS | 1:51.91 | 0 | 0 |
| 1,888 | ☢REA2PER☢ | 1:51.99 | 0 | 0 |
| 1,889 | Martin | 1:52.02 | 0 | 0 |
| 1,890 | bmrc97 | 1:52.03 | 0 | 0 |
| 1,891 | Skimmy Fudge | 1:52.07 | 0 | 0 |
| 1,891 | IzPaladin | 1:52.07 | 0 | 0 |
| 1,893 | Emazeco | 1:52.10 | 0 | 0 |
| 1,894 | ^1HIV+ ^7|^9 Startkopierer | 1:52.14 | 0 | 0 |
| 1,895 | Bixia | 1:52.16 | 0 | 0 |
| 1,896 | forestbeasts | 1:52.17 | 0 | 0 |
| 1,896 | Vlad von Ravensberg | 1:52.17 | 0 | 0 |
| 1,898 | Kiets | 1:52.24 | 0 | 0 |
| 1,899 | Sr. Galán | 1:52.25 | 0 | 0 |
| 1,900 | BedrokiV | 1:52.28 | 0 | 0 |
| 1,901 | TOYTOY | 1:52.32 | 0 | 0 |
| 1,902 | TheFluffyDragon/JBSTheGamer | 1:52.34 | 0 | 0 |
| 1,903 | HalfPathetic | 1:52.35 | 0 | 0 |
| 1,903 | Your Fav Baka | 1:52.35 | 0 | 0 |
| 1,905 | Monkey D. Skooma | 1:52.51 | 0 | 0 |
| 1,906 | ПИВНОЙ БАРОН | 1:52.53 | 0 | 0 |
| 1,906 | Simon911 | 1:52.53 | 0 | 0 |
| 1,908 | [SIVA] Ethoman140 | 1:52.58 | 0 | 0 |
| 1,909 | PotatoAnimation | 1:52.62 | 0 | 0 |
| 1,910 | AlpacaMan | 1:52.79 | 0 | 0 |
| 1,910 | Daft Deity | 1:52.79 | 0 | 0 |
| 1,912 | smallflatwhite | 1:52.86 | 0 | 0 |
| 1,912 | Narty | 1:52.86 | 0 | 0 |
| 1,914 | ✪Сталин✪ | 1:52.96 | 0 | 0 |
| 1,915 | Ziguin | 1:52.99 | 0 | 0 |
| 1,915 | WeArentAce | 1:52.99 | 0 | 0 |
| 1,917 | Tino's Cat | 1:53.01 | 0 | 0 |
| 1,918 | MoogSpoogler | 1:53.02 | 0 | 0 |
| 1,919 | ColdRamen | 1:53.10 | 0 | 0 |
| 1,919 | Windrunner | 1:53.10 | 0 | 0 |
| 1,921 | Mash | 1:53.15 | 0 | 0 |
| 1,922 | Relume | 1:53.24 | 0 | 0 |
| 1,923 | sweet like pepsi | 1:53.25 | 0 | 0 |
| 1,924 | DukeofLeet | 1:53.36 | 0 | 0 |
| 1,925 | Norminal | 1:53.38 | 0 | 0 |
| 1,926 | Tretopcarter | 1:53.40 | 0 | 0 |
| 1,927 | wolf d okai | 1:53.44 | 0 | 0 |
| 1,928 | Katastrophe | 1:53.47 | 0 | 0 |
| 1,929 | JamsGaming23 | 1:53.53 | 0 | 0 |
| 1,930 | 2RΞZΞH-04 | 1:53.69 | 0 | 0 |
| 1,931 | Axien | 1:53.74 | 0 | 0 |
| 1,932 | Pampou | 1:53.76 | 0 | 0 |
| 1,933 | Phaserlight | 1:53.77 | 0 | 0 |
| 1,933 | Aventurain | 1:53.77 | 0 | 0 |
| 1,935 | ֆהტϣ | 1:53.78 | 0 | 0 |
| 1,935 | DEK | 1:53.78 | 0 | 0 |
| 1,937 | Bistdocs | 1:53.79 | 0 | 0 |
| 1,937 | FrostCorp | 1:53.79 | 0 | 0 |
| 1,939 | Kumi | 1:53.80 | 0 | 0 |
| 1,940 | Xenu | 1:53.84 | 0 | 0 |
| 1,941 | Azzy | 1:53.85 | 0 | 0 |
| 1,942 | DarkShadow | 1:53.98 | 0 | 0 |
| 1,943 | Sugoi-desu (⊙‿⊙✿) | 1:53.99 | 0 | 0 |
| 1,944 | Энт | 1:54.01 | 0 | 0 |
| 1,945 | suicidal Cop | 1:54.07 | 0 | 0 |
| 1,946 | Grubby Fingers | 1:54.09 | 0 | 0 |
| 1,947 | Martins Leggeul | 1:54.12 | 0 | 0 |
| 1,948 | F3 Force | 1:54.25 | 0 | 0 |
| 1,949 | Mrlong2 | 1:54.27 | 0 | 0 |
| 1,950 | A Y P O K | 1:54.30 | 0 | 0 |
| 1,951 | Hômɓer | 1:54.34 | 0 | 0 |
| 1,952 | graveflower | 1:54.36 | 0 | 0 |
| 1,953 | H€M$TY | 1:54.58 | 0 | 0 |
| 1,954 | SauronGamer | 1:54.91 | 0 | 0 |
| 1,955 | Astron | 1:54.96 | 0 | 0 |
| 1,956 | Ape Tea | 1:54.97 | 0 | 0 |
| 1,957 | FlantasticMad | 1:55.03 | 0 | 0 |
| 1,958 | RosCope | 1:55.04 | 0 | 0 |
| 1,959 | Takrono | 1:55.06 | 0 | 0 |
| 1,960 | BlazyFang | 1:55.12 | 0 | 0 |
| 1,961 | Dominion | 1:55.28 | 0 | 0 |
| 1,962 | dracostef | 1:55.29 | 0 | 0 |
| 1,963 | Will_2Live | 1:55.32 | 0 | 0 |
| 1,964 | Orphan Lion | 1:55.38 | 0 | 0 |
| 1,965 | Artifact | 1:55.64 | 0 | 0 |
| 1,966 | Judge Dredd Begley Jr. | 1:55.66 | 0 | 0 |
| 1,967 | Dusty | 1:55.74 | 0 | 0 |
| 1,968 | Palkia88 | 1:55.76 | 0 | 0 |
| 1,969 | Swarchez | 1:55.80 | 0 | 0 |
| 1,970 | BlackIRL | 1:55.87 | 0 | 0 |
| 1,971 | TehWongOne | 1:55.96 | 0 | 0 |
| 1,972 | Shikhuh | 1:56.03 | 0 | 0 |
| 1,973 | DJ McBirde | 1:56.04 | 0 | 0 |
| 1,974 | Pikancer | 1:56.09 | 0 | 0 |
| 1,975 | alleycat | 1:56.17 | 0 | 0 |
| 1,976 | Philing_Good | 1:56.22 | 0 | 0 |
| 1,977 | Neenis | 1:56.24 | 0 | 0 |
| 1,978 | smashingdrop17 | 1:56.28 | 0 | 0 |
| 1,979 | Horus1939 | 1:56.31 | 0 | 0 |
| 1,980 | kchi | 1:56.37 | 0 | 0 |
| 1,981 | Raven | 1:56.41 | 0 | 0 |
| 1,981 | FlyingAndorinha | 1:56.41 | 0 | 0 |
| 1,983 | I Misclicked | 1:56.44 | 0 | 0 |
| 1,984 | andris55 | 1:56.49 | 0 | 0 |
| 1,985 | cubemaster333 | 1:56.50 | 0 | 0 |
| 1,986 | BombLance | 1:56.53 | 0 | 0 |
| 1,987 | Solar | 1:56.56 | 0 | 0 |
| 1,987 | Alfael | 1:56.56 | 0 | 0 |
| 1,989 | StarMiku039 | 1:56.63 | 0 | 0 |
| 1,990 | Hazel | 1:56.64 | 0 | 0 |
| 1,991 | NoZra | 1:56.67 | 0 | 0 |
| 1,992 | Darkness | 1:56.71 | 0 | 0 |
| 1,993 | God | 1:56.80 | 0 | 0 |
| 1,994 | フ丨几Ꮆ_フ卂几 | 1:56.89 | 0 | 0 |
| 1,995 | Raiden | 1:56.92 | 0 | 0 |
| 1,996 | Wolffie | 1:56.94 | 0 | 0 |
| 1,997 | Skyhighpizzapie | 1:56.96 | 0 | 0 |
| 1,998 | Meme | 1:56.98 | 0 | 0 |
| 1,999 | Nagrom | 1:57.00 | 0 | 0 |
| 2,000 | Noa3 | 1:57.01 | 0 | 0 |
| 2,000 | Masa Di GOLD | 1:57.01 | 0 | 0 |
| 2,002 | PixelPython | 1:57.02 | 0 | 0 |
| 2,002 | Dan43 | 1:57.02 | 0 | 0 |
| 2,004 | Lee | 1:57.05 | 0 | 0 |
| 2,005 | Naprecks | 1:57.18 | 0 | 0 |
| 2,005 | kipi[kV] | 1:57.18 | 0 | 0 |
| 2,007 | Armesio | 1:57.21 | 0 | 0 |
| 2,008 | sevenofnone | 1:57.22 | 0 | 0 |
| 2,009 | Nilson Izaias Papinho | 1:57.23 | 0 | 0 |
| 2,010 | Deyla | 1:57.33 | 0 | 0 |
| 2,010 | light | 1:57.33 | 0 | 0 |
| 2,012 | supa scoopa | 1:57.35 | 0 | 0 |
| 2,013 | chanciestmink78 | 1:57.42 | 0 | 0 |
| 2,014 | rusin00 | 1:57.43 | 0 | 0 |
| 2,015 | PayPalMeFuzzby | 1:57.45 | 0 | 0 |
| 2,016 | ␀ | 1:57.53 | 0 | 0 |
| 2,017 | Lordpizzaroll | 1:57.54 | 0 | 0 |
| 2,017 | Maverick71 | 1:57.54 | 0 | 0 |
| 2,019 | ilyneyo | 1:57.61 | 0 | 0 |
| 2,020 | Krull | 1:57.62 | 0 | 0 |
| 2,021 | Sildrae45 | 1:57.68 | 0 | 0 |
| 2,022 | Internet Freak | 1:57.73 | 0 | 0 |
| 2,022 | blah blah blah | 1:57.73 | 0 | 0 |
| 2,024 | Sabo9011 | 1:57.74 | 0 | 0 |
| 2,025 | Aero 🌐 | 1:57.81 | 0 | 0 |
| 2,026 | 2002 Hyundai Getz | 1:57.86 | 0 | 0 |
| 2,027 | Kecha | 1:57.88 | 0 | 0 |
| 2,028 | Sephyrias | 1:57.90 | 0 | 0 |
| 2,029 | dialupmodern | 1:57.94 | 0 | 0 |
| 2,030 | Vin Diesel Mailbox | 1:58.00 | 0 | 0 |
| 2,031 | Blitzfalke2000 | 1:58.04 | 0 | 0 |
| 2,032 | Puzzleless | 1:58.17 | 0 | 0 |
| 2,033 | SwagCorn | 1:58.30 | 0 | 0 |
| 2,034 | LemonBoi | 1:58.34 | 0 | 0 |
| 2,035 | Dinkleberg | 1:58.37 | 0 | 0 |
| 2,036 | Old Bastard | 1:58.45 | 0 | 0 |
| 2,037 | Marsopa. | 1:58.46 | 0 | 0 |
| 2,037 | Baricus | 1:58.46 | 0 | 0 |
| 2,039 | ShyGuyEkxim | 1:58.63 | 0 | 0 |
| 2,040 | Jeff der Schwitzer | 1:58.64 | 0 | 0 |
| 2,041 | LunaticLuna | 1:58.69 | 0 | 0 |
| 2,042 | ℜ|(_TNT_)-*O_O! | 1:58.72 | 0 | 0 |
| 2,043 | CturiX | 1:58.93 | 0 | 0 |
| 2,043 | -≺Zinc≻- | 1:58.93 | 0 | 0 |
| 2,045 | Spoodertron | 1:58.94 | 0 | 0 |
| 2,046 | Interpunct | 1:58.95 | 0 | 0 |
| 2,047 | Bun Cruncher | 1:58.97 | 0 | 0 |
| 2,048 | Apoctix | 1:59.08 | 0 | 0 |
| 2,049 | Beuwulf | 1:59.11 | 0 | 0 |
| 2,050 | Disfigurement | 1:59.16 | 0 | 0 |
| 2,051 | AERO | 1:59.22 | 0 | 0 |
| 2,052 | GD Taylor | 1:59.31 | 0 | 0 |
| 2,053 | Sticky Fudge Fingers | 1:59.38 | 0 | 0 |
| 2,054 | Owlkaline | 1:59.45 | 0 | 0 |
| 2,054 | Juni | 1:59.45 | 0 | 0 |
| 2,056 | TheEntireUniverse | 1:59.51 | 0 | 0 |
| 2,056 | arafis1 | 1:59.51 | 0 | 0 |
| 2,058 | Dragonite11325 | 1:59.53 | 0 | 0 |
| 2,059 | PanFro | 1:59.56 | 0 | 0 |
| 2,060 | Samadamadingdong | 1:59.60 | 0 | 0 |
| 2,061 | $teveɳ | 1:59.61 | 0 | 0 |
| 2,062 | Merle | 1:59.69 | 0 | 0 |
| 2,063 | Pingu | 1:59.71 | 0 | 0 |
| 2,064 | Steaz | 1:59.78 | 0 | 0 |
| 2,065 | clarkbar | 1:59.81 | 0 | 0 |
| 2,066 | AdmiralTails | 1:59.86 | 0 | 0 |
| 2,067 | rustihkov | 1:59.92 | 0 | 0 |
| 2,068 | Bilbobangboom | 2:00.07 | 0 | 0 |
| 2,069 | FLUFYbluBUNYman | 2:00.11 | 0 | 0 |
| 2,070 | Tomati | 2:00.12 | 0 | 0 |
| 2,071 | Angular Anomaly | 2:00.19 | 0 | 0 |
| 2,072 | ushizi | 2:00.29 | 0 | 0 |
| 2,073 | Wylde | 2:00.41 | 0 | 0 |
| 2,074 | Adrimg_rider | 2:00.42 | 0 | 0 |
| 2,075 | Tuvox | 2:00.44 | 0 | 0 |
| 2,076 | Leo Cantus | 2:00.57 | 0 | 0 |
| 2,077 | Dr. Trevorkian | 2:00.73 | 0 | 0 |
| 2,078 | DarkSide | 2:00.78 | 0 | 0 |
| 2,079 | Xyvine | 2:00.82 | 0 | 0 |
| 2,080 | MCSkatCat | 2:00.86 | 0 | 0 |
| 2,081 | nsɐʞkasu | 2:00.93 | 0 | 0 |
| 2,082 | Eternal | 2:00.94 | 0 | 0 |
| 2,083 | DANTABLACK | 2:00.97 | 0 | 0 |
| 2,084 | Well Shit | 2:01.01 | 0 | 0 |
| 2,085 | Cindercoat | 2:01.09 | 0 | 0 |
| 2,086 | Raharu Haruha | 2:01.14 | 0 | 0 |
| 2,087 | AndonisLP | 2:01.20 | 0 | 0 |
| 2,088 | Kobura! | 2:01.23 | 0 | 0 |
| 2,089 | Skrigar | 2:01.26 | 0 | 0 |
| 2,090 | Eternal Blue | 2:01.28 | 0 | 0 |
| 2,091 | [AHP]Shovel/Gameslife | 2:01.29 | 0 | 0 |
| 2,092 | Cae | 2:01.31 | 0 | 0 |
| 2,092 | Deggles | 2:01.31 | 0 | 0 |
| 2,094 | BlunicoxD | 2:01.33 | 0 | 0 |
| 2,095 | EXP 33 GOTY | 2:01.41 | 0 | 0 |
| 2,096 | VectorWuffy | 2:01.44 | 0 | 0 |
| 2,097 | Deathghost [FR] | 2:01.49 | 0 | 0 |
| 2,098 | Ptoughneigh | 2:01.50 | 0 | 0 |
| 2,099 | Mouseochism | 2:01.52 | 0 | 0 |
| 2,100 | The Mighty Spoon™ | 2:01.59 | 0 | 0 |
| 2,101 | Poofoo | 2:01.64 | 0 | 0 |
| 2,102 | Solvalou | 2:01.76 | 0 | 0 |
| 2,103 | Fénix | 2:01.80 | 0 | 0 |
| 2,104 | Can'tKickNitrox2 | 2:01.84 | 0 | 0 |
| 2,105 | VP_Halo | 2:01.86 | 0 | 0 |
| 2,106 | KingGurke | 2:01.87 | 0 | 0 |
| 2,107 | Treme | 2:01.90 | 0 | 0 |
| 2,108 | James Boned | 2:02.05 | 0 | 0 |
| 2,109 | PvtParts | 2:02.10 | 0 | 0 |
| 2,110 | nope | 2:02.24 | 0 | 0 |
| 2,111 | Spartan117® | 2:02.50 | 0 | 0 |
| 2,112 | HISKI LP | 2:02.51 | 0 | 0 |
| 2,113 | Pteroborne | 2:02.54 | 0 | 0 |
| 2,114 | Firestix | 2:02.58 | 0 | 0 |
| 2,115 | Alekcsy | 2:02.64 | 0 | 0 |
| 2,116 | KrigerianoRO | 2:02.74 | 0 | 0 |
| 2,117 | Xiotis | 2:02.82 | 0 | 0 |
| 2,118 | Sir Noscers | 2:02.85 | 0 | 0 |
| 2,119 | Pesky Bee | 2:02.88 | 0 | 0 |
| 2,119 | Srkudos | 2:02.88 | 0 | 0 |
| 2,121 | Aerox | 2:02.91 | 0 | 0 |
| 2,121 | Andrew Elbreck | 2:02.91 | 0 | 0 |
| 2,121 | darki | 2:02.91 | 0 | 0 |
| 2,124 | Aquanovae | 2:02.95 | 0 | 0 |
| 2,125 | Bierb | 2:03.01 | 0 | 0 |
| 2,126 | Doomey | 2:03.10 | 0 | 0 |
| 2,127 | Sacrous | 2:03.13 | 0 | 0 |
| 2,128 | Khornefl4ke5 | 2:03.14 | 0 | 0 |
| 2,129 | DigitalEden | 2:03.15 | 0 | 0 |
| 2,130 | tsatsae | 2:03.16 | 0 | 0 |
| 2,131 | Dwyer | 2:03.18 | 0 | 0 |
| 2,131 | Palmyra | 2:03.18 | 0 | 0 |
| 2,133 | Xelas25 | 2:03.22 | 0 | 0 |
| 2,134 | Cpt Sauce Bucket | 2:03.25 | 0 | 0 |
| 2,134 | DON DIGIDON | 2:03.25 | 0 | 0 |
| 2,136 | Peaceful | 2:03.26 | 0 | 0 |
| 2,137 | Newtalot | 2:03.29 | 0 | 0 |
| 2,138 | vZ.R3DBACK | 2:03.30 | 0 | 0 |
| 2,139 | Calcarious | 2:03.32 | 0 | 0 |
| 2,140 | China Anne McClain | 2:03.33 | 0 | 0 |
| 2,141 | Asoyman | 2:03.48 | 0 | 0 |
| 2,142 | The Stig | 2:03.49 | 0 | 0 |
| 2,143 | Nominal | 2:03.58 | 0 | 0 |
| 2,144 | СОВА | 2:03.63 | 0 | 0 |
| 2,145 | TomMyyY | 2:03.68 | 0 | 0 |
| 2,145 | B E E B U S ⛍ | 2:03.68 | 0 | 0 |
| 2,145 | Banana Pel | 2:03.68 | 0 | 0 |
| 2,148 | toomtoomX | 2:03.73 | 0 | 0 |
| 2,149 | julio_alexx | 2:03.75 | 0 | 0 |
| 2,150 | Soupy | 2:03.85 | 0 | 0 |
| 2,151 | Big Guy | 2:03.90 | 0 | 0 |
| 2,152 | Finmorr | 2:04.12 | 0 | 0 |
| 2,153 | VZD | 2:04.13 | 0 | 0 |
| 2,153 | Jezo | 2:04.13 | 0 | 0 |
| 2,155 | Trobocop | 2:04.15 | 0 | 0 |
| 2,156 | Mezzopiano | 2:04.16 | 0 | 0 |
| 2,157 | _olivia | 2:04.17 | 0 | 0 |
| 2,157 | Rurtanar | 2:04.17 | 0 | 0 |
| 2,159 | snugy_wumpkins [TNF] | 2:04.22 | 0 | 0 |
| 2,160 | blamecoopa | 2:04.45 | 0 | 0 |
| 2,160 | BraveSirRobin | 2:04.45 | 0 | 0 |
| 2,162 | dragnor | 2:04.48 | 0 | 0 |
| 2,163 | The Fonz | 2:04.65 | 0 | 0 |
| 2,164 | Reus | 2:04.67 | 0 | 0 |
| 2,165 | fedex | 2:04.73 | 0 | 0 |
| 2,166 | BluSharpie | 2:04.75 | 0 | 0 |
| 2,167 | cantadhastalospatos | 2:04.83 | 0 | 0 |
| 2,168 | Lupi | 2:04.86 | 0 | 0 |
| 2,169 | alextapfish | 2:04.89 | 0 | 0 |
| 2,170 | Gureumi | 2:04.90 | 0 | 0 |
| 2,170 | .:::UwU:::. | 2:04.90 | 0 | 0 |
| 2,172 | aviarus (proton-ge) | 2:05.02 | 0 | 0 |
| 2,172 | RitchiArts | 2:05.02 | 0 | 0 |
| 2,174 | doomsday device | 2:05.23 | 0 | 0 |
| 2,175 | Merex | 2:05.31 | 0 | 0 |
| 2,176 | Masqeraid | 2:05.41 | 0 | 0 |
| 2,177 | Lokin | 2:05.47 | 0 | 0 |
| 2,178 | Gilmayne | 2:05.52 | 0 | 0 |
| 2,179 | Graviterium | 2:05.59 | 0 | 0 |
| 2,179 | StephanoLight | 2:05.59 | 0 | 0 |
| 2,181 | GeorgeDaDragon | 2:05.60 | 0 | 0 |
| 2,182 | KianNotCyan | 2:05.61 | 0 | 0 |
| 2,183 | Zane Wuffy | 2:05.64 | 0 | 0 |
| 2,184 | Patches | 2:05.67 | 0 | 0 |
| 2,185 | Tamer | 2:05.70 | 0 | 0 |
| 2,186 | mlk | 2:05.76 | 0 | 0 |
| 2,186 | Star Scuffle | 2:05.76 | 0 | 0 |
| 2,188 | kill everyone and leave | 2:05.92 | 0 | 0 |
| 2,189 | Ame | 2:05.96 | 0 | 0 |
| 2,190 | spectre | 2:06.07 | 0 | 0 |
| 2,191 | zeanamush | 2:06.28 | 0 | 0 |
| 2,191 | Loreckine | 2:06.28 | 0 | 0 |
| 2,193 | fightman | 2:06.34 | 0 | 0 |
| 2,194 | maemento mori | 2:06.38 | 0 | 0 |
| 2,195 | Daxival | 2:06.75 | 0 | 0 |
| 2,196 | ImmortalSausages | 2:06.80 | 0 | 0 |
| 2,197 | Пьер Долле™ | 2:06.92 | 0 | 0 |
| 2,197 | gmacc930 | 2:06.92 | 0 | 0 |
| 2,199 | IDCkata | 2:06.98 | 0 | 0 |
| 2,200 | 76561198315689252 | 2:07.01 | 0 | 0 |
| 2,201 | Mettaray | 2:07.03 | 0 | 0 |
| 2,202 | BioPaw | 2:07.05 | 0 | 0 |
| 2,203 | francky | 2:07.17 | 0 | 0 |
| 2,203 | quoy | 2:07.17 | 0 | 0 |
| 2,205 | Stéphane le koala :) | 2:07.21 | 0 | 0 |
| 2,206 | Lighti | 2:07.25 | 0 | 0 |
| 2,207 | Irri | 2:07.45 | 0 | 0 |
| 2,208 | IBurn36360 | 2:07.54 | 0 | 0 |
| 2,208 | bubbyboytoo | 2:07.54 | 0 | 0 |
| 2,210 | GetEmOtterHere | 2:07.55 | 0 | 0 |
| 2,211 | Kanye Of The West | 2:07.67 | 0 | 0 |
| 2,212 | baybapbob | 2:07.77 | 0 | 0 |
| 2,213 | Toby | 2:07.81 | 0 | 0 |
| 2,214 | Alaura | 2:07.99 | 0 | 0 |
| 2,215 | [deleted] | 2:08.01 | 0 | 0 |
| 2,216 | A Rather Joyous Merchant | 2:08.05 | 0 | 0 |
| 2,217 | BinkbonkDoopy | 2:08.11 | 0 | 0 |
| 2,218 | ArtIbex | 2:08.13 | 0 | 0 |
| 2,219 | Khailz | 2:08.20 | 0 | 0 |
| 2,220 | JigglyBax | 2:08.32 | 0 | 0 |
| 2,221 | thunderella | 2:08.35 | 0 | 0 |
| 2,222 | Bananbulance | 2:08.43 | 0 | 0 |
| 2,223 | Luke Reid | 2:08.44 | 0 | 0 |
| 2,224 | An old machine | 2:08.52 | 0 | 0 |
| 2,225 | ShadowS56 | 2:08.77 | 0 | 0 |
| 2,226 | tiagomaluco2 | 2:08.87 | 0 | 0 |
| 2,227 | vikliks | 2:09.09 | 0 | 0 |
| 2,228 | Dingo636 | 2:09.10 | 0 | 0 |
| 2,229 | tiO_Oit | 2:09.19 | 0 | 0 |
| 2,230 | CR4CKDUCK | 2:09.22 | 0 | 0 |
| 2,231 | Pinkieva | 2:09.41 | 0 | 0 |
| 2,232 | LordOfLemon | 2:09.52 | 0 | 0 |
| 2,233 | Geiger32 | 2:09.57 | 0 | 0 |
| 2,234 | Hi Jump Kick | 2:09.66 | 0 | 0 |
| 2,235 | ReverseUno | 2:09.70 | 0 | 0 |
| 2,236 | faustobdls | 2:09.73 | 0 | 0 |
| 2,236 | M J A Y | 2:09.73 | 0 | 0 |
| 2,238 | GingyNinjy | 2:09.81 | 0 | 0 |
| 2,239 | skiefalcorr | 2:09.87 | 0 | 0 |
| 2,240 | racercowboy | 2:09.89 | 0 | 0 |
| 2,241 | YashiiSama | 2:09.94 | 0 | 0 |
| 2,242 | darkcujo13 | 2:10.04 | 0 | 0 |
| 2,243 | Streetnips | 2:10.08 | 0 | 0 |
| 2,244 | calne | 2:10.09 | 0 | 0 |
| 2,245 | Hoffi | 2:10.12 | 0 | 0 |
| 2,246 | Nzrazor | 2:10.25 | 0 | 0 |
| 2,247 | Bermer | 2:10.26 | 0 | 0 |
| 2,248 | ecks | 2:10.45 | 0 | 0 |
| 2,249 | CamTheFriendly | 2:10.47 | 0 | 0 |
| 2,250 | Tab | 2:10.68 | 0 | 0 |
| 2,251 | Mr. Smith | 2:10.73 | 0 | 0 |
| 2,252 | 19cmNos | 2:10.77 | 0 | 0 |
| 2,253 | CookieCrummz | 2:10.78 | 0 | 0 |
| 2,253 | Bum Farto | 2:10.78 | 0 | 0 |
| 2,255 | Rip | 2:10.79 | 0 | 0 |
| 2,256 | Dr_Jamaymay | 2:10.82 | 0 | 0 |
| 2,257 | Misery | 2:10.86 | 0 | 0 |
| 2,258 | morgansinsidestory | 2:10.87 | 0 | 0 |
| 2,259 | lunaxiu | 2:10.88 | 0 | 0 |
| 2,260 | ben_kasack | 2:10.90 | 0 | 0 |
| 2,260 | Sandi_Witch | 2:10.90 | 0 | 0 |
| 2,262 | dust ♥ | 2:10.96 | 0 | 0 |
| 2,263 | Metastreumonic | 2:11.01 | 0 | 0 |
| 2,264 | KIM JONG GUN | 2:11.11 | 0 | 0 |
| 2,265 | decom70 | 2:11.18 | 0 | 0 |
| 2,266 | Maxzan | 2:11.25 | 0 | 0 |
| 2,266 | Fox_one34 | 2:11.25 | 0 | 0 |
| 2,268 | Berndbob Totkopf | 2:11.29 | 0 | 0 |
| 2,269 | IvanTheTerrible | 2:11.35 | 0 | 0 |
| 2,270 | ruteqube | 2:11.43 | 0 | 0 |
| 2,271 | Arc Dark | 2:11.44 | 0 | 0 |
| 2,272 | maess2ro | 2:11.51 | 0 | 0 |
| 2,273 | Anerix (Paradox) Cormin Quanadol | 2:11.57 | 0 | 0 |
| 2,274 | Bricked Up Vakama | 2:11.63 | 0 | 0 |
| 2,275 | NakDak | 2:11.91 | 0 | 0 |
| 2,276 | Tadagha | 2:11.93 | 0 | 0 |
| 2,277 | Drifting316 | 2:11.96 | 0 | 0 |
| 2,278 | Heliomachit | 2:11.99 | 0 | 0 |
| 2,279 | stinkberg city, usastien | 2:12.03 | 0 | 0 |
| 2,280 | Greeny^ | 2:12.04 | 0 | 0 |
| 2,281 | Useless | 2:12.08 | 0 | 0 |
| 2,282 | Breyos | 2:12.09 | 0 | 0 |
| 2,283 | Some Rogue AI | 2:12.22 | 0 | 0 |
| 2,283 | Whysman | 2:12.22 | 0 | 0 |
| 2,285 | Sol4212 | 2:12.29 | 0 | 0 |
| 2,286 | Remanner | 2:12.35 | 0 | 0 |
| 2,287 | Count Spatula | 2:12.47 | 0 | 0 |
| 2,288 | FirePower64 | 2:12.50 | 0 | 0 |
| 2,289 | Re 'Norm | 2:12.51 | 0 | 0 |
| 2,290 | Marko M | 2:12.61 | 0 | 0 |
| 2,291 | Ironman_2099 | 2:12.71 | 0 | 0 |
| 2,292 | Rektorfire | 2:12.73 | 0 | 0 |
| 2,293 | Zwick The Editor | 2:12.81 | 0 | 0 |
| 2,294 | Cremisino | 2:12.97 | 0 | 0 |
| 2,295 | smellydirt | 2:13.00 | 0 | 0 |
| 2,296 | Caroot | 2:13.12 | 0 | 0 |
| 2,297 | Helmut Helmbombe | 2:13.26 | 0 | 0 |
| 2,298 | DoctorDoc | 2:13.30 | 0 | 0 |
| 2,299 | IanRosk | 2:13.38 | 0 | 0 |
| 2,300 | ATOMIC | 2:13.43 | 0 | 0 |
| 2,301 | Ultimate Level 100 Vegan Wizard | 2:13.51 | 0 | 0 |
| 2,302 | olivqe | 2:13.77 | 0 | 0 |
| 2,303 | PowerLay | 2:13.79 | 0 | 0 |
| 2,304 | Exiled MOU | 2:13.81 | 0 | 0 |
| 2,305 | pøcker. ⨚ | 2:13.91 | 0 | 0 |
| 2,305 | Kazie | 2:13.91 | 0 | 0 |
| 2,307 | MightyNifty | 2:14.06 | 0 | 0 |
| 2,307 | HatCat, Oil Baron | 2:14.06 | 0 | 0 |
| 2,309 | BlackBird | 2:14.10 | 0 | 0 |
| 2,310 | IlLumierelI | 2:14.20 | 0 | 0 |
| 2,311 | Fbarok | 2:14.22 | 0 | 0 |
| 2,312 | D0HERRITT | 2:14.24 | 0 | 0 |
| 2,313 | The King of Limbo | 2:14.30 | 0 | 0 |
| 2,314 | Napoleon Stokes | 2:14.31 | 0 | 0 |
| 2,315 | k4z3 | 2:14.43 | 0 | 0 |
| 2,315 | Cooks | 2:14.43 | 0 | 0 |
| 2,317 | North | 2:14.46 | 0 | 0 |
| 2,318 | Danielwow | 2:14.48 | 0 | 0 |
| 2,319 | Bean Buscus | 2:14.49 | 0 | 0 |
| 2,320 | hiri | 2:14.55 | 0 | 0 |
| 2,321 | Alesha170 | 2:14.62 | 0 | 0 |
| 2,322 | Kaezon | 2:14.69 | 0 | 0 |
| 2,322 | Neverdusk | 2:14.69 | 0 | 0 |
| 2,324 | TaoSen | 2:14.71 | 0 | 0 |
| 2,325 | ΣlectrσWingPixy | 2:14.82 | 0 | 0 |
| 2,326 | Luis Xavier | 2:15.06 | 0 | 0 |
| 2,327 | pager | 2:15.08 | 0 | 0 |
| 2,328 | Life of π | 2:15.15 | 0 | 0 |
| 2,328 | Fussel | 2:15.15 | 0 | 0 |
| 2,330 | Zinja | 2:15.20 | 0 | 0 |
| 2,331 | Fat Boy Kyle | 2:15.37 | 0 | 0 |
| 2,332 | guy | 2:15.40 | 0 | 0 |
| 2,333 | ErzoopaRTR | 2:15.44 | 0 | 0 |
| 2,334 | Soraishollow | 2:15.45 | 0 | 0 |
| 2,334 | kakou | 2:15.45 | 0 | 0 |
| 2,336 | blacknole | 2:15.72 | 0 | 0 |
| 2,337 | CopperSail | 2:15.75 | 0 | 0 |
| 2,338 | [Muezli] Shufly16 | 2:15.87 | 0 | 0 |
| 2,339 | Darkjunk | 2:16.07 | 0 | 0 |
| 2,340 | DerGoldBärWerner | 2:16.10 | 0 | 0 |
| 2,341 | CoVoid | 2:16.13 | 0 | 0 |
| 2,341 | elThirtie | 2:16.13 | 0 | 0 |
| 2,343 | DragonsRage | 2:16.32 | 0 | 0 |
| 2,344 | JAZU | 2:16.48 | 0 | 0 |
| 2,345 | RisingHERO19 | 2:16.57 | 0 | 0 |
| 2,346 | Guybrush Threepwood | 2:16.65 | 0 | 0 |
| 2,347 | . | 2:16.71 | 0 | 0 |
| 2,348 | Zarkilor | 2:16.83 | 0 | 0 |
| 2,349 | offroadguy56 | 2:16.92 | 0 | 0 |
| 2,350 | Squasheux | 2:17.01 | 0 | 0 |
| 2,351 | Gravy Dumpster | 2:17.07 | 0 | 0 |
| 2,352 | Cosmic0de | 2:17.08 | 0 | 0 |
| 2,353 | meche-san | 2:17.16 | 0 | 0 |
| 2,354 | Apple | 2:17.34 | 0 | 0 |
| 2,355 | tyon25 | 2:17.40 | 0 | 0 |
| 2,356 | Junko | 2:17.48 | 0 | 0 |
| 2,357 | Adwilkins | 2:17.63 | 0 | 0 |
| 2,357 | Exafyll | 2:17.63 | 0 | 0 |
| 2,359 | Rozarism | 2:17.77 | 0 | 0 |
| 2,360 | HairyMeatball | 2:17.79 | 0 | 0 |
| 2,361 | Etcetera_Naut | 2:17.82 | 0 | 0 |
| 2,362 | McChillin | 2:17.87 | 0 | 0 |
| 2,363 | sangriia. | 2:17.91 | 0 | 0 |
| 2,364 | Lémohn | 2:17.92 | 0 | 0 |
| 2,365 | Redrain100 | 2:17.94 | 0 | 0 |
| 2,366 | Thrilla Gorilla | 2:17.98 | 0 | 0 |
| 2,367 | exodus | 2:18.04 | 0 | 0 |
| 2,368 | iBetYouDo | 2:18.05 | 0 | 0 |
| 2,369 | Sleepy | 2:18.08 | 0 | 0 |
| 2,369 | Ball232 | 2:18.08 | 0 | 0 |
| 2,371 | Nicholas | 2:18.19 | 0 | 0 |
| 2,371 | TotoSmith1992 | 2:18.19 | 0 | 0 |
| 2,373 | Nirius Bosc | 2:18.25 | 0 | 0 |
| 2,374 | nico3000 | 2:18.28 | 0 | 0 |
| 2,375 | Javs | 2:18.32 | 0 | 0 |
| 2,376 | J4M3Z34 | 2:18.33 | 0 | 0 |
| 2,377 | tripl3773ight | 2:18.45 | 0 | 0 |
| 2,378 | Lezyes | 2:18.49 | 0 | 0 |
| 2,379 | Maki | 2:18.53 | 0 | 0 |
| 2,380 | MARIODROPS | 2:18.57 | 0 | 0 |
| 2,381 | PantoGoose | 2:18.61 | 0 | 0 |
| 2,382 | Whisky_Mike | 2:18.65 | 0 | 0 |
| 2,383 | Razer | 2:18.77 | 0 | 0 |
| 2,383 | Zetex93 | 2:18.77 | 0 | 0 |
| 2,383 | Anonymous | 2:18.77 | 0 | 0 |
| 2,386 | Vettrun | 2:18.90 | 0 | 0 |
| 2,387 | sione | 2:19.11 | 0 | 0 |
| 2,388 | TwinkTamer | 2:19.20 | 0 | 0 |
| 2,389 | ShadowBenCS | 2:19.26 | 0 | 0 |
| 2,390 | QB_Fox | 2:19.51 | 0 | 0 |
| 2,391 | Too Many Urkels On Your Team | 2:19.52 | 0 | 0 |
| 2,392 | Lagavas | 2:19.60 | 0 | 0 |
| 2,393 | ⛧CR4CKERS⛧ | 2:19.63 | 0 | 0 |
| 2,394 | Laser Joe | 2:19.64 | 0 | 0 |
| 2,395 | Atomicsplash | 2:19.67 | 0 | 0 |
| 2,396 | Lightshift | 2:19.70 | 0 | 0 |
| 2,397 | Gutral | 2:19.72 | 0 | 0 |
| 2,398 | Aowashi | 2:19.81 | 0 | 0 |
| 2,399 | ZeeBee | 2:19.88 | 0 | 0 |
| 2,400 | Jolloking | 2:19.92 | 0 | 0 |
| 2,401 | Madeen | 2:20.01 | 0 | 0 |
| 2,402 | Sokkero | 2:20.35 | 0 | 0 |
| 2,402 | Fishboy | 2:20.35 | 0 | 0 |
| 2,404 | ehansen24 | 2:20.53 | 0 | 0 |
| 2,405 | FinalGoose | 2:20.66 | 0 | 0 |
| 2,406 | Lightbird | 2:20.76 | 0 | 0 |
| 2,407 | Para-diddle | 2:20.80 | 0 | 0 |
| 2,407 | Lumi. | 2:20.80 | 0 | 0 |
| 2,409 | megalodon0328 | 2:20.84 | 0 | 0 |
| 2,410 | *sip* | 2:20.95 | 0 | 0 |
| 2,411 | JaffaCaffa | 2:20.96 | 0 | 0 |
| 2,412 | PIX3L47 | 2:21.10 | 0 | 0 |
| 2,413 | JB Henry | 2:21.22 | 0 | 0 |
| 2,413 | SwampNoodz! | 2:21.22 | 0 | 0 |
| 2,415 | SquishyNimbus | 2:21.24 | 0 | 0 |
| 2,416 | Ication | 2:21.26 | 0 | 0 |
| 2,417 | Bear | 2:21.47 | 0 | 0 |
| 2,418 | DarkMaster | 2:21.55 | 0 | 0 |
| 2,419 | Tamaryndowiec | 2:21.60 | 0 | 0 |
| 2,420 | Exilis | 2:21.76 | 0 | 0 |
| 2,421 | Balathor | 2:21.78 | 0 | 0 |
| 2,422 | Logo${ru} | 2:21.79 | 0 | 0 |
| 2,423 | Black02 | 2:21.84 | 0 | 0 |
| 2,424 | Forwardjet | 2:21.97 | 0 | 0 |
| 2,425 | sralvarinho | 2:22.02 | 0 | 0 |
| 2,426 | KUKA | 2:22.25 | 0 | 0 |
| 2,427 | Crispy Nipples | 2:22.32 | 0 | 0 |
| 2,428 | pr0 gr0mi11a | 2:22.49 | 0 | 0 |
| 2,429 | Wicked Infusion | 2:22.50 | 0 | 0 |
| 2,430 | [T4] Commander Shiro | 2:22.72 | 0 | 0 |
| 2,431 | d_____0n | 2:23.04 | 0 | 0 |
| 2,432 | Freddy Fazbear | 2:23.37 | 0 | 0 |
| 2,433 | Twinbee | 2:23.84 | 0 | 0 |
| 2,434 | NoVaC | 2:23.95 | 0 | 0 |
| 2,435 | JynNorx | 2:24.07 | 0 | 0 |
| 2,436 | FluffyBunnyKing282 | 2:24.23 | 0 | 0 |
| 2,437 | Stanislavovich²³ | 2:24.46 | 0 | 0 |
| 2,438 | miro. | 2:24.59 | 0 | 0 |
| 2,439 | Raunio | 2:24.64 | 0 | 0 |
| 2,440 | Trollsmonster | 2:24.95 | 0 | 0 |
| 2,441 | Mango | 2:25.09 | 0 | 0 |
| 2,442 | Nicolaj | 2:25.19 | 0 | 0 |
| 2,443 | Ronpiche | 2:25.41 | 0 | 0 |
| 2,444 | theoryofgame | 2:25.61 | 0 | 0 |
| 2,445 | Shifted | 2:25.75 | 0 | 0 |
| 2,446 | hk | 2:25.76 | 0 | 0 |
| 2,446 | Julia | 2:25.76 | 0 | 0 |
| 2,448 | Duke333 | 2:25.79 | 0 | 0 |
| 2,449 | Shanikan | 2:25.84 | 0 | 0 |
| 2,450 | SAGA | 2:26.04 | 0 | 0 |
| 2,451 | Nazoog | 2:26.07 | 0 | 0 |
| 2,452 | Kari Renard / Nebula Warpstar | 2:26.24 | 0 | 0 |
| 2,453 | BlastMan<Qc> | 2:26.57 | 0 | 0 |
| 2,454 | MrJace | 2:26.75 | 0 | 0 |
| 2,455 | Fish | 2:26.76 | 0 | 0 |
| 2,456 | Jaymie | 2:26.78 | 0 | 0 |
| 2,456 | Bl4ckZer0 | 2:26.78 | 0 | 0 |
| 2,458 | Vash the Stampede | 2:27.08 | 0 | 0 |
| 2,458 | The Salt Is REAL | 2:27.08 | 0 | 0 |
| 2,460 | diktator | 2:27.37 | 0 | 0 |
| 2,461 | ShadeSlayer24 | 2:27.56 | 0 | 0 |
| 2,462 | Br0TherOfW@r [ PT ] | 2:27.68 | 0 | 0 |
| 2,462 | RetraraDragon | 2:27.68 | 0 | 0 |
| 2,464 | Slusher | 2:27.80 | 0 | 0 |
| 2,465 | RomeoKiloLima | 2:28.12 | 0 | 0 |
| 2,466 | Slyxxe | 2:28.13 | 0 | 0 |
| 2,467 | John Snake[SD] | 2:28.39 | 0 | 0 |
| 2,468 | ₲ØĐ Ø₣ ₲ØĐ₴ | 2:28.40 | 0 | 0 |
| 2,469 | TurnipOfTerror | 2:28.82 | 0 | 0 |
| 2,470 | Wabzi | 2:28.89 | 0 | 0 |
| 2,471 | _FallenTurtle_ | 2:29.11 | 0 | 0 |
| 2,472 | Doomstree | 2:29.14 | 0 | 0 |
| 2,473 | Xynper | 2:29.18 | 0 | 0 |
| 2,474 | Ember | 2:29.33 | 0 | 0 |
| 2,474 | Nubzoar | 2:29.33 | 0 | 0 |
| 2,476 | F-Five | 2:29.50 | 0 | 0 |
| 2,477 | I_FIGHT_FOR_THE_USERS | 2:29.55 | 0 | 0 |
| 2,478 | AmazinCraz3 | 2:29.58 | 0 | 0 |
| 2,479 | PedroelCanguro | 2:29.67 | 0 | 0 |
| 2,480 | Nadius | 2:29.90 | 0 | 0 |
| 2,481 | SiNiSTAR | 2:30.00 | 0 | 0 |
| 2,482 | SwAlL | 2:30.55 | 0 | 0 |
| 2,483 | NikoRasuT1 | 2:30.97 | 0 | 0 |
| 2,484 | Steve.o | 2:31.07 | 0 | 0 |
| 2,485 | Janus | 2:31.23 | 0 | 0 |
| 2,486 | Jambioo | 2:31.45 | 0 | 0 |
| 2,487 | tultako | 2:31.57 | 0 | 0 |
| 2,488 | Demarcus Cousins | 2:31.62 | 0 | 0 |
| 2,489 | Fugashi | 2:31.68 | 0 | 0 |
| 2,490 | 54mm7 | 2:31.82 | 0 | 0 |
| 2,491 | dancedanceindustrialrevolution | 2:31.85 | 0 | 0 |
| 2,492 | Tricore15 | 2:31.93 | 0 | 0 |
| 2,493 | The Metric System | 2:31.94 | 0 | 0 |
| 2,494 | Battle00333 | 2:32.09 | 0 | 0 |
| 2,495 | AriWasHereTomorrow | 2:32.14 | 0 | 0 |
| 2,496 | Silvertail | 2:32.27 | 0 | 0 |
| 2,497 | PaTrickShot Star | 2:32.46 | 0 | 0 |
| 2,498 | Vornn | 2:32.63 | 0 | 0 |
| 2,499 | BlackMortem | 2:32.65 | 0 | 0 |
| 2,500 | Unprogress | 2:32.73 | 0 | 0 |
| 2,501 | sylvan | 2:32.78 | 0 | 0 |
| 2,502 | TomatoSlayer6 | 2:32.80 | 0 | 0 |
| 2,503 | Ruff | 2:33.09 | 0 | 0 |
| 2,504 | Azzara7 | 2:33.21 | 0 | 0 |
| 2,505 | ERIC STRIKE INCOMING | 2:33.51 | 0 | 0 |
| 2,506 | Zanaro | 2:33.55 | 0 | 0 |
| 2,507 | kopfundsteinistgleichpflaster | 2:33.85 | 0 | 0 |
| 2,508 | Drashneer | 2:33.89 | 0 | 0 |
| 2,509 | Canman | 2:33.99 | 0 | 0 |
| 2,509 | AstroBold | 2:33.99 | 0 | 0 |
| 2,511 | Blourk | 2:34.05 | 0 | 0 |
| 2,512 | Despo_357 | 2:34.11 | 0 | 0 |
| 2,513 | Gil | 2:34.37 | 0 | 0 |
| 2,514 | Chadworthy | 2:34.40 | 0 | 0 |
| 2,515 | michaeldaku | 2:34.55 | 0 | 0 |
| 2,516 | M | 2:34.66 | 0 | 0 |
| 2,517 | ★ Vesperia ★ | 2:35.03 | 0 | 0 |
| 2,518 | Tall One | 2:35.11 | 0 | 0 |
| 2,519 | ToxicDeity | 2:35.42 | 0 | 0 |
| 2,520 | boned avery | 2:35.46 | 0 | 0 |
| 2,521 | wuza | 2:35.47 | 0 | 0 |
| 2,522 | Dazzle10 | 2:35.69 | 0 | 0 |
| 2,523 | Acedia | 2:35.87 | 0 | 0 |
| 2,524 | DemisGod | 2:35.93 | 0 | 0 |
| 2,525 | dumkaf | 2:36.07 | 0 | 0 |
| 2,526 | blueyindustries | 2:36.15 | 0 | 0 |
| 2,527 | Karthax | 2:36.21 | 0 | 0 |
| 2,528 | The Dopey Little Idiot | 2:36.23 | 0 | 0 |
| 2,529 | WTFrogs | 2:36.26 | 0 | 0 |
| 2,530 | EddoXD | 2:36.55 | 0 | 0 |
| 2,531 | pedroygormelo | 2:36.65 | 0 | 0 |
| 2,532 | Giovi9810 | 2:36.76 | 0 | 0 |
| 2,533 | PolarLI | 2:36.81 | 0 | 0 |
| 2,534 | Retteketet | 2:36.88 | 0 | 0 |
| 2,535 | JHoeps | 2:36.91 | 0 | 0 |
| 2,536 | EndskendV | 2:37.05 | 0 | 0 |
| 2,537 | BYTC | 2:37.16 | 0 | 0 |
| 2,538 | Digiten | 2:37.56 | 0 | 0 |
| 2,539 | shlyapasha | 2:37.58 | 0 | 0 |
| 2,540 | HeckinWerewolf | 2:37.86 | 0 | 0 |
| 2,541 | milli | 2:38.15 | 0 | 0 |
| 2,542 | Nuclear Phoenix | 2:38.21 | 0 | 0 |
| 2,543 | brikema | 2:38.22 | 0 | 0 |
| 2,544 | .TRL AlnDeron | 2:38.37 | 0 | 0 |
| 2,545 | Hateme | 2:38.39 | 0 | 0 |
| 2,546 | tet | 2:38.47 | 0 | 0 |
| 2,547 | Xyte | 2:38.62 | 0 | 0 |
| 2,548 | ItsMarcus | 2:38.64 | 0 | 0 |
| 2,549 | Euphoria.exe | 2:38.73 | 0 | 0 |
| 2,550 | Pix | 2:38.74 | 0 | 0 |
| 2,551 | 76561199053591580 | 2:38.87 | 0 | 0 |
| 2,552 | thepandahipster | 2:38.88 | 0 | 0 |
| 2,553 | Bezel | 2:39.23 | 0 | 0 |
| 2,554 | Leonidus | 2:39.39 | 0 | 0 |
| 2,555 | thechef | 2:39.72 | 0 | 0 |
| 2,556 | 1996 Honda Civic EX | 2:39.74 | 0 | 0 |
| 2,557 | Rainbow Dash UwU | 2:39.86 | 0 | 0 |
| 2,558 | Dr.Elusive | 2:40.05 | 0 | 0 |
| 2,559 | Setherouth | 2:40.15 | 0 | 0 |
| 2,560 | boba | 2:40.33 | 0 | 0 |
| 2,561 | OSGIGA | 2:40.36 | 0 | 0 |
| 2,562 | nÿl@j!m4. | 2:40.77 | 0 | 0 |
| 2,563 | BBQ-Bacon-Pizza | 2:41.10 | 0 | 0 |
| 2,564 | Pureception | 2:41.40 | 0 | 0 |
| 2,565 | therealcharbacca | 2:41.67 | 0 | 0 |
| 2,566 | Jim with no slim | 2:41.86 | 0 | 0 |
| 2,567 | The Terrible Pangwan | 2:42.27 | 0 | 0 |
| 2,568 | TheAechBomb | 2:42.41 | 0 | 0 |
| 2,569 | T1+0 | 2:42.42 | 0 | 0 |
| 2,570 | Idän voodoopappi | 2:42.83 | 0 | 0 |
| 2,571 | Spoiler Alert | 2:43.03 | 0 | 0 |
| 2,572 | Titus | 2:43.05 | 0 | 0 |
| 2,573 | DSMaddiction | 2:43.26 | 0 | 0 |
| 2,574 | Jodeth | 2:43.69 | 0 | 0 |
| 2,575 | MONKKING(DEAD) | 2:43.73 | 0 | 0 |
| 2,576 | solar_roller | 2:43.91 | 0 | 0 |
| 2,577 | Sleve McDichael | 2:44.25 | 0 | 0 |
| 2,578 | Maddeth | 2:44.37 | 0 | 0 |
| 2,579 | AlistairBlack504 | 2:44.79 | 0 | 0 |
| 2,580 | PuroWag | 2:45.30 | 0 | 0 |
| 2,581 | driima | 2:45.58 | 0 | 0 |
| 2,582 | yeehaw | 2:45.94 | 0 | 0 |
| 2,583 | Plague doctor | 2:46.06 | 0 | 0 |
| 2,584 | AniseedWolf | 2:46.58 | 0 | 0 |
| 2,585 | Flaahn | 2:46.73 | 0 | 0 |
| 2,586 | HugMyDuck | 2:46.97 | 0 | 0 |
| 2,587 | Sabo | 2:46.98 | 0 | 0 |
| 2,588 | cwook | 2:47.38 | 0 | 0 |
| 2,589 | Spur | 2:47.42 | 0 | 0 |
| 2,590 | -Synthetica- | 2:47.44 | 0 | 0 |
| 2,591 | Ezendar | 2:47.55 | 0 | 0 |
| 2,592 | Nightpaw | 2:47.86 | 0 | 0 |
| 2,593 | teef boi | 2:48.16 | 0 | 0 |
| 2,594 | Caspetic | 2:48.17 | 0 | 0 |
| 2,595 | Bonzi Buddy | 2:48.43 | 0 | 0 |
| 2,596 | ❤Sexy CatGirl❤ | 2:48.44 | 0 | 0 |
| 2,597 | Ozkillilator | 2:48.57 | 0 | 0 |
| 2,598 | Cod Peterson | 2:48.73 | 0 | 0 |
| 2,599 | The Conglomerate | 2:49.22 | 0 | 0 |
| 2,600 | Dr. Heinz Doofenshmirtz | 2:49.36 | 0 | 0 |
| 2,601 | T H O N K | 2:49.37 | 0 | 0 |
| 2,602 | BubblegumDUK | 2:49.57 | 0 | 0 |
| 2,602 | Loomshade | 2:49.57 | 0 | 0 |
| 2,604 | Pinto Alado | 2:49.66 | 0 | 0 |
| 2,605 | IsoSheepington | 2:49.77 | 0 | 0 |
| 2,606 | Keflon | 2:49.90 | 0 | 0 |
| 2,607 | Snaked | 2:50.30 | 0 | 0 |
| 2,608 | ヘンタイワンラブ | 2:50.94 | 0 | 0 |
| 2,609 | Matsouza | 2:50.99 | 0 | 0 |
| 2,610 | GoldenPresence | 2:51.15 | 0 | 0 |
| 2,611 | Arceashh | 2:51.31 | 0 | 0 |
| 2,612 | ChrisDerToaster | 2:51.46 | 0 | 0 |
| 2,613 | DTAltair | 2:52.42 | 0 | 0 |
| 2,614 | Pandonian | 2:52.59 | 0 | 0 |
| 2,615 | Femboy2k | 2:52.92 | 0 | 0 |
| 2,616 | El classico | 2:53.12 | 0 | 0 |
| 2,617 | Damionf | 2:53.31 | 0 | 0 |
| 2,618 | TheDreamlord | 2:54.47 | 0 | 0 |
| 2,618 | You Are Valid | 2:54.47 | 0 | 0 |
| 2,620 | Brock | 2:54.57 | 0 | 0 |
| 2,621 | Haunter | 2:54.69 | 0 | 0 |
| 2,622 | Microwave | 2:54.74 | 0 | 0 |
| 2,623 | NanoDrive | 2:54.85 | 0 | 0 |
| 2,624 | chillaGorilla | 2:55.13 | 0 | 0 |
| 2,625 | Sibsen | 2:55.44 | 0 | 0 |
| 2,625 | Nuke2Go | 2:55.44 | 0 | 0 |
| 2,627 | Merged Angels | 2:56.02 | 0 | 0 |
| 2,628 | Icean3 | 2:56.11 | 0 | 0 |
| 2,629 | GR4PHIX | 2:56.82 | 0 | 0 |
| 2,630 | CatbotBlaire | 2:57.75 | 0 | 0 |
| 2,631 | Doc Holiday | 2:58.55 | 0 | 0 |
| 2,632 | raccoon | 2:58.57 | 0 | 0 |
| 2,633 | Alzeon | 2:58.83 | 0 | 0 |
| 2,634 | AmberNik | 2:59.33 | 0 | 0 |
| 2,635 | agitaire | 2:59.38 | 0 | 0 |
| 2,636 | DoctorMax | 2:59.76 | 0 | 0 |
| 2,637 | Tavere | 2:59.90 | 0 | 0 |
| 2,638 | Skrall' | 2:59.97 | 0 | 0 |
| 2,639 | furry vape swag messiah | 3:00.33 | 0 | 0 |
| 2,640 | NeonVixie | 3:00.64 | 0 | 0 |
| 2,641 | |D.H.E| Azzurol | 3:00.90 | 0 | 0 |
| 2,642 | Synnøve | 3:00.95 | 0 | 0 |
| 2,643 | TrickEmi | 3:01.59 | 0 | 0 |
| 2,644 | lfighter | 3:02.08 | 0 | 0 |
| 2,645 | RaPtOr987656789 | 3:02.28 | 0 | 0 |
| 2,646 | LunarRay | 3:02.38 | 0 | 0 |
| 2,647 | Loys Nuva | 3:02.53 | 0 | 0 |
| 2,648 | TheLesbian50/50 | 3:03.06 | 0 | 0 |
| 2,649 | Shadow_Axel | 3:03.20 | 0 | 0 |
| 2,650 | Yuki Arika Muze | 3:03.44 | 0 | 0 |
| 2,651 | DrNobody | 3:03.49 | 0 | 0 |
| 2,652 | Badass Marill | 3:03.55 | 0 | 0 |
| 2,653 | Soulphur | 3:03.66 | 0 | 0 |
| 2,654 | br1.mg | 3:03.69 | 0 | 0 |
| 2,655 | Achromatic_Colors | 3:03.80 | 0 | 0 |
| 2,656 | Urushihara | 3:04.17 | 0 | 0 |
| 2,657 | Ahhrealpeople | 3:04.28 | 0 | 0 |
| 2,658 | EMPTY | 3:04.54 | 0 | 0 |
| 2,659 | Araneus | 3:04.71 | 0 | 0 |
| 2,660 | ImberKnight | 3:04.79 | 0 | 0 |
| 2,661 | Ptakx [ES-FR] | 3:05.13 | 0 | 0 |
| 2,662 | Felidaptra | 3:05.23 | 0 | 0 |
| 2,663 | dsklein6 | 3:05.35 | 0 | 0 |
| 2,664 | TruE | 3:05.79 | 0 | 0 |
| 2,665 | R-M-@-L | 3:06.52 | 0 | 0 |
| 2,666 | 𝙈 | 3:06.77 | 0 | 0 |
| 2,667 | Ronald | 3:07.23 | 0 | 0 |
| 2,668 | Kitsu | 3:07.67 | 0 | 0 |
| 2,669 | Jin Ja | 3:07.68 | 0 | 0 |
| 2,670 | minilitle | 3:07.70 | 0 | 0 |
| 2,671 | Neoky | 3:08.02 | 0 | 0 |
| 2,672 | N_Thinker | 3:09.40 | 0 | 0 |
| 2,673 | Cainax | 3:10.53 | 0 | 0 |
| 2,674 | RocketZeLuna | 3:10.78 | 0 | 0 |
| 2,675 | little miss steak | 3:11.21 | 0 | 0 |
| 2,676 | Enthrall Decree | 3:11.43 | 0 | 0 |
| 2,677 | Nyro | 3:12.22 | 0 | 0 |
| 2,678 | zorankid | 3:12.72 | 0 | 0 |
| 2,679 | Speccy | 3:12.77 | 0 | 0 |
| 2,680 | unearthly_child_ | 3:12.90 | 0 | 0 |
| 2,681 | Slav | 3:12.94 | 0 | 0 |
| 2,682 | Doku | 3:13.82 | 0 | 0 |
| 2,683 | Omega_Raptors | 3:13.89 | 0 | 0 |
| 2,684 | ado line | 3:15.02 | 0 | 0 |
| 2,685 | Studkip | 3:16.42 | 0 | 0 |
| 2,686 | Faize | 3:16.77 | 0 | 0 |
| 2,687 | Adri | 3:17.09 | 0 | 0 |
| 2,688 | Nadoc | 3:17.19 | 0 | 0 |
| 2,689 | Ghost | 3:17.38 | 0 | 0 |
| 2,690 | Claire Astora | 3:18.17 | 0 | 0 |
| 2,691 | Carmel0P | 3:18.23 | 0 | 0 |
| 2,692 | badyherz | 3:19.02 | 0 | 0 |
| 2,693 | King Game | 3:19.17 | 0 | 0 |
| 2,694 | Vencer_FRC | 3:19.63 | 0 | 0 |
| 2,695 | NULL; | 3:20.47 | 0 | 0 |
| 2,696 | octacrak | 3:20.55 | 0 | 0 |
| 2,697 | BB | 3:20.68 | 0 | 0 |
| 2,698 | CV_team_foxy | 3:20.79 | 0 | 0 |
| 2,699 | Spiralasis | 3:22.21 | 0 | 0 |
| 2,700 | Brown Puppy | 3:22.52 | 0 | 0 |
| 2,701 | Pedro | 3:22.59 | 0 | 0 |
| 2,702 | isuckass68 | 3:22.84 | 0 | 0 |
| 2,703 | Arsanthania | 3:23.01 | 0 | 0 |
| 2,704 | joup.jaspars | 3:24.53 | 0 | 0 |
| 2,705 | ultravirus | 3:24.61 | 0 | 0 |
| 2,706 | adobesmurf | 3:25.23 | 0 | 0 |
| 2,707 | OGJOHNNYBOBSON | 3:25.48 | 0 | 0 |
| 2,708 | Stampede | 3:26.24 | 0 | 0 |
| 2,709 | Pawjob | 3:26.55 | 0 | 0 |
| 2,710 | gimmick | 3:26.71 | 0 | 0 |
| 2,711 | Glypse | 3:26.72 | 0 | 0 |
| 2,712 | DrPiggler | 3:26.99 | 0 | 0 |
| 2,713 | Pexillien | 3:27.74 | 0 | 0 |
| 2,714 | Rodroxh | 3:28.26 | 0 | 0 |
| 2,715 | Combustaoki | 3:28.71 | 0 | 0 |
| 2,716 | Natr | 3:29.11 | 0 | 0 |
| 2,717 | epicEaston197 | 3:29.20 | 0 | 0 |
| 2,718 | Slax_ | 3:29.27 | 0 | 0 |
| 2,719 | Deadtrickz | 3:29.70 | 0 | 0 |
| 2,720 | Palaopi | 3:29.87 | 0 | 0 |
| 2,721 | SparkyVK | 3:30.03 | 0 | 0 |
| 2,722 | blotto | 3:30.86 | 0 | 0 |
| 2,723 | SaculAgile | 3:32.00 | 0 | 0 |
| 2,724 | Tonesyy | 3:32.15 | 0 | 0 |
| 2,725 | silversin33 | 3:33.71 | 0 | 0 |
| 2,726 | Matork | 3:35.55 | 0 | 0 |
| 2,727 | Ω Compu | 3:36.44 | 0 | 0 |
| 2,728 | RNAFA | 3:37.28 | 0 | 0 |
| 2,729 | Petrus | 3:37.97 | 0 | 0 |
| 2,730 | Anvilanche | 3:39.17 | 0 | 0 |
| 2,731 | KillerSamik | 3:39.80 | 0 | 0 |
| 2,732 | Zastier | 3:40.29 | 0 | 0 |
| 2,733 | Wognyyy | 3:40.48 | 0 | 0 |
| 2,734 | Haruko | 3:41.49 | 0 | 0 |
| 2,735 | zarz | 3:42.07 | 0 | 0 |
| 2,736 | Aero | 3:43.03 | 0 | 0 |
| 2,737 | Axoloton | 3:43.08 | 0 | 0 |
| 2,738 | Aston | 3:43.25 | 0 | 0 |
| 2,739 | slimcake07 | 3:44.35 | 0 | 0 |
| 2,740 | Mister JT | 3:44.76 | 0 | 0 |
| 2,741 | colt5656 | 3:45.41 | 0 | 0 |
| 2,742 | mateusz9m9a9x | 3:45.45 | 0 | 0 |
| 2,743 | Herb Derderfrerd | 3:46.32 | 0 | 0 |
| 2,744 | schloge | 3:46.42 | 0 | 0 |
| 2,745 | Robotnik00 | 3:46.43 | 0 | 0 |
| 2,746 | Luis | 3:47.70 | 0 | 0 |
| 2,747 | stagbeetlejuice | 3:48.00 | 0 | 0 |
| 2,748 | CageEater | 3:48.46 | 0 | 0 |
| 2,749 | Fusions | 3:50.49 | 0 | 0 |
| 2,750 | 1MBStudios | 3:52.30 | 0 | 0 |
| 2,751 | Rhamley | 3:52.65 | 0 | 0 |
| 2,752 | [_________] | 3:54.05 | 0 | 0 |
| 2,753 | Lars | 3:55.24 | 0 | 0 |
| 2,754 | Methyltheobromine | 3:55.79 | 0 | 0 |
| 2,755 | CarboneXIV | 3:56.12 | 0 | 0 |
| 2,756 | ★Doka-SP★ | 3:56.73 | 0 | 0 |
| 2,757 | catbotz | 3:56.76 | 0 | 0 |
| 2,758 | bsp | 3:58.81 | 0 | 0 |
| 2,759 | conkistador | 3:58.93 | 0 | 0 |
| 2,760 | rikko | 3:58.99 | 0 | 0 |
| 2,761 | JPrice24 | 4:00.39 | 0 | 0 |
| 2,762 | Phil | 4:00.76 | 0 | 0 |
| 2,763 | Агент Карлсон | 4:01.11 | 0 | 0 |
| 2,764 | Pissant (DX Cut) | 4:01.64 | 0 | 0 |
| 2,765 | george.ajax13 | 4:03.02 | 0 | 0 |
| 2,766 | Kinkajou | 4:04.90 | 0 | 0 |
| 2,767 | Odd_Wanderer | 4:05.68 | 0 | 0 |
| 2,768 | HotGamer1995 | 4:06.73 | 0 | 0 |
| 2,769 | NowThatYouSaidItLikeThat | 4:07.32 | 0 | 0 |
| 2,770 | Resident Beefer | 4:07.43 | 0 | 0 |
| 2,771 | SCRIN | 4:07.74 | 0 | 0 |
| 2,772 | Enigma | 4:08.38 | 0 | 0 |
| 2,773 | NullVoid | 4:08.75 | 0 | 0 |
| 2,774 | Mertinkle | 4:12.52 | 0 | 0 |
| 2,775 | FoxFinale | 4:13.50 | 0 | 0 |
| 2,776 | Big Raims Is A Big Taims | 4:14.19 | 0 | 0 |
| 2,777 | echo | 4:14.40 | 0 | 0 |
| 2,778 | Holly | 4:14.79 | 0 | 0 |
| 2,779 | Antoino | 4:17.40 | 0 | 0 |
| 2,780 | NetaNeta | 4:17.89 | 0 | 0 |
| 2,781 | Angeru | 4:19.78 | 0 | 0 |
| 2,782 | ClassyClownfish | 4:22.51 | 0 | 0 |
| 2,783 | AltHippiRocker | 4:23.13 | 0 | 0 |
| 2,784 | 𝙽𝙰ϻΘ𝙽λITƎ | 4:25.04 | 0 | 0 |
| 2,785 | Our Jik | 4:29.01 | 0 | 0 |
| 2,786 | BlastProcess | 4:29.37 | 0 | 0 |
| 2,787 | ShotgunReptile | 4:30.43 | 0 | 0 |
| 2,788 | Big Disk | 4:31.12 | 0 | 0 |
| 2,789 | Magh | 4:34.87 | 0 | 0 |
| 2,790 | 🌺 CallMeAshley 🌺 | 4:37.16 | 0 | 0 |
| 2,791 | svaged | 4:42.91 | 0 | 0 |
| 2,792 | Black | 4:43.14 | 0 | 0 |
| 2,793 | Shizarium | 4:44.27 | 0 | 0 |
| 2,794 | Walter Kovacs 5 | 4:49.86 | 0 | 0 |
| 2,795 | dlupal | 4:50.39 | 0 | 0 |
| 2,796 | Dipironald | 4:52.56 | 0 | 0 |
| 2,797 | Flaccid Assassin | 4:53.56 | 0 | 0 |
| 2,798 | Heavy Shamus | 4:56.42 | 0 | 0 |
| 2,799 | Beebz | 4:59.59 | 0 | 0 |
| 2,800 | ㄒㄖ卂丂ㄒ丨乙Ҝㄖㄖㄥ | 5:03.06 | 0 | 0 |
| 2,801 | Gentoki | 5:08.57 | 0 | 0 |
| 2,802 | CoJo12 | 5:12.13 | 0 | 0 |
| 2,803 | Azem_of_Earth | 5:15.87 | 0 | 0 |
| 2,804 | VERSAT1L | 5:18.42 | 0 | 0 |
| 2,805 | portraitchinois | 5:19.74 | 0 | 0 |
| 2,806 | shocktiming | 5:21.83 | 0 | 0 |
| 2,807 | Soil | 5:22.21 | 0 | 0 |
| 2,808 | Melvin Kelvin | 5:37.37 | 0 | 0 |
| 2,809 | PIRATE | 5:38.18 | 0 | 0 |
| 2,810 | realityshots | 5:42.36 | 0 | 0 |
| 2,811 | mxT3 (mxtomek) | 5:56.97 | 0 | 0 |
| 2,812 | daniel | 6:21.33 | 0 | 0 |
| 2,813 | ღStephღ | 6:23.74 | 0 | 0 |
| 2,814 | tveh | 6:33.05 | 0 | 0 |
| 2,815 | hyev7fam | 6:45.41 | 0 | 0 |
| 2,816 | we is literally the elfs | 7:12.55 | 0 | 0 |
| 2,817 | =1stCPB= LCpl. RAINE Runner | 7:21.71 | 0 | 0 |
| 2,818 | Checkpoint | 8:50.20 | 0 | 0 |
| 2,819 | Buckley's Angel | 9:17.86 | 0 | 0 |
| 2,820 | aemmett95 | 13:46.14 | 0 | 0 |
HoldGrip